Darstellungsparameter: Aktuell verwendete Einstellungen:
Skalierung der Graphiken ... ?
xyx+y,   Skalierungsfaktor:      Skalierung: Modus: x, Faktor: 1
Darstellungszeitraum ... ?
Vom - - bis: - -   Zeitraum: 23.03.2019 - 29.03.2019
Min/Max/Avg-Anzeige ... ?
Zeige MMA aktuell
Zeige MMA Monat
Zeige MMA alles
Zeige --A aktuell
Zeige --A Monat
Zeige --A alles
Keine MMA-Anzeige
MMA:
Average (ber die Originaldaten)
MMA-Basis: 23.03.2019 - 29.03.2019
Quicknavigation für Darstellung... ?
Tage:      1T, 2T, 3T, 5T -1T -2T -3T -5T +1T +2T +3T +5T
Wochen: 1W, 2W, 3W -1W -2W -3W +1W +2W +3W
Monate: 1M, 3M, 6M -1M -3M -6M +1M +3M +6M
Jahre:    1J, 3J, 5J, 10J -1J -3J -5J -10J +1J +3J +5J +10J
Nutze für die Darstellung ... ?
Originaldaten oder Mittelwerte auf ...
Stundenbasis Tagesbasis Wochenbasis
Monatsbasis Jahresbasis      Datenbasis: Original-Daten
Darstellen als:
Statistik (Auto) Statistik J:M      Darstellung:
Zur Graphik,    zurück zur Übersicht aller Sensoren.
 
Tabellarische Datenbersicht: ?
 
Sensor: Nr:Datum:Temp:Abs-Feuchte:Windchill:Wind:
Aussen-T/F 1 23-03-2019 00:00:00 6.1 C 5.99 g/m*3 6.1 C 0 km/h
2 23-03-2019 00:05:00 6 C 5.95 g/m*3 6 C 0 km/h
3 23-03-2019 00:10:00 5.8 C 5.87 g/m*3 5.8 C 0 km/h
4 23-03-2019 00:15:00 5.7 C 5.91 g/m*3 5.7 C 0 km/h
5 23-03-2019 00:20:00 5.7 C 5.91 g/m*3 5.7 C 0 km/h
6 23-03-2019 00:25:00 5.6 C 5.8 g/m*3 5.6 C 0 km/h
7 23-03-2019 00:30:00 5.5 C 5.76 g/m*3 5.5 C 0 km/h
8 23-03-2019 00:35:00 5.3 C 5.75 g/m*3 5.3 C 0 km/h
9 23-03-2019 00:40:00 5.2 C 5.78 g/m*3 5.2 C 0 km/h
10 23-03-2019 00:45:00 5.1 C 5.75 g/m*3 5.1 C 0 km/h
11 23-03-2019 00:50:00 5.1 C 5.81 g/m*3 5.1 C 0 km/h
12 23-03-2019 00:55:00 4.9 C 5.67 g/m*3 4.9 C 0 km/h
13 23-03-2019 01:00:00 4.8 C 5.7 g/m*3 4.8 C 0 km/h
14 23-03-2019 01:05:00 4.8 C 5.7 g/m*3 4.8 C 0 km/h
15 23-03-2019 01:10:00 4.9 C 5.81 g/m*3 4.9 C 0 km/h
16 23-03-2019 01:15:00 5.1 C 5.88 g/m*3 5.1 C 0 km/h
17 23-03-2019 01:20:00 5.2 C 5.85 g/m*3 5.2 C 0 km/h
18 23-03-2019 01:25:00 5 C 5.78 g/m*3 5 C 0 km/h
19 23-03-2019 01:30:00 4.8 C 5.7 g/m*3 4.8 C 0 km/h
20 23-03-2019 01:35:00 4.7 C 5.66 g/m*3 4.7 C 0 km/h
21 23-03-2019 01:40:00 4.6 C 5.62 g/m*3 4.6 C 0 km/h
22 23-03-2019 01:45:00 4.4 C 5.62 g/m*3 4.4 C 0 km/h
23 23-03-2019 01:50:00 4.3 C 5.58 g/m*3 4.3 C 0 km/h
24 23-03-2019 01:55:00 4.3 C 5.64 g/m*3 4.3 C 0 km/h
25 23-03-2019 02:00:00 4.2 C 5.61 g/m*3 4.2 C 0 km/h
Sensor: Nr:Datum:Temp:Abs-Feuchte:Windchill:Wind:
Aussen-T/F 26 23-03-2019 02:05:00 4.2 C 5.61 g/m*3 4.2 C 0 km/h
27 23-03-2019 02:10:00 4.1 C 5.57 g/m*3 4.1 C 0 km/h
28 23-03-2019 02:15:00 4.1 C 5.63 g/m*3 4.1 C 0 km/h
29 23-03-2019 02:20:00 4 C 5.59 g/m*3 4 C 0 km/h
30 23-03-2019 02:25:00 3.9 C 5.56 g/m*3 3.9 C 0 km/h
31 23-03-2019 02:30:00 3.9 C 5.62 g/m*3 3.9 C 0 km/h
32 23-03-2019 02:35:00 3.9 C 5.62 g/m*3 3.9 C 0 km/h
33 23-03-2019 02:40:00 3.9 C 5.56 g/m*3 3.9 C 0 km/h
34 23-03-2019 02:45:00 4 C 5.66 g/m*3 4 C 0 km/h
35 23-03-2019 02:50:00 4.2 C 5.73 g/m*3 4.2 C 0 km/h
36 23-03-2019 02:55:00 4.2 C 5.73 g/m*3 4.2 C 0 km/h
37 23-03-2019 03:00:00 4.2 C 5.73 g/m*3 4.2 C 0 km/h
38 23-03-2019 03:05:00 4.1 C 5.63 g/m*3 4.1 C 0 km/h
39 23-03-2019 03:10:00 4 C 5.59 g/m*3 4 C 0 km/h
40 23-03-2019 03:15:00 4 C 5.66 g/m*3 4 C 0 km/h
41 23-03-2019 03:20:00 3.8 C 5.52 g/m*3 3.8 C 0 km/h
42 23-03-2019 03:25:00 3.7 C 5.48 g/m*3 3.7 C 0 km/h
43 23-03-2019 03:30:00 3.6 C 5.51 g/m*3 3.6 C 0 km/h
44 23-03-2019 03:35:00 3.5 C 5.47 g/m*3 3.5 C 0 km/h
45 23-03-2019 03:40:00 3.3 C 5.4 g/m*3 3.3 C 0 km/h
46 23-03-2019 03:45:00 3.3 C 5.46 g/m*3 3.3 C 0 km/h
47 23-03-2019 03:50:00 3.4 C 5.5 g/m*3 3.4 C 0 km/h
48 23-03-2019 03:55:00 3.4 C 5.5 g/m*3 3.4 C 0 km/h
49 23-03-2019 04:00:00 3.4 C 5.5 g/m*3 3.4 C 0 km/h
50 23-03-2019 04:05:00 3.4 C 5.5 g/m*3 3.4 C 0 km/h
Sensor: Nr:Datum:Temp:Abs-Feuchte:Windchill:Wind:
Aussen-T/F 51 23-03-2019 04:10:00 3.4 C 5.5 g/m*3 3.4 C 0 km/h
52 23-03-2019 04:15:00 3.3 C 5.46 g/m*3 3.3 C 0 km/h
53 23-03-2019 04:20:00 3.3 C 5.46 g/m*3 3.3 C 0 km/h
54 23-03-2019 04:25:00 3.4 C 5.5 g/m*3 3.4 C 0 km/h
55 23-03-2019 04:30:00 3.5 C 5.6 g/m*3 3.5 C 0 km/h
56 23-03-2019 04:35:00 3.6 C 5.63 g/m*3 3.6 C 0 km/h
57 23-03-2019 04:40:00 3.6 C 5.57 g/m*3 3.6 C 0 km/h
58 23-03-2019 04:45:00 3.5 C 5.47 g/m*3 3.5 C 0 km/h
59 23-03-2019 04:50:00 3.4 C 5.5 g/m*3 3.4 C 0 km/h
60 23-03-2019 04:55:00 3.3 C 5.46 g/m*3 3.3 C 0 km/h
61 23-03-2019 05:00:00 3.5 C 5.6 g/m*3 3.5 C 0 km/h
62 23-03-2019 05:05:00 3.6 C 5.57 g/m*3 3.6 C 0 km/h
63 23-03-2019 05:10:00 3.5 C 5.53 g/m*3 3.5 C 0 km/h
64 23-03-2019 05:15:00 3.3 C 5.4 g/m*3 3.3 C 0 km/h
65 23-03-2019 05:20:00 3.3 C 5.46 g/m*3 3.3 C 0 km/h
66 23-03-2019 05:25:00 3.3 C 5.46 g/m*3 3.3 C 0 km/h
67 23-03-2019 05:30:00 3.4 C 5.5 g/m*3 3.4 C 0 km/h
68 23-03-2019 05:35:00 3.4 C 5.5 g/m*3 3.4 C 0 km/h
69 23-03-2019 05:40:00 3.3 C 5.46 g/m*3 3.3 C 0 km/h
70 23-03-2019 05:45:00 3.1 C 5.33 g/m*3 3.1 C 0 km/h
71 23-03-2019 05:50:00 2.9 C 5.26 g/m*3 2.9 C 0 km/h
72 23-03-2019 05:55:00 2.8 C 5.28 g/m*3 2.8 C 0 km/h
73 23-03-2019 06:00:00 2.7 C 5.24 g/m*3 2.7 C 0 km/h
74 23-03-2019 06:05:00 2.6 C 5.21 g/m*3 2.6 C 0 km/h
75 23-03-2019 06:10:00 2.4 C 5.14 g/m*3 2.4 C 0 km/h
Sensor: Nr:Datum:Temp:Abs-Feuchte:Windchill:Wind:
Aussen-T/F 76 23-03-2019 06:15:00 2.4 C 5.2 g/m*3 2.4 C 0 km/h
77 23-03-2019 06:20:00 2.4 C 5.2 g/m*3 2.4 C 0 km/h
78 23-03-2019 06:25:00 2.4 C 5.2 g/m*3 2.4 C 0 km/h
79 23-03-2019 06:30:00 2.4 C 5.25 g/m*3 2.4 C 0 km/h
80 23-03-2019 06:35:00 2.6 C 5.32 g/m*3 2.6 C 0 km/h
81 23-03-2019 06:40:00 2.6 C 5.32 g/m*3 2.6 C 0 km/h
82 23-03-2019 06:45:00 2.7 C 5.36 g/m*3 2.7 C 0 km/h
83 23-03-2019 06:50:00 2.6 C 5.32 g/m*3 2.6 C 0 km/h
84 23-03-2019 06:55:00 2.5 C 5.23 g/m*3 2.5 C 0 km/h
85 23-03-2019 07:00:00 2.4 C 5.25 g/m*3 2.4 C 0 km/h
86 23-03-2019 07:05:00 2.4 C 5.25 g/m*3 2.4 C 0 km/h
87 23-03-2019 07:10:00 2.5 C 5.29 g/m*3 2.5 C 0 km/h
88 23-03-2019 07:15:00 2.7 C 5.42 g/m*3 2.7 C 0 km/h
89 23-03-2019 07:20:00 3.5 C 5.84 g/m*3 3.5 C 0 km/h
90 23-03-2019 07:25:00 4.2 C 6.19 g/m*3 4.2 C 0 km/h
91 23-03-2019 07:30:00 4.7 C 6.39 g/m*3 4.7 C 0 km/h
92 23-03-2019 07:35:00 4.9 C 6.41 g/m*3 4.9 C 0 km/h
93 23-03-2019 07:40:00 5 C 6.46 g/m*3 3.59 C 6.4 km/h
94 23-03-2019 07:45:00 5.2 C 6.54 g/m*3 2.34 C 12.9 km/h
95 23-03-2019 07:50:00 5.6 C 6.72 g/m*3 2.83 C 12.9 km/h
96 23-03-2019 07:55:00 5.7 C 6.76 g/m*3 5.7 C 4.8 km/h
97 23-03-2019 08:00:00 5.9 C 6.85 g/m*3 5.9 C 0 km/h
98 23-03-2019 08:05:00 6 C 6.9 g/m*3 4.75 C 6.4 km/h
99 23-03-2019 08:10:00 6.1 C 6.94 g/m*3 6.1 C 4.8 km/h
100 23-03-2019 08:15:00 6.1 C 6.94 g/m*3 6.1 C 0 km/h
Sensor: Nr:Datum:Temp:Abs-Feuchte:Windchill:Wind:
Aussen-T/F 101 23-03-2019 08:20:00 6.2 C 6.99 g/m*3 6.2 C 0 km/h
102 23-03-2019 08:25:00 6.2 C 6.99 g/m*3 6.2 C 4.8 km/h
103 23-03-2019 08:30:00 6.3 C 7.03 g/m*3 6.3 C 4.8 km/h
104 23-03-2019 08:35:00 6.3 C 7.03 g/m*3 3.96 C 11.3 km/h
105 23-03-2019 08:40:00 6.3 C 7.03 g/m*3 6.3 C 4.8 km/h
106 23-03-2019 08:45:00 6.4 C 7.08 g/m*3 6.4 C 0 km/h
107 23-03-2019 08:50:00 6.3 C 7.03 g/m*3 6.3 C 0 km/h
108 23-03-2019 08:55:00 6.4 C 7.08 g/m*3 6.4 C 0 km/h
109 23-03-2019 09:00:00 6.4 C 7.08 g/m*3 6.4 C 0 km/h
110 23-03-2019 09:05:00 6.5 C 7.12 g/m*3 6.5 C 0 km/h
111 23-03-2019 09:10:00 6.5 C 7.12 g/m*3 6.5 C 0 km/h
112 23-03-2019 09:15:00 6.6 C 7.17 g/m*3 6.6 C 0 km/h
113 23-03-2019 09:20:00 6.6 C 7.1 g/m*3 6.6 C 0 km/h
114 23-03-2019 09:25:00 6.6 C 7.1 g/m*3 6.6 C 0 km/h
115 23-03-2019 09:30:00 6.6 C 7.1 g/m*3 6.6 C 0 km/h
116 23-03-2019 09:35:00 6.7 C 7.14 g/m*3 6.7 C 0 km/h
117 23-03-2019 09:40:00 6.7 C 7.14 g/m*3 6.7 C 0 km/h
118 23-03-2019 09:45:00 6.7 C 7.14 g/m*3 6.7 C 0 km/h
119 23-03-2019 09:50:00 6.8 C 7.19 g/m*3 6.8 C 0 km/h
120 23-03-2019 09:55:00 6.9 C 7.24 g/m*3 6.9 C 0 km/h
121 23-03-2019 10:00:00 7 C 7.28 g/m*3 7 C 4.8 km/h
122 23-03-2019 10:05:00 7.1 C 7.33 g/m*3 5.58 C 8.1 km/h
123 23-03-2019 10:10:00 7.1 C 7.33 g/m*3 7.1 C 4.8 km/h
124 23-03-2019 10:15:00 7.1 C 7.33 g/m*3 6.02 C 6.4 km/h
125 23-03-2019 10:20:00 7.2 C 7.38 g/m*3 7.2 C 3.2 km/h
Sensor: Nr:Datum:Temp:Abs-Feuchte:Windchill:Wind:
Aussen-T/F 126 23-03-2019 10:25:00 7.2 C 7.38 g/m*3 6.13 C 6.4 km/h
127 23-03-2019 10:30:00 7.2 C 7.38 g/m*3 7.2 C 4.8 km/h
128 23-03-2019 10:35:00 7.2 C 7.38 g/m*3 7.2 C 4.8 km/h
129 23-03-2019 10:40:00 7.2 C 7.38 g/m*3 7.2 C 3.2 km/h
130 23-03-2019 10:45:00 7.3 C 7.35 g/m*3 6.25 C 6.4 km/h
131 23-03-2019 10:50:00 7.3 C 7.35 g/m*3 5.47 C 9.7 km/h
132 23-03-2019 10:55:00 7.3 C 7.35 g/m*3 6.25 C 6.4 km/h
133 23-03-2019 11:00:00 7.3 C 7.35 g/m*3 7.3 C 3.2 km/h
134 23-03-2019 11:05:00 7.3 C 7.35 g/m*3 6.25 C 6.4 km/h
135 23-03-2019 11:10:00 7.3 C 7.35 g/m*3 6.25 C 6.4 km/h
136 23-03-2019 11:15:00 7.4 C 7.4 g/m*3 6.37 C 6.4 km/h
137 23-03-2019 11:20:00 7.4 C 7.4 g/m*3 5.58 C 9.7 km/h
138 23-03-2019 11:25:00 7.5 C 7.44 g/m*3 6.48 C 6.4 km/h
139 23-03-2019 11:30:00 7.6 C 7.49 g/m*3 7.6 C 3.2 km/h
140 23-03-2019 11:35:00 7.6 C 7.41 g/m*3 7.6 C 1.6 km/h
141 23-03-2019 11:40:00 7.7 C 7.46 g/m*3 7.7 C 3.2 km/h
142 23-03-2019 11:45:00 7.7 C 7.46 g/m*3 6.71 C 6.4 km/h
143 23-03-2019 11:50:00 7.8 C 7.51 g/m*3 6.4 C 8.1 km/h
144 23-03-2019 11:55:00 7.8 C 7.51 g/m*3 6.06 C 9.7 km/h
145 23-03-2019 12:00:00 7.8 C 7.51 g/m*3 7.8 C 4.8 km/h
146 23-03-2019 12:05:00 7.9 C 7.47 g/m*3 6.52 C 8.1 km/h
147 23-03-2019 12:10:00 7.9 C 7.47 g/m*3 7.9 C 4.8 km/h
148 23-03-2019 12:15:00 8 C 7.52 g/m*3 8 C 3.2 km/h
149 23-03-2019 12:20:00 8.1 C 7.49 g/m*3 8.1 C 4.8 km/h
150 23-03-2019 12:25:00 8.1 C 7.49 g/m*3 8.1 C 3.2 km/h
Sensor: Nr:Datum:Temp:Abs-Feuchte:Windchill:Wind:
Aussen-T/F 151 23-03-2019 12:30:00 8.2 C 7.54 g/m*3 6.54 C 9.7 km/h
152 23-03-2019 12:35:00 8.2 C 7.45 g/m*3 7.29 C 6.4 km/h
153 23-03-2019 12:40:00 8.3 C 7.5 g/m*3 7.41 C 6.4 km/h
154 23-03-2019 12:45:00 8.3 C 7.5 g/m*3 7.41 C 6.4 km/h
155 23-03-2019 12:50:00 8.3 C 7.5 g/m*3 6.66 C 9.7 km/h
156 23-03-2019 12:55:00 8.4 C 7.55 g/m*3 7.11 C 8.1 km/h
157 23-03-2019 13:00:00 8.4 C 7.47 g/m*3 8.4 C 4.8 km/h
158 23-03-2019 13:05:00 8.5 C 7.51 g/m*3 6.9 C 9.7 km/h
159 23-03-2019 13:10:00 8.6 C 7.56 g/m*3 8.6 C 4.8 km/h
160 23-03-2019 13:15:00 8.6 C 7.48 g/m*3 6.73 C 11.3 km/h
161 23-03-2019 13:20:00 8.7 C 7.44 g/m*3 7.13 C 9.7 km/h
162 23-03-2019 13:25:00 8.7 C 7.52 g/m*3 8.7 C 3.2 km/h
163 23-03-2019 13:30:00 8.8 C 7.57 g/m*3 8.8 C 4.8 km/h
164 23-03-2019 13:35:00 8.9 C 7.53 g/m*3 7.69 C 8.1 km/h
165 23-03-2019 13:40:00 8.9 C 7.45 g/m*3 7.69 C 8.1 km/h
166 23-03-2019 13:45:00 9 C 7.49 g/m*3 7.81 C 8.1 km/h
167 23-03-2019 13:50:00 9.1 C 7.54 g/m*3 8.33 C 6.4 km/h
168 23-03-2019 13:55:00 9.1 C 7.45 g/m*3 7.93 C 8.1 km/h
169 23-03-2019 14:00:00 9.2 C 7.41 g/m*3 8.05 C 8.1 km/h
170 23-03-2019 14:05:00 9.3 C 7.46 g/m*3 7.85 C 9.7 km/h
171 23-03-2019 14:10:00 9.3 C 7.46 g/m*3 7.85 C 9.7 km/h
172 23-03-2019 14:15:00 9.3 C 7.37 g/m*3 8.16 C 8.1 km/h
173 23-03-2019 14:20:00 9.3 C 7.37 g/m*3 7.58 C 11.3 km/h
174 23-03-2019 14:25:00 9.4 C 7.42 g/m*3 8.28 C 8.1 km/h
175 23-03-2019 14:30:00 9.4 C 7.42 g/m*3 8.28 C 8.1 km/h
Sensor: Nr:Datum:Temp:Abs-Feuchte:Windchill:Wind:
Aussen-T/F 176 23-03-2019 14:35:00 9.4 C 7.33 g/m*3 7.97 C 9.7 km/h
177 23-03-2019 14:40:00 9.6 C 7.42 g/m*3 7.94 C 11.3 km/h
178 23-03-2019 14:45:00 9.7 C 7.38 g/m*3 8.33 C 9.7 km/h
179 23-03-2019 14:50:00 9.7 C 7.28 g/m*3 7.82 C 12.9 km/h
180 23-03-2019 14:55:00 9.8 C 7.33 g/m*3 8.45 C 9.7 km/h
181 23-03-2019 15:00:00 9.8 C 7.42 g/m*3 8.75 C 8.1 km/h
182 23-03-2019 15:05:00 9.9 C 7.38 g/m*3 9.9 C 4.8 km/h
183 23-03-2019 15:10:00 9.9 C 7.38 g/m*3 8.87 C 8.1 km/h
184 23-03-2019 15:15:00 9.9 C 7.28 g/m*3 8.06 C 12.9 km/h
185 23-03-2019 15:20:00 9.9 C 7.19 g/m*3 8.56 C 9.7 km/h
186 23-03-2019 15:25:00 10.1 C 7.38 g/m*3 9.1 C 8.1 km/h
187 23-03-2019 15:30:00 10.1 C 7.28 g/m*3 8.8 C 9.7 km/h
188 23-03-2019 15:35:00 10.2 C 7.33 g/m*3 8.92 C 9.7 km/h
189 23-03-2019 15:40:00 10.3 C 7.28 g/m*3 9.04 C 9.7 km/h
190 23-03-2019 15:45:00 10.3 C 7.28 g/m*3 9.04 C 9.7 km/h
191 23-03-2019 15:50:00 10.3 C 7.37 g/m*3 9.04 C 9.7 km/h
192 23-03-2019 15:55:00 10.3 C 7.28 g/m*3 9.34 C 8.1 km/h
193 23-03-2019 16:00:00 10.3 C 7.18 g/m*3 9.04 C 9.7 km/h
194 23-03-2019 16:05:00 10.3 C 7.18 g/m*3 8.34 C 14.5 km/h
195 23-03-2019 16:10:00 10.3 C 7.18 g/m*3 9.34 C 8.1 km/h
196 23-03-2019 16:15:00 10.4 C 7.23 g/m*3 9.46 C 8.1 km/h
197 23-03-2019 16:20:00 10.3 C 7.18 g/m*3 9.04 C 9.7 km/h
198 23-03-2019 16:25:00 10.4 C 7.23 g/m*3 9.16 C 9.7 km/h
199 23-03-2019 16:30:00 10.4 C 7.23 g/m*3 9.46 C 8.1 km/h
200 23-03-2019 16:35:00 10.5 C 7.27 g/m*3 9.57 C 8.1 km/h
Sensor: Nr:Datum:Temp:Abs-Feuchte:Windchill:Wind:
Aussen-T/F 201 23-03-2019 16:40:00 10.5 C 7.18 g/m*3 9.28 C 9.7 km/h
202 23-03-2019 16:45:00 10.6 C 7.22 g/m*3 9.4 C 9.7 km/h
203 23-03-2019 16:50:00 10.6 C 7.22 g/m*3 10.6 C 4.8 km/h
204 23-03-2019 16:55:00 10.5 C 7.18 g/m*3 9.28 C 9.7 km/h
205 23-03-2019 17:00:00 10.5 C 7.18 g/m*3 9.02 C 11.3 km/h
206 23-03-2019 17:05:00 10.5 C 7.27 g/m*3 9.95 C 6.4 km/h
207 23-03-2019 17:10:00 10.6 C 7.22 g/m*3 10.06 C 6.4 km/h
208 23-03-2019 17:15:00 10.7 C 7.27 g/m*3 10.7 C 4.8 km/h
209 23-03-2019 17:20:00 10.7 C 7.17 g/m*3 8.48 C 17.7 km/h
210 23-03-2019 17:25:00 10.6 C 7.22 g/m*3 9.4 C 9.7 km/h
211 23-03-2019 17:30:00 10.6 C 7.22 g/m*3 9.69 C 8.1 km/h
212 23-03-2019 17:35:00 10.4 C 7.13 g/m*3 9.83 C 6.4 km/h
213 23-03-2019 17:40:00 10.3 C 7.09 g/m*3 9.34 C 8.1 km/h
214 23-03-2019 17:45:00 10.1 C 7 g/m*3 10.1 C 3.2 km/h
215 23-03-2019 17:50:00 10.1 C 7.09 g/m*3 10.1 C 3.2 km/h
216 23-03-2019 17:55:00 10 C 7.05 g/m*3 10 C 3.2 km/h
217 23-03-2019 18:00:00 10.1 C 7.09 g/m*3 10.1 C 1.6 km/h
218 23-03-2019 18:05:00 10 C 7.05 g/m*3 10 C 3.2 km/h
219 23-03-2019 18:10:00 10 C 7.05 g/m*3 10 C 0 km/h
220 23-03-2019 18:15:00 9.9 C 7 g/m*3 9.9 C 0 km/h
221 23-03-2019 18:20:00 9.7 C 7.01 g/m*3 9.7 C 0 km/h
222 23-03-2019 18:25:00 9.6 C 6.96 g/m*3 9.6 C 1.6 km/h
223 23-03-2019 18:30:00 9.3 C 6.92 g/m*3 9.3 C 3.2 km/h
224 23-03-2019 18:35:00 8.9 C 6.83 g/m*3 8.9 C 3.2 km/h
225 23-03-2019 18:40:00 8.6 C 6.79 g/m*3 8.6 C 3.2 km/h
Sensor: Nr:Datum:Temp:Abs-Feuchte:Windchill:Wind:
Aussen-T/F 226 23-03-2019 18:45:00 8.2 C 6.7 g/m*3 8.2 C 3.2 km/h
227 23-03-2019 18:50:00 8 C 6.7 g/m*3 8 C 4.8 km/h
228 23-03-2019 18:55:00 7.8 C 6.69 g/m*3 7.8 C 4.8 km/h
229 23-03-2019 19:00:00 7.6 C 6.61 g/m*3 7.6 C 4.8 km/h
230 23-03-2019 19:05:00 7.4 C 6.6 g/m*3 7.4 C 4.8 km/h
231 23-03-2019 19:10:00 7.2 C 6.59 g/m*3 7.2 C 4.8 km/h
232 23-03-2019 19:15:00 7.1 C 6.55 g/m*3 7.1 C 3.2 km/h
233 23-03-2019 19:20:00 6.9 C 6.54 g/m*3 6.9 C 3.2 km/h
234 23-03-2019 19:25:00 6.8 C 6.5 g/m*3 6.8 C 3.2 km/h
235 23-03-2019 19:30:00 6.7 C 6.46 g/m*3 6.7 C 3.2 km/h
236 23-03-2019 19:35:00 6.6 C 6.49 g/m*3 6.6 C 3.2 km/h
237 23-03-2019 19:40:00 6.5 C 6.45 g/m*3 6.5 C 3.2 km/h
238 23-03-2019 19:45:00 6.4 C 6.48 g/m*3 6.4 C 3.2 km/h
239 23-03-2019 19:50:00 6.3 C 6.44 g/m*3 6.3 C 0 km/h
240 23-03-2019 19:55:00 6.2 C 6.4 g/m*3 6.2 C 1.6 km/h
241 23-03-2019 20:00:00 6.1 C 6.36 g/m*3 6.1 C 1.6 km/h
242 23-03-2019 20:05:00 5.9 C 6.27 g/m*3 5.9 C 0 km/h
243 23-03-2019 20:10:00 5.7 C 6.26 g/m*3 5.7 C 0 km/h
244 23-03-2019 20:15:00 5.7 C 6.33 g/m*3 5.7 C 0 km/h
245 23-03-2019 20:20:00 5.6 C 6.22 g/m*3 5.6 C 0 km/h
246 23-03-2019 20:25:00 5.3 C 6.1 g/m*3 5.3 C 0 km/h
247 23-03-2019 20:30:00 5.2 C 6.13 g/m*3 5.2 C 0 km/h
248 23-03-2019 20:35:00 5.1 C 6.09 g/m*3 5.1 C 0 km/h
249 23-03-2019 20:40:00 5.1 C 6.16 g/m*3 5.1 C 0 km/h
250 23-03-2019 20:45:00 5.1 C 6.16 g/m*3 5.1 C 0 km/h
Sensor: Nr:Datum:Temp:Abs-Feuchte:Windchill:Wind:
Aussen-T/F 251 23-03-2019 20:50:00 5 C 6.12 g/m*3 5 C 0 km/h
252 23-03-2019 20:55:00 4.8 C 6.04 g/m*3 4.8 C 0 km/h
253 23-03-2019 21:00:00 4.7 C 6 g/m*3 4.7 C 0 km/h
254 23-03-2019 21:05:00 4.6 C 5.96 g/m*3 4.6 C 0 km/h
255 23-03-2019 21:10:00 4.5 C 5.98 g/m*3 4.5 C 0 km/h
256 23-03-2019 21:15:00 4.5 C 5.98 g/m*3 4.5 C 0 km/h
257 23-03-2019 21:20:00 4.5 C 6.05 g/m*3 4.5 C 0 km/h
258 23-03-2019 21:25:00 4.4 C 6.01 g/m*3 4.4 C 0 km/h
259 23-03-2019 21:30:00 4.3 C 5.9 g/m*3 4.3 C 0 km/h
260 23-03-2019 21:35:00 4.2 C 5.86 g/m*3 4.2 C 0 km/h
261 23-03-2019 21:40:00 4.1 C 5.82 g/m*3 4.1 C 0 km/h
262 23-03-2019 21:45:00 4.1 C 5.89 g/m*3 4.1 C 0 km/h
263 23-03-2019 21:50:00 4.1 C 5.89 g/m*3 4.1 C 0 km/h
264 23-03-2019 21:55:00 4 C 5.85 g/m*3 4 C 0 km/h
265 23-03-2019 22:00:00 3.9 C 5.81 g/m*3 3.9 C 0 km/h
266 23-03-2019 22:05:00 3.9 C 5.81 g/m*3 3.9 C 0 km/h
267 23-03-2019 22:10:00 3.9 C 5.87 g/m*3 3.9 C 0 km/h
268 23-03-2019 22:15:00 3.8 C 5.83 g/m*3 3.8 C 0 km/h
269 23-03-2019 22:20:00 3.6 C 5.69 g/m*3 3.6 C 0 km/h
270 23-03-2019 22:25:00 3.6 C 5.76 g/m*3 3.6 C 0 km/h
271 23-03-2019 22:30:00 3.4 C 5.68 g/m*3 3.4 C 0 km/h
272 23-03-2019 22:35:00 3.3 C 5.64 g/m*3 3.3 C 0 km/h
273 23-03-2019 22:40:00 3.3 C 5.64 g/m*3 3.3 C 0 km/h
274 23-03-2019 22:45:00 3.3 C 5.64 g/m*3 3.3 C 0 km/h
275 23-03-2019 22:50:00 3.3 C 5.7 g/m*3 3.3 C 0 km/h
Sensor: Nr:Datum:Temp:Abs-Feuchte:Windchill:Wind:
Aussen-T/F 276 23-03-2019 22:55:00 3.4 C 5.74 g/m*3 3.4 C 0 km/h
277 23-03-2019 23:00:00 3.3 C 5.7 g/m*3 3.3 C 0 km/h
278 23-03-2019 23:05:00 3.3 C 5.7 g/m*3 3.3 C 0 km/h
279 23-03-2019 23:10:00 3.2 C 5.66 g/m*3 3.2 C 0 km/h
280 23-03-2019 23:15:00 3.2 C 5.66 g/m*3 3.2 C 0 km/h
281 23-03-2019 23:20:00 3.2 C 5.66 g/m*3 3.2 C 0 km/h
282 23-03-2019 23:25:00 3.2 C 5.66 g/m*3 3.2 C 0 km/h
283 23-03-2019 23:30:00 3.1 C 5.63 g/m*3 3.1 C 0 km/h
284 23-03-2019 23:35:00 3.1 C 5.63 g/m*3 3.1 C 0 km/h
285 23-03-2019 23:40:00 2.9 C 5.55 g/m*3 2.9 C 0 km/h
286 23-03-2019 23:45:00 2.8 C 5.51 g/m*3 2.8 C 0 km/h
287 23-03-2019 23:50:00 2.8 C 5.51 g/m*3 2.8 C 0 km/h
288 23-03-2019 23:55:00 2.8 C 5.51 g/m*3 2.8 C 0 km/h
289 24-03-2019 00:00:00 2.7 C 5.48 g/m*3 2.7 C 0 km/h
290 24-03-2019 00:05:00 2.6 C 5.44 g/m*3 2.6 C 0 km/h
291 24-03-2019 00:10:00 2.4 C 5.37 g/m*3 2.4 C 0 km/h
292 24-03-2019 00:15:00 2.3 C 5.33 g/m*3 2.3 C 0 km/h
293 24-03-2019 00:20:00 2.4 C 5.37 g/m*3 2.4 C 0 km/h
294 24-03-2019 00:25:00 2.3 C 5.33 g/m*3 2.3 C 0 km/h
295 24-03-2019 00:30:00 2.3 C 5.33 g/m*3 2.3 C 0 km/h
296 24-03-2019 00:35:00 2.2 C 5.29 g/m*3 2.2 C 0 km/h
297 24-03-2019 00:40:00 2.2 C 5.35 g/m*3 2.2 C 0 km/h
298 24-03-2019 00:45:00 2.4 C 5.42 g/m*3 2.4 C 0 km/h
299 24-03-2019 00:50:00 2.6 C 5.5 g/m*3 2.6 C 0 km/h
300 24-03-2019 00:55:00 2.4 C 5.42 g/m*3 2.4 C 0 km/h
Sensor: Nr:Datum:Temp:Abs-Feuchte:Windchill:Wind:
Aussen-T/F 301 24-03-2019 01:00:00 2.4 C 5.42 g/m*3 2.4 C 0 km/h
302 24-03-2019 01:05:00 2.3 C 5.39 g/m*3 2.3 C 0 km/h
303 24-03-2019 01:10:00 2.2 C 5.35 g/m*3 2.2 C 0 km/h
304 24-03-2019 01:15:00 2.1 C 5.26 g/m*3 2.1 C 0 km/h
305 24-03-2019 01:20:00 1.9 C 5.19 g/m*3 1.9 C 0 km/h
306 24-03-2019 01:25:00 1.8 C 5.21 g/m*3 1.8 C 0 km/h
307 24-03-2019 01:30:00 1.8 C 5.21 g/m*3 1.8 C 0 km/h
308 24-03-2019 01:35:00 1.7 C 5.17 g/m*3 1.7 C 0 km/h
309 24-03-2019 01:40:00 1.6 C 5.14 g/m*3 1.6 C 0 km/h
310 24-03-2019 01:45:00 1.7 C 5.17 g/m*3 1.7 C 0 km/h
311 24-03-2019 01:50:00 1.7 C 5.17 g/m*3 1.7 C 0 km/h
312 24-03-2019 01:55:00 1.6 C 5.14 g/m*3 1.6 C 0 km/h
313 24-03-2019 02:00:00 1.4 C 5.07 g/m*3 1.4 C 0 km/h
314 24-03-2019 02:05:00 1.5 C 5.1 g/m*3 1.5 C 0 km/h
315 24-03-2019 02:10:00 1.6 C 5.14 g/m*3 1.6 C 0 km/h
316 24-03-2019 02:15:00 1.7 C 5.17 g/m*3 1.7 C 0 km/h
317 24-03-2019 02:20:00 1.7 C 5.17 g/m*3 1.7 C 0 km/h
318 24-03-2019 02:25:00 1.5 C 5.1 g/m*3 1.5 C 0 km/h
319 24-03-2019 02:30:00 1.4 C 5.07 g/m*3 1.4 C 0 km/h
320 24-03-2019 02:35:00 1.3 C 5.03 g/m*3 1.3 C 0 km/h
321 24-03-2019 02:40:00 1.2 C 5 g/m*3 1.2 C 0 km/h
322 24-03-2019 02:45:00 1.3 C 5.03 g/m*3 1.3 C 0 km/h
323 24-03-2019 02:50:00 1.3 C 5.03 g/m*3 1.3 C 0 km/h
324 24-03-2019 02:55:00 1.2 C 5 g/m*3 1.2 C 0 km/h
325 24-03-2019 03:00:00 1.1 C 4.96 g/m*3 1.1 C 0 km/h
Sensor: Nr:Datum:Temp:Abs-Feuchte:Windchill:Wind:
Aussen-T/F 326 24-03-2019 03:05:00 1.2 C 5 g/m*3 1.2 C 0 km/h
327 24-03-2019 03:10:00 1.2 C 5 g/m*3 1.2 C 0 km/h
328 24-03-2019 03:15:00 1.1 C 4.96 g/m*3 1.1 C 0 km/h
329 24-03-2019 03:20:00 1 C 4.93 g/m*3 1 C 0 km/h
330 24-03-2019 03:25:00 1 C 4.93 g/m*3 1 C 0 km/h
331 24-03-2019 03:30:00 0.9 C 4.9 g/m*3 0.9 C 0 km/h
332 24-03-2019 03:35:00 1 C 4.93 g/m*3 1 C 0 km/h
333 24-03-2019 03:40:00 0.9 C 4.9 g/m*3 0.9 C 0 km/h
334 24-03-2019 03:45:00 0.8 C 4.86 g/m*3 0.8 C 0 km/h
335 24-03-2019 03:50:00 0.7 C 4.83 g/m*3 0.7 C 0 km/h
336 24-03-2019 03:55:00 0.7 C 4.83 g/m*3 0.7 C 0 km/h
337 24-03-2019 04:00:00 0.6 C 4.8 g/m*3 0.6 C 0 km/h
338 24-03-2019 04:05:00 0.6 C 4.8 g/m*3 0.6 C 0 km/h
339 24-03-2019 04:10:00 0.6 C 4.85 g/m*3 0.6 C 0 km/h
340 24-03-2019 04:15:00 0.7 C 4.88 g/m*3 0.7 C 0 km/h
341 24-03-2019 04:20:00 0.8 C 4.91 g/m*3 0.8 C 0 km/h
342 24-03-2019 04:25:00 0.9 C 4.95 g/m*3 0.9 C 0 km/h
343 24-03-2019 04:30:00 0.9 C 4.95 g/m*3 0.9 C 0 km/h
344 24-03-2019 04:35:00 0.9 C 4.95 g/m*3 0.9 C 0 km/h
345 24-03-2019 04:40:00 1 C 4.98 g/m*3 1 C 0 km/h
346 24-03-2019 04:45:00 1.1 C 5.02 g/m*3 1.1 C 0 km/h
347 24-03-2019 04:50:00 1.2 C 5.05 g/m*3 1.2 C 0 km/h
348 24-03-2019 04:55:00 1.4 C 5.12 g/m*3 1.4 C 0 km/h
349 24-03-2019 05:00:00 1.5 C 5.16 g/m*3 1.5 C 0 km/h
350 24-03-2019 05:05:00 1.6 C 5.19 g/m*3 1.6 C 0 km/h
Sensor: Nr:Datum:Temp:Abs-Feuchte:Windchill:Wind:
Aussen-T/F 351 24-03-2019 05:10:00 1.6 C 5.19 g/m*3 1.6 C 0 km/h
352 24-03-2019 05:15:00 1.7 C 5.23 g/m*3 1.7 C 0 km/h
353 24-03-2019 05:20:00 1.8 C 5.26 g/m*3 1.8 C 0 km/h
354 24-03-2019 05:25:00 1.8 C 5.26 g/m*3 1.8 C 0 km/h
355 24-03-2019 05:30:00 1.9 C 5.3 g/m*3 1.9 C 1.6 km/h
356 24-03-2019 05:35:00 1.9 C 5.3 g/m*3 1.9 C 1.6 km/h
357 24-03-2019 07:05:00 2.6 C 5.56 g/m*3 2.6 C 0 km/h
358 24-03-2019 07:10:00 2.6 C 5.56 g/m*3 2.6 C 0 km/h
359 24-03-2019 07:15:00 2.7 C 5.59 g/m*3 2.7 C 1.6 km/h
360 24-03-2019 07:20:00 2.7 C 5.59 g/m*3 2.7 C 0 km/h
361 24-03-2019 07:25:00 2.7 C 5.59 g/m*3 2.7 C 0 km/h
362 24-03-2019 07:30:00 2.7 C 5.59 g/m*3 2.7 C 0 km/h
363 24-03-2019 07:35:00 2.8 C 5.63 g/m*3 2.8 C 0 km/h
364 24-03-2019 07:40:00 2.8 C 5.63 g/m*3 2.8 C 0 km/h
365 24-03-2019 07:45:00 2.9 C 5.67 g/m*3 2.9 C 0 km/h
366 24-03-2019 07:50:00 3 C 5.71 g/m*3 3 C 1.6 km/h
367 24-03-2019 07:55:00 3.1 C 5.75 g/m*3 3.1 C 0 km/h
368 24-03-2019 08:00:00 3.2 C 5.85 g/m*3 3.2 C 0 km/h
369 24-03-2019 08:05:00 3.3 C 5.88 g/m*3 3.3 C 0 km/h
370 24-03-2019 08:10:00 3.3 C 5.82 g/m*3 3.3 C 0 km/h
371 24-03-2019 08:15:00 3.4 C 5.92 g/m*3 3.4 C 0 km/h
372 24-03-2019 08:20:00 3.5 C 5.96 g/m*3 3.5 C 0 km/h
373 24-03-2019 08:25:00 3.6 C 6 g/m*3 3.6 C 0 km/h
374 24-03-2019 08:30:00 3.6 C 5.94 g/m*3 3.6 C 0 km/h
375 24-03-2019 08:35:00 3.7 C 5.98 g/m*3 3.7 C 0 km/h
Sensor: Nr:Datum:Temp:Abs-Feuchte:Windchill:Wind:
Aussen-T/F 376 24-03-2019 08:40:00 3.9 C 6.13 g/m*3 3.9 C 1.6 km/h
377 24-03-2019 08:45:00 4.1 C 6.21 g/m*3 4.1 C 0 km/h
378 24-03-2019 08:50:00 4.2 C 6.25 g/m*3 4.2 C 0 km/h
379 24-03-2019 08:55:00 4.2 C 6.25 g/m*3 4.2 C 0 km/h
380 24-03-2019 09:00:00 4.3 C 6.23 g/m*3 4.3 C 0 km/h
381 24-03-2019 09:05:00 4.3 C 6.23 g/m*3 4.3 C 0 km/h
382 24-03-2019 09:10:00 4.5 C 6.31 g/m*3 4.5 C 1.6 km/h
383 24-03-2019 09:15:00 4.6 C 6.35 g/m*3 4.6 C 3.2 km/h
384 24-03-2019 09:20:00 4.7 C 6.39 g/m*3 4.7 C 3.2 km/h
385 24-03-2019 09:25:00 4.8 C 6.44 g/m*3 4.8 C 3.2 km/h
386 24-03-2019 09:30:00 4.8 C 6.44 g/m*3 4.8 C 3.2 km/h
387 24-03-2019 09:35:00 4.9 C 6.48 g/m*3 4.9 C 4.8 km/h
388 24-03-2019 09:40:00 5.1 C 6.5 g/m*3 5.1 C 4.8 km/h
389 24-03-2019 09:45:00 5.2 C 6.54 g/m*3 5.2 C 3.2 km/h
390 24-03-2019 09:50:00 5.4 C 6.63 g/m*3 5.4 C 0 km/h
391 24-03-2019 09:55:00 5.6 C 6.72 g/m*3 5.6 C 3.2 km/h
392 24-03-2019 10:00:00 5.7 C 6.76 g/m*3 5.7 C 0 km/h
393 24-03-2019 10:05:00 5.9 C 6.85 g/m*3 5.9 C 4.8 km/h
394 24-03-2019 10:10:00 6.2 C 6.99 g/m*3 6.2 C 3.2 km/h
395 24-03-2019 10:15:00 6.3 C 6.96 g/m*3 6.3 C 3.2 km/h
396 24-03-2019 10:20:00 6.5 C 6.97 g/m*3 6.5 C 4.8 km/h
397 24-03-2019 10:25:00 6.8 C 7.11 g/m*3 6.8 C 3.2 km/h
398 24-03-2019 10:30:00 6.9 C 7.08 g/m*3 6.9 C 3.2 km/h
399 24-03-2019 10:35:00 7.2 C 7.22 g/m*3 7.2 C 3.2 km/h
400 24-03-2019 10:40:00 7.4 C 7.24 g/m*3 7.4 C 4.8 km/h
Sensor: Nr:Datum:Temp:Abs-Feuchte:Windchill:Wind:
Aussen-T/F 401 24-03-2019 10:45:00 7.7 C 7.3 g/m*3 7.7 C 3.2 km/h
402 24-03-2019 10:50:00 7.8 C 7.35 g/m*3 7.8 C 4.8 km/h
403 24-03-2019 10:55:00 8.1 C 7.41 g/m*3 8.1 C 3.2 km/h
404 24-03-2019 11:00:00 8.3 C 7.5 g/m*3 8.3 C 4.8 km/h
405 24-03-2019 11:05:00 8.7 C 7.7 g/m*3 8.7 C 3.2 km/h
406 24-03-2019 11:10:00 8.9 C 7.71 g/m*3 8.9 C 4.8 km/h
407 24-03-2019 11:15:00 9.1 C 7.72 g/m*3 9.1 C 3.2 km/h
408 24-03-2019 11:20:00 9.2 C 7.68 g/m*3 9.2 C 3.2 km/h
409 24-03-2019 11:25:00 9.4 C 7.78 g/m*3 9.4 C 3.2 km/h
410 24-03-2019 11:30:00 9.6 C 7.79 g/m*3 9.6 C 1.6 km/h
411 24-03-2019 11:35:00 9.7 C 7.84 g/m*3 9.7 C 4.8 km/h
412 24-03-2019 11:40:00 10 C 7.89 g/m*3 8.99 C 8.1 km/h
413 24-03-2019 11:45:00 10.3 C 7.95 g/m*3 10.3 C 3.2 km/h
414 24-03-2019 11:50:00 10.5 C 7.86 g/m*3 9.95 C 6.4 km/h
415 24-03-2019 11:55:00 10.8 C 8.11 g/m*3 9.38 C 11.3 km/h
416 24-03-2019 12:00:00 11.2 C 8.11 g/m*3 11.2 C 11.3 km/h
417 24-03-2019 12:05:00 11.3 C 8.06 g/m*3 11.3 C 4.8 km/h
418 24-03-2019 12:10:00 11.4 C 8.11 g/m*3 11.4 C 9.7 km/h
419 24-03-2019 12:15:00 11.6 C 8.11 g/m*3 11.6 C 6.4 km/h
420 24-03-2019 12:20:00 11.7 C 8.05 g/m*3 11.7 C 8.1 km/h
421 24-03-2019 12:25:00 11.8 C 8 g/m*3 11.8 C 4.8 km/h
422 24-03-2019 12:30:00 11.9 C 8.05 g/m*3 11.9 C 3.2 km/h
423 24-03-2019 12:35:00 12.1 C 8.15 g/m*3 12.1 C 8.1 km/h
424 24-03-2019 12:40:00 12.1 C 8.15 g/m*3 12.1 C 11.3 km/h
425 24-03-2019 12:45:00 12.1 C 7.94 g/m*3 12.1 C 12.9 km/h
Sensor: Nr:Datum:Temp:Abs-Feuchte:Windchill:Wind:
Aussen-T/F 426 24-03-2019 12:50:00 12 C 7.99 g/m*3 12 C 16.1 km/h
427 24-03-2019 12:55:00 11.7 C 8.05 g/m*3 11.7 C 17.7 km/h
428 24-03-2019 13:00:00 11.4 C 8.01 g/m*3 11.4 C 17.7 km/h
429 24-03-2019 13:05:00 11.2 C 8.01 g/m*3 11.2 C 16.1 km/h
430 24-03-2019 13:10:00 11 C 8.11 g/m*3 9.4 C 12.9 km/h
431 24-03-2019 13:15:00 10.9 C 8.06 g/m*3 9.28 C 12.9 km/h
432 24-03-2019 13:20:00 10.8 C 8.11 g/m*3 8.96 C 14.5 km/h
433 24-03-2019 13:25:00 10.7 C 8.05 g/m*3 8.65 C 16.1 km/h
434 24-03-2019 13:30:00 10.7 C 7.96 g/m*3 9.26 C 11.3 km/h
435 24-03-2019 13:35:00 10.7 C 8.05 g/m*3 8.84 C 14.5 km/h
436 24-03-2019 13:40:00 10.7 C 8.05 g/m*3 8.65 C 16.1 km/h
437 24-03-2019 13:45:00 10.8 C 8.11 g/m*3 9.64 C 9.7 km/h
438 24-03-2019 13:50:00 10.8 C 8.2 g/m*3 9.93 C 8.1 km/h
439 24-03-2019 13:55:00 10.9 C 8.16 g/m*3 9.08 C 14.5 km/h
440 24-03-2019 14:00:00 10.7 C 8.05 g/m*3 9.52 C 9.7 km/h
441 24-03-2019 14:05:00 10.6 C 8.1 g/m*3 9.69 C 8.1 km/h
442 24-03-2019 14:10:00 10.5 C 8.15 g/m*3 9.95 C 6.4 km/h
443 24-03-2019 14:15:00 10.6 C 8.2 g/m*3 10.6 C 1.6 km/h
444 24-03-2019 14:20:00 10.6 C 8.2 g/m*3 10.6 C 4.8 km/h
445 24-03-2019 14:25:00 10.6 C 8 g/m*3 9.4 C 9.7 km/h
446 24-03-2019 14:30:00 10.6 C 8.1 g/m*3 10.06 C 6.4 km/h
447 24-03-2019 14:35:00 10.7 C 8.15 g/m*3 10.18 C 6.4 km/h
448 24-03-2019 14:40:00 10.7 C 8.05 g/m*3 10.7 C 4.8 km/h
449 24-03-2019 14:45:00 10.7 C 8.05 g/m*3 10.18 C 6.4 km/h
450 24-03-2019 14:50:00 10.7 C 7.96 g/m*3 9.52 C 9.7 km/h
Sensor: Nr:Datum:Temp:Abs-Feuchte:Windchill:Wind:
Aussen-T/F 451 24-03-2019 14:55:00 10.7 C 7.96 g/m*3 9.26 C 11.3 km/h
452 24-03-2019 15:00:00 10.7 C 7.96 g/m*3 8.84 C 14.5 km/h
453 24-03-2019 15:05:00 10.7 C 7.96 g/m*3 9.81 C 8.1 km/h
454 24-03-2019 15:10:00 10.7 C 7.86 g/m*3 9.52 C 9.7 km/h
455 24-03-2019 15:15:00 10.8 C 7.91 g/m*3 9.93 C 8.1 km/h
456 24-03-2019 15:20:00 10.8 C 7.81 g/m*3 9.38 C 11.3 km/h
457 24-03-2019 15:25:00 10.9 C 7.86 g/m*3 10.41 C 6.4 km/h
458 24-03-2019 15:30:00 11.1 C 7.86 g/m*3 11.1 C 8.1 km/h
459 24-03-2019 15:35:00 11.2 C 7.91 g/m*3 11.2 C 4.8 km/h
460 24-03-2019 15:40:00 11.4 C 7.9 g/m*3 11.4 C 8.1 km/h
461 24-03-2019 15:45:00 11.6 C 7.9 g/m*3 11.6 C 6.4 km/h
462 24-03-2019 15:50:00 11.6 C 7.69 g/m*3 11.6 C 11.3 km/h
463 24-03-2019 15:55:00 11.6 C 7.9 g/m*3 11.6 C 8.1 km/h
464 24-03-2019 16:00:00 11.6 C 7.8 g/m*3 11.6 C 9.7 km/h
465 24-03-2019 16:05:00 11.8 C 7.89 g/m*3 11.8 C 6.4 km/h
466 24-03-2019 16:10:00 12 C 7.99 g/m*3 12 C 8.1 km/h
467 24-03-2019 16:15:00 12.2 C 7.99 g/m*3 12.2 C 6.4 km/h
468 24-03-2019 16:20:00 12.3 C 7.82 g/m*3 12.3 C 9.7 km/h
469 24-03-2019 16:25:00 12.1 C 7.72 g/m*3 12.1 C 12.9 km/h
470 24-03-2019 16:30:00 12.1 C 7.72 g/m*3 12.1 C 8.1 km/h
471 24-03-2019 16:35:00 12.2 C 7.66 g/m*3 12.2 C 4.8 km/h
472 24-03-2019 16:40:00 12.2 C 7.55 g/m*3 12.2 C 9.7 km/h
473 24-03-2019 16:45:00 12.1 C 7.4 g/m*3 12.1 C 14.5 km/h
474 24-03-2019 16:50:00 12 C 7.14 g/m*3 12 C 14.5 km/h
475 24-03-2019 16:55:00 11.8 C 7.16 g/m*3 11.8 C 12.9 km/h
Sensor: Nr:Datum:Temp:Abs-Feuchte:Windchill:Wind:
Aussen-T/F 476 24-03-2019 17:00:00 11.7 C 7.11 g/m*3 11.7 C 8.1 km/h
477 24-03-2019 17:05:00 11.8 C 7.26 g/m*3 11.8 C 4.8 km/h
478 24-03-2019 17:10:00 11.9 C 7.2 g/m*3 11.9 C 9.7 km/h
479 24-03-2019 17:15:00 12.1 C 7.18 g/m*3 12.1 C 14.5 km/h
480 24-03-2019 17:20:00 12.3 C 7.17 g/m*3 12.3 C 9.7 km/h
481 24-03-2019 17:25:00 12.5 C 7.15 g/m*3 12.5 C 8.1 km/h
482 24-03-2019 17:30:00 12.6 C 7.08 g/m*3 12.6 C 16.1 km/h
483 24-03-2019 17:35:00 12.6 C 7.08 g/m*3 12.6 C 14.5 km/h
484 24-03-2019 17:40:00 12.6 C 7.08 g/m*3 12.6 C 12.9 km/h
485 24-03-2019 17:45:00 12.5 C 6.82 g/m*3 12.5 C 9.7 km/h
486 24-03-2019 17:50:00 12.4 C 6.77 g/m*3 12.4 C 9.7 km/h
487 24-03-2019 17:55:00 12.4 C 6.66 g/m*3 12.4 C 9.7 km/h
488 24-03-2019 18:00:00 12.2 C 6.58 g/m*3 12.2 C 14.5 km/h
489 24-03-2019 18:05:00 12.1 C 6.54 g/m*3 12.1 C 12.9 km/h
490 24-03-2019 18:10:00 11.9 C 6.57 g/m*3 11.9 C 8.1 km/h
491 24-03-2019 18:15:00 11.9 C 6.57 g/m*3 11.9 C 6.4 km/h
492 24-03-2019 18:20:00 11.8 C 6.63 g/m*3 11.8 C 3.2 km/h
493 24-03-2019 18:25:00 11.7 C 6.48 g/m*3 11.7 C 9.7 km/h
494 24-03-2019 18:30:00 11.4 C 6.36 g/m*3 11.4 C 9.7 km/h
495 24-03-2019 18:35:00 11.1 C 6.25 g/m*3 11.1 C 6.4 km/h
496 24-03-2019 18:40:00 10.8 C 6.23 g/m*3 9.93 C 8.1 km/h
497 24-03-2019 18:45:00 10.5 C 6.11 g/m*3 9.02 C 11.3 km/h
498 24-03-2019 18:50:00 10.3 C 6.13 g/m*3 10.3 C 3.2 km/h
499 24-03-2019 18:55:00 10 C 6.01 g/m*3 8.68 C 9.7 km/h
500 24-03-2019 19:00:00 9.8 C 5.94 g/m*3 9.14 C 6.4 km/h
Sensor: Nr:Datum:Temp:Abs-Feuchte:Windchill:Wind:
Aussen-T/F 501 24-03-2019 19:05:00 9.6 C 5.95 g/m*3 8.21 C 9.7 km/h
502 24-03-2019 19:10:00 9.4 C 5.88 g/m*3 7.97 C 9.7 km/h
503 24-03-2019 19:15:00 9.3 C 5.75 g/m*3 9.3 C 4.8 km/h
504 24-03-2019 19:20:00 9.2 C 5.8 g/m*3 9.2 C 4.8 km/h
505 24-03-2019 19:25:00 8.9 C 5.69 g/m*3 7.69 C 8.1 km/h
506 24-03-2019 19:30:00 8.8 C 5.74 g/m*3 7.25 C 9.7 km/h
507 24-03-2019 19:35:00 8.8 C 5.74 g/m*3 7.98 C 6.4 km/h
508 24-03-2019 19:40:00 8.9 C 5.69 g/m*3 7.37 C 9.7 km/h
509 24-03-2019 19:45:00 8.8 C 5.57 g/m*3 8.8 C 0 km/h
510 24-03-2019 19:50:00 8.8 C 5.74 g/m*3 8.8 C 0 km/h
511 24-03-2019 19:55:00 8.6 C 5.67 g/m*3 8.6 C 0 km/h
512 24-03-2019 20:00:00 8.2 C 5.61 g/m*3 8.2 C 3.2 km/h
513 24-03-2019 20:05:00 7.9 C 5.67 g/m*3 6.94 C 6.4 km/h
514 24-03-2019 20:10:00 7.7 C 5.59 g/m*3 7.7 C 3.2 km/h
515 24-03-2019 20:15:00 7.5 C 5.52 g/m*3 7.5 C 4.8 km/h
516 24-03-2019 20:20:00 7.3 C 5.53 g/m*3 7.3 C 4.8 km/h
517 24-03-2019 20:25:00 7.2 C 5.49 g/m*3 6.13 C 6.4 km/h
518 24-03-2019 20:30:00 7.1 C 5.54 g/m*3 7.1 C 4.8 km/h
519 24-03-2019 20:35:00 6.9 C 5.54 g/m*3 6.9 C 4.8 km/h
520 24-03-2019 20:40:00 6.7 C 5.55 g/m*3 6.7 C 4.8 km/h
521 24-03-2019 20:45:00 6.7 C 5.55 g/m*3 6.7 C 1.6 km/h
522 24-03-2019 20:50:00 6.6 C 5.51 g/m*3 6.6 C 3.2 km/h
523 24-03-2019 20:55:00 6.4 C 5.51 g/m*3 6.4 C 4.8 km/h
524 24-03-2019 21:00:00 6.3 C 5.48 g/m*3 6.3 C 3.2 km/h
525 24-03-2019 21:05:00 6.2 C 5.44 g/m*3 6.2 C 1.6 km/h
Sensor: Nr:Datum:Temp:Abs-Feuchte:Windchill:Wind:
Aussen-T/F 526 24-03-2019 21:10:00 6 C 5.37 g/m*3 6 C 3.2 km/h
527 24-03-2019 21:15:00 5.8 C 5.37 g/m*3 5.8 C 0 km/h
528 24-03-2019 21:20:00 5.8 C 5.44 g/m*3 5.8 C 0 km/h
529 24-03-2019 21:25:00 5.6 C 5.44 g/m*3 5.6 C 0 km/h
530 24-03-2019 21:30:00 5.4 C 5.37 g/m*3 5.4 C 0 km/h
531 24-03-2019 21:35:00 5.4 C 5.37 g/m*3 5.4 C 3.2 km/h
532 24-03-2019 21:40:00 5.3 C 5.41 g/m*3 5.3 C 0 km/h
533 24-03-2019 21:45:00 5.3 C 5.41 g/m*3 5.3 C 0 km/h
534 24-03-2019 21:50:00 5.1 C 5.34 g/m*3 5.1 C 0 km/h
535 24-03-2019 21:55:00 4.9 C 5.27 g/m*3 4.9 C 0 km/h
536 24-03-2019 22:00:00 4.8 C 5.3 g/m*3 4.8 C 0 km/h
537 24-03-2019 22:05:00 4.7 C 5.33 g/m*3 4.7 C 3.2 km/h
538 24-03-2019 22:10:00 4.6 C 5.29 g/m*3 4.6 C 1.6 km/h
539 24-03-2019 22:15:00 4.5 C 5.26 g/m*3 4.5 C 0 km/h
540 24-03-2019 22:20:00 4.3 C 5.19 g/m*3 4.3 C 0 km/h
541 24-03-2019 22:25:00 4.2 C 5.22 g/m*3 4.2 C 1.6 km/h
542 24-03-2019 22:30:00 4.1 C 5.18 g/m*3 4.1 C 1.6 km/h
543 24-03-2019 22:35:00 4.1 C 5.18 g/m*3 4.1 C 0 km/h
544 24-03-2019 22:40:00 4 C 5.15 g/m*3 4 C 0 km/h
545 24-03-2019 22:45:00 3.9 C 5.18 g/m*3 3.9 C 0 km/h
546 24-03-2019 22:50:00 3.8 C 5.14 g/m*3 3.8 C 0 km/h
547 24-03-2019 22:55:00 3.8 C 5.14 g/m*3 3.8 C 1.6 km/h
548 24-03-2019 23:00:00 3.7 C 5.11 g/m*3 3.7 C 0 km/h
549 24-03-2019 23:05:00 3.7 C 5.17 g/m*3 3.7 C 1.6 km/h
550 24-03-2019 23:10:00 3.7 C 5.17 g/m*3 3.7 C 1.6 km/h
Sensor: Nr:Datum:Temp:Abs-Feuchte:Windchill:Wind:
Aussen-T/F 551 24-03-2019 23:15:00 3.6 C 5.14 g/m*3 3.6 C 1.6 km/h
552 24-03-2019 23:20:00 3.6 C 5.14 g/m*3 3.6 C 3.2 km/h
553 24-03-2019 23:25:00 3.6 C 5.14 g/m*3 3.6 C 3.2 km/h
554 24-03-2019 23:30:00 3.6 C 5.14 g/m*3 3.6 C 4.8 km/h
555 24-03-2019 23:35:00 3.5 C 5.1 g/m*3 3.5 C 1.6 km/h
556 24-03-2019 23:40:00 3.4 C 5.01 g/m*3 3.4 C 3.2 km/h
557 24-03-2019 23:45:00 3.4 C 5.07 g/m*3 3.4 C 3.2 km/h
558 24-03-2019 23:50:00 3.5 C 5.1 g/m*3 3.5 C 4.8 km/h
559 24-03-2019 23:55:00 3.5 C 5.04 g/m*3 3.5 C 1.6 km/h
560 25-03-2019 00:00:00 3.6 C 5.08 g/m*3 3.6 C 1.6 km/h
561 25-03-2019 00:05:00 3.6 C 5.08 g/m*3 3.6 C 1.6 km/h
562 25-03-2019 00:10:00 3.6 C 5.08 g/m*3 3.6 C 1.6 km/h
563 25-03-2019 00:15:00 3.5 C 5.04 g/m*3 3.5 C 3.2 km/h
564 25-03-2019 00:20:00 3.6 C 5.08 g/m*3 3.6 C 1.6 km/h
565 25-03-2019 00:25:00 3.6 C 5.08 g/m*3 3.6 C 4.8 km/h
566 25-03-2019 00:30:00 3.6 C 5.08 g/m*3 3.6 C 4.8 km/h
567 25-03-2019 00:35:00 3.4 C 5.01 g/m*3 3.4 C 1.6 km/h
568 25-03-2019 00:40:00 3.2 C 4.94 g/m*3 3.2 C 1.6 km/h
569 25-03-2019 00:45:00 3 C 4.93 g/m*3 3 C 3.2 km/h
570 25-03-2019 00:50:00 2.8 C 4.93 g/m*3 2.8 C 4.8 km/h
571 25-03-2019 00:55:00 2.7 C 4.95 g/m*3 2.7 C 4.8 km/h
572 25-03-2019 01:00:00 2.7 C 4.95 g/m*3 2.7 C 4.8 km/h
573 25-03-2019 01:05:00 2.6 C 4.92 g/m*3 2.6 C 0 km/h
574 25-03-2019 01:10:00 2.4 C 4.85 g/m*3 2.4 C 0 km/h
575 25-03-2019 01:15:00 2.2 C 4.79 g/m*3 2.2 C 0 km/h
Sensor: Nr:Datum:Temp:Abs-Feuchte:Windchill:Wind:
Aussen-T/F 576 25-03-2019 01:20:00 1.9 C 4.69 g/m*3 1.9 C 0 km/h
577 25-03-2019 01:25:00 1.8 C 4.71 g/m*3 1.8 C 0 km/h
578 25-03-2019 01:30:00 1.7 C 4.68 g/m*3 1.7 C 0 km/h
579 25-03-2019 01:35:00 1.6 C 4.7 g/m*3 1.6 C 0 km/h
580 25-03-2019 01:40:00 1.4 C 4.64 g/m*3 1.4 C 0 km/h
581 25-03-2019 01:45:00 1.4 C 4.69 g/m*3 1.4 C 0 km/h
582 25-03-2019 01:50:00 1.4 C 4.75 g/m*3 1.4 C 0 km/h
583 25-03-2019 01:55:00 1.4 C 4.75 g/m*3 1.4 C 1.6 km/h
584 25-03-2019 02:00:00 1.4 C 4.75 g/m*3 1.4 C 0 km/h
585 25-03-2019 02:05:00 1.6 C 4.81 g/m*3 1.6 C 1.6 km/h
586 25-03-2019 02:10:00 1.6 C 4.81 g/m*3 -0.33 C 6.4 km/h
587 25-03-2019 02:15:00 1.7 C 4.85 g/m*3 1.7 C 4.8 km/h
588 25-03-2019 02:20:00 1.8 C 4.88 g/m*3 -0.1 C 6.4 km/h
589 25-03-2019 02:25:00 1.9 C 4.91 g/m*3 1.9 C 4.8 km/h
590 25-03-2019 02:30:00 1.9 C 4.91 g/m*3 1.9 C 4.8 km/h
591 25-03-2019 02:35:00 2 C 4.95 g/m*3 2 C 3.2 km/h
592 25-03-2019 02:40:00 2.1 C 4.98 g/m*3 2.1 C 3.2 km/h
593 25-03-2019 02:45:00 2.2 C 5.01 g/m*3 -0.61 C 9.7 km/h
594 25-03-2019 02:50:00 2.2 C 5.01 g/m*3 -0.61 C 9.7 km/h
595 25-03-2019 02:55:00 2.3 C 4.99 g/m*3 -0.07 C 8.1 km/h
596 25-03-2019 03:00:00 2.2 C 4.96 g/m*3 -0.99 C 11.3 km/h
597 25-03-2019 03:05:00 2.2 C 4.96 g/m*3 -0.99 C 11.3 km/h
598 25-03-2019 03:10:00 2.2 C 4.96 g/m*3 -0.18 C 8.1 km/h
599 25-03-2019 03:15:00 2.3 C 4.99 g/m*3 0.47 C 6.4 km/h
600 25-03-2019 03:20:00 2.3 C 4.99 g/m*3 -0.07 C 8.1 km/h
Sensor: Nr:Datum:Temp:Abs-Feuchte:Windchill:Wind:
Aussen-T/F 601 25-03-2019 03:25:00 2.3 C 4.99 g/m*3 2.3 C 3.2 km/h
602 25-03-2019 03:30:00 2.2 C 4.96 g/m*3 2.2 C 3.2 km/h
603 25-03-2019 03:35:00 2.3 C 4.99 g/m*3 2.3 C 4.8 km/h
604 25-03-2019 03:40:00 2.3 C 4.99 g/m*3 2.3 C 4.8 km/h
605 25-03-2019 03:45:00 2.4 C 5.02 g/m*3 0.59 C 6.4 km/h
606 25-03-2019 03:50:00 2.4 C 5.02 g/m*3 2.4 C 4.8 km/h
607 25-03-2019 03:55:00 2.4 C 5.02 g/m*3 2.4 C 4.8 km/h
608 25-03-2019 04:00:00 2.4 C 4.97 g/m*3 0.05 C 8.1 km/h
609 25-03-2019 04:05:00 2.4 C 4.97 g/m*3 2.4 C 4.8 km/h
610 25-03-2019 04:10:00 2.4 C 4.97 g/m*3 2.4 C 4.8 km/h
611 25-03-2019 04:15:00 2.4 C 5.02 g/m*3 2.4 C 4.8 km/h
612 25-03-2019 04:20:00 2.6 C 5.09 g/m*3 2.6 C 4.8 km/h
613 25-03-2019 04:25:00 2.7 C 5.13 g/m*3 0.94 C 6.4 km/h
614 25-03-2019 04:30:00 2.9 C 5.14 g/m*3 0.22 C 9.7 km/h
615 25-03-2019 04:35:00 3.1 C 5.15 g/m*3 1.4 C 6.4 km/h
616 25-03-2019 04:40:00 3.3 C 5.16 g/m*3 0.34 C 11.3 km/h
617 25-03-2019 04:45:00 3.4 C 5.13 g/m*3 0.82 C 9.7 km/h
618 25-03-2019 04:50:00 3.3 C 5.04 g/m*3 1.63 C 6.4 km/h
619 25-03-2019 04:55:00 3.4 C 5.07 g/m*3 0.14 C 12.9 km/h
620 25-03-2019 05:00:00 3.4 C 5.07 g/m*3 0.82 C 9.7 km/h
621 25-03-2019 05:05:00 3.5 C 5.1 g/m*3 0.58 C 11.3 km/h
622 25-03-2019 05:10:00 3.6 C 5.14 g/m*3 1.46 C 8.1 km/h
623 25-03-2019 05:15:00 3.6 C 5.14 g/m*3 0.39 C 12.9 km/h
624 25-03-2019 05:20:00 3.7 C 5.17 g/m*3 0.51 C 12.9 km/h
625 25-03-2019 05:25:00 3.8 C 5.14 g/m*3 0.1 C 16.1 km/h
Sensor: Nr:Datum:Temp:Abs-Feuchte:Windchill:Wind:
Aussen-T/F 626 25-03-2019 05:30:00 3.9 C 5.12 g/m*3 0.22 C 16.1 km/h
627 25-03-2019 05:35:00 3.8 C 5.14 g/m*3 0.94 C 11.3 km/h
628 25-03-2019 05:40:00 3.7 C 5.11 g/m*3 0.23 C 14.5 km/h
629 25-03-2019 05:45:00 3.7 C 5.11 g/m*3 0.82 C 11.3 km/h
630 25-03-2019 05:50:00 3.7 C 5.11 g/m*3 0.82 C 11.3 km/h
631 25-03-2019 05:55:00 3.7 C 5.17 g/m*3 0.82 C 11.3 km/h
632 25-03-2019 06:00:00 3.7 C 5.17 g/m*3 1.58 C 8.1 km/h
633 25-03-2019 06:05:00 3.7 C 5.17 g/m*3 0.82 C 11.3 km/h
634 25-03-2019 06:10:00 3.7 C 5.17 g/m*3 1.58 C 8.1 km/h
635 25-03-2019 06:15:00 3.7 C 5.17 g/m*3 1.58 C 8.1 km/h
636 25-03-2019 06:20:00 3.7 C 5.17 g/m*3 0.51 C 12.9 km/h
637 25-03-2019 06:25:00 3.7 C 5.17 g/m*3 1.58 C 8.1 km/h
638 25-03-2019 06:30:00 3.7 C 5.17 g/m*3 1.18 C 9.7 km/h
639 25-03-2019 06:35:00 3.8 C 5.21 g/m*3 2.21 C 6.4 km/h
640 25-03-2019 06:40:00 3.8 C 5.21 g/m*3 1.7 C 8.1 km/h
641 25-03-2019 06:45:00 3.8 C 5.21 g/m*3 0.94 C 11.3 km/h
642 25-03-2019 06:50:00 3.8 C 5.21 g/m*3 1.29 C 9.7 km/h
643 25-03-2019 06:55:00 3.8 C 5.27 g/m*3 3.8 C 3.2 km/h
644 25-03-2019 07:00:00 3.9 C 5.31 g/m*3 1.41 C 9.7 km/h
645 25-03-2019 07:05:00 4 C 5.34 g/m*3 1.18 C 11.3 km/h
646 25-03-2019 07:10:00 4.2 C 5.41 g/m*3 2.17 C 8.1 km/h
647 25-03-2019 07:15:00 4.4 C 5.48 g/m*3 1.67 C 11.3 km/h
648 25-03-2019 07:20:00 4.6 C 5.56 g/m*3 1.61 C 12.9 km/h
649 25-03-2019 07:25:00 4.7 C 5.6 g/m*3 2.76 C 8.1 km/h
650 25-03-2019 07:30:00 4.6 C 5.56 g/m*3 3.13 C 6.4 km/h
Sensor: Nr:Datum:Temp:Abs-Feuchte:Windchill:Wind:
Aussen-T/F 651 25-03-2019 07:35:00 4.5 C 5.59 g/m*3 2.52 C 8.1 km/h
652 25-03-2019 07:40:00 4.5 C 5.65 g/m*3 2.13 C 9.7 km/h
653 25-03-2019 07:45:00 4.4 C 5.62 g/m*3 2.4 C 8.1 km/h
654 25-03-2019 07:50:00 4.4 C 5.68 g/m*3 2.9 C 6.4 km/h
655 25-03-2019 07:55:00 4.4 C 5.62 g/m*3 2.4 C 8.1 km/h
656 25-03-2019 08:00:00 4.3 C 5.64 g/m*3 0.49 C 17.7 km/h
657 25-03-2019 08:05:00 4.3 C 5.77 g/m*3 1.55 C 11.3 km/h
658 25-03-2019 08:10:00 4.3 C 5.84 g/m*3 2.29 C 8.1 km/h
659 25-03-2019 08:15:00 4.3 C 5.84 g/m*3 4.3 C 1.6 km/h
660 25-03-2019 08:20:00 4.3 C 5.9 g/m*3 4.3 C 3.2 km/h
661 25-03-2019 08:25:00 4.4 C 6.01 g/m*3 2.4 C 8.1 km/h
662 25-03-2019 08:30:00 4.6 C 6.09 g/m*3 2.64 C 8.1 km/h
663 25-03-2019 08:35:00 4.7 C 6.13 g/m*3 4.7 C 4.8 km/h
664 25-03-2019 08:40:00 4.8 C 6.17 g/m*3 3.36 C 6.4 km/h
665 25-03-2019 08:45:00 4.8 C 6.17 g/m*3 4.8 C 3.2 km/h
666 25-03-2019 08:50:00 4.9 C 6.21 g/m*3 2.99 C 8.1 km/h
667 25-03-2019 08:55:00 5.1 C 6.36 g/m*3 3.71 C 6.4 km/h
668 25-03-2019 09:00:00 5.4 C 6.49 g/m*3 2.87 C 11.3 km/h
669 25-03-2019 09:05:00 5.7 C 6.4 g/m*3 3.23 C 11.3 km/h
670 25-03-2019 09:10:00 5.9 C 6.35 g/m*3 3.19 C 12.9 km/h
671 25-03-2019 09:15:00 6 C 6.31 g/m*3 3.06 C 14.5 km/h
672 25-03-2019 09:20:00 6.1 C 6.28 g/m*3 3.72 C 11.3 km/h
673 25-03-2019 09:25:00 6.1 C 6.28 g/m*3 4.04 C 9.7 km/h
674 25-03-2019 09:30:00 6.2 C 6.32 g/m*3 3.07 C 16.1 km/h
675 25-03-2019 09:35:00 6.2 C 6.03 g/m*3 2.86 C 17.7 km/h
Sensor: Nr:Datum:Temp:Abs-Feuchte:Windchill:Wind:
Aussen-T/F 676 25-03-2019 09:40:00 6.3 C 6.07 g/m*3 2.98 C 17.7 km/h
677 25-03-2019 09:45:00 6.4 C 6.11 g/m*3 3.55 C 14.5 km/h
678 25-03-2019 09:50:00 6.6 C 6.11 g/m*3 4.32 C 11.3 km/h
679 25-03-2019 09:55:00 6.9 C 6.16 g/m*3 4.41 C 12.9 km/h
680 25-03-2019 10:00:00 7.1 C 5.93 g/m*3 3.98 C 17.7 km/h
681 25-03-2019 10:05:00 7.3 C 6.08 g/m*3 4.66 C 14.5 km/h
682 25-03-2019 10:10:00 7.4 C 5.88 g/m*3 3.68 C 24.1 km/h
683 25-03-2019 10:15:00 7.4 C 5.65 g/m*3 4.56 C 16.1 km/h
684 25-03-2019 10:20:00 7.5 C 5.76 g/m*3 4.68 C 16.1 km/h
685 25-03-2019 10:25:00 7.5 C 5.76 g/m*3 4.68 C 16.1 km/h
686 25-03-2019 10:30:00 7.6 C 5.8 g/m*3 5.26 C 12.9 km/h
687 25-03-2019 10:35:00 7.8 C 5.88 g/m*3 5.51 C 12.9 km/h
688 25-03-2019 10:40:00 7.7 C 6.08 g/m*3 4.73 C 17.7 km/h
689 25-03-2019 10:45:00 7.4 C 6.04 g/m*3 4.78 C 14.5 km/h
690 25-03-2019 10:50:00 7.1 C 6.01 g/m*3 3.8 C 19.3 km/h
691 25-03-2019 10:55:00 7.2 C 6.12 g/m*3 5.04 C 11.3 km/h
692 25-03-2019 11:00:00 7.3 C 6 g/m*3 5.16 C 11.3 km/h
693 25-03-2019 11:05:00 7.5 C 6 g/m*3 5.7 C 9.7 km/h
694 25-03-2019 11:10:00 7.6 C 6.04 g/m*3 5.26 C 12.9 km/h
695 25-03-2019 11:15:00 7.6 C 5.88 g/m*3 4.42 C 19.3 km/h
696 25-03-2019 11:20:00 7.8 C 5.96 g/m*3 4.68 C 19.3 km/h
697 25-03-2019 11:25:00 7.8 C 5.79 g/m*3 4.51 C 20.9 km/h
698 25-03-2019 11:30:00 7.7 C 5.76 g/m*3 4.55 C 19.3 km/h
699 25-03-2019 11:35:00 7.2 C 5.97 g/m*3 4.31 C 16.1 km/h
700 25-03-2019 11:40:00 6.9 C 6.08 g/m*3 4.41 C 12.9 km/h
Sensor: Nr:Datum:Temp:Abs-Feuchte:Windchill:Wind:
Aussen-T/F 701 25-03-2019 11:45:00 6.9 C 6.16 g/m*3 3.54 C 19.3 km/h
702 25-03-2019 11:50:00 7 C 6.28 g/m*3 5.46 C 8.1 km/h
703 25-03-2019 11:55:00 7.2 C 6.12 g/m*3 4.31 C 16.1 km/h
704 25-03-2019 12:00:00 7.7 C 6.24 g/m*3 4.55 C 19.3 km/h
705 25-03-2019 12:05:00 7.9 C 6.16 g/m*3 4.47 C 22.5 km/h
706 25-03-2019 12:10:00 7.8 C 6.12 g/m*3 3.43 C 33.8 km/h
707 25-03-2019 12:15:00 7.4 C 6.28 g/m*3 4.36 C 17.7 km/h
708 25-03-2019 12:20:00 7.3 C 6.24 g/m*3 4.23 C 17.7 km/h
709 25-03-2019 12:25:00 7.5 C 6.4 g/m*3 4.3 C 19.3 km/h
710 25-03-2019 12:30:00 7.8 C 6.37 g/m*3 4.51 C 20.9 km/h
711 25-03-2019 12:35:00 8.2 C 6.45 g/m*3 5.36 C 17.7 km/h
712 25-03-2019 12:40:00 8.4 C 6.36 g/m*3 5.11 C 22.5 km/h
713 25-03-2019 12:45:00 8.2 C 6.28 g/m*3 4.57 C 25.7 km/h
714 25-03-2019 12:50:00 7.4 C 6.36 g/m*3 3.84 C 22.5 km/h
715 25-03-2019 12:55:00 7.1 C 6.4 g/m*3 4.92 C 11.3 km/h
716 25-03-2019 13:00:00 7.2 C 6.59 g/m*3 5.69 C 8.1 km/h
717 25-03-2019 13:05:00 7.2 C 6.44 g/m*3 3.13 C 27.4 km/h
718 25-03-2019 13:10:00 6.7 C 6.31 g/m*3 2.94 C 22.5 km/h
719 25-03-2019 13:15:00 6.5 C 6.37 g/m*3 3.44 C 16.1 km/h
720 25-03-2019 13:20:00 6.7 C 6.61 g/m*3 5.11 C 8.1 km/h
721 25-03-2019 13:25:00 7.1 C 6.63 g/m*3 3.98 C 17.7 km/h
722 25-03-2019 13:30:00 7.5 C 6.48 g/m*3 4.48 C 17.7 km/h
723 25-03-2019 13:35:00 7.8 C 6.45 g/m*3 3.54 C 32.2 km/h
724 25-03-2019 13:40:00 8.2 C 6.53 g/m*3 4.57 C 25.7 km/h
725 25-03-2019 13:45:00 8.5 C 6.4 g/m*3 5.73 C 17.7 km/h
Sensor: Nr:Datum:Temp:Abs-Feuchte:Windchill:Wind:
Aussen-T/F 726 25-03-2019 13:50:00 8.6 C 6.44 g/m*3 6.05 C 16.1 km/h
727 25-03-2019 13:55:00 8.6 C 6.36 g/m*3 5.22 C 24.1 km/h
728 25-03-2019 14:00:00 8.4 C 6.19 g/m*3 4.96 C 24.1 km/h
729 25-03-2019 14:05:00 8.2 C 6.11 g/m*3 4.71 C 24.1 km/h
730 25-03-2019 14:10:00 7.8 C 5.96 g/m*3 3.54 C 32.2 km/h
731 25-03-2019 14:15:00 7.2 C 5.97 g/m*3 3 C 29 km/h
732 25-03-2019 14:20:00 7 C 5.97 g/m*3 4.8 C 11.3 km/h
733 25-03-2019 14:25:00 7.1 C 6.16 g/m*3 4.92 C 11.3 km/h
734 25-03-2019 14:30:00 7.4 C 6.28 g/m*3 4.78 C 14.5 km/h
735 25-03-2019 14:35:00 7.7 C 6.41 g/m*3 5.15 C 14.5 km/h
736 25-03-2019 14:40:00 7.8 C 6.37 g/m*3 5.27 C 14.5 km/h
737 25-03-2019 14:45:00 7.8 C 6.28 g/m*3 4.68 C 19.3 km/h
738 25-03-2019 14:50:00 7.8 C 6.37 g/m*3 5.27 C 14.5 km/h
739 25-03-2019 14:55:00 7.7 C 6.41 g/m*3 5.65 C 11.3 km/h
740 25-03-2019 15:00:00 7.8 C 6.45 g/m*3 6.83 C 6.4 km/h
741 25-03-2019 15:05:00 7.8 C 6.28 g/m*3 5.77 C 11.3 km/h
742 25-03-2019 15:10:00 7.8 C 6.28 g/m*3 5.51 C 12.9 km/h
743 25-03-2019 15:15:00 7.6 C 6.36 g/m*3 3.4 C 30.6 km/h
744 25-03-2019 15:20:00 6.8 C 6.27 g/m*3 3.42 C 19.3 km/h
745 25-03-2019 15:25:00 6.4 C 6.26 g/m*3 4.08 C 11.3 km/h
746 25-03-2019 15:30:00 6.6 C 6.64 g/m*3 4.63 C 9.7 km/h
747 25-03-2019 15:35:00 6.7 C 6.69 g/m*3 5.56 C 6.4 km/h
748 25-03-2019 15:40:00 7.1 C 7.02 g/m*3 5.58 C 8.1 km/h
749 25-03-2019 15:45:00 7.2 C 6.83 g/m*3 5.04 C 11.3 km/h
750 25-03-2019 15:50:00 7.2 C 6.83 g/m*3 7.2 C 3.2 km/h
Sensor: Nr:Datum:Temp:Abs-Feuchte:Windchill:Wind:
Aussen-T/F 751 25-03-2019 15:55:00 7.2 C 6.83 g/m*3 4.53 C 14.5 km/h
752 25-03-2019 16:00:00 7.2 C 6.67 g/m*3 5.35 C 9.7 km/h
753 25-03-2019 16:05:00 7.3 C 6.64 g/m*3 5.47 C 9.7 km/h
754 25-03-2019 16:10:00 7.3 C 6.72 g/m*3 5.47 C 9.7 km/h
755 25-03-2019 16:15:00 7.4 C 6.68 g/m*3 6.37 C 6.4 km/h
756 25-03-2019 16:20:00 7.5 C 6.72 g/m*3 7.5 C 4.8 km/h
757 25-03-2019 16:25:00 7.6 C 6.69 g/m*3 7.6 C 3.2 km/h
758 25-03-2019 16:30:00 7.6 C 6.69 g/m*3 6.16 C 8.1 km/h
759 25-03-2019 16:35:00 7.6 C 6.69 g/m*3 5.26 C 12.9 km/h
760 25-03-2019 16:40:00 7.6 C 6.69 g/m*3 3.17 C 33.8 km/h
761 25-03-2019 16:45:00 7.1 C 6.55 g/m*3 3.62 C 20.9 km/h
762 25-03-2019 16:50:00 6.7 C 6.46 g/m*3 3.69 C 16.1 km/h
763 25-03-2019 16:55:00 6.6 C 6.49 g/m*3 4.63 C 9.7 km/h
764 25-03-2019 17:00:00 6.4 C 6.48 g/m*3 4.75 C 8.1 km/h
765 25-03-2019 17:05:00 6.3 C 6.44 g/m*3 3.96 C 11.3 km/h
766 25-03-2019 17:10:00 6.2 C 6.47 g/m*3 3.07 C 16.1 km/h
767 25-03-2019 17:15:00 5.9 C 6.42 g/m*3 2.29 C 19.3 km/h
768 25-03-2019 17:20:00 5.6 C 6.29 g/m*3 2.33 C 16.1 km/h
769 25-03-2019 17:25:00 5.6 C 6.36 g/m*3 2.83 C 12.9 km/h
770 25-03-2019 17:30:00 5.6 C 6.43 g/m*3 5.6 C 4.8 km/h
771 25-03-2019 17:35:00 5.5 C 6.39 g/m*3 5.5 C 3.2 km/h
772 25-03-2019 17:40:00 5.4 C 6.35 g/m*3 5.4 C 3.2 km/h
773 25-03-2019 17:45:00 5.4 C 6.42 g/m*3 5.4 C 3.2 km/h
774 25-03-2019 17:50:00 5.4 C 6.42 g/m*3 5.4 C 4.8 km/h
775 25-03-2019 17:55:00 5.3 C 6.38 g/m*3 5.3 C 0 km/h
Sensor: Nr:Datum:Temp:Abs-Feuchte:Windchill:Wind:
Aussen-T/F 776 25-03-2019 18:00:00 5.3 C 6.38 g/m*3 5.3 C 3.2 km/h
777 25-03-2019 18:05:00 5.3 C 6.45 g/m*3 5.3 C 0 km/h
778 25-03-2019 18:10:00 5.3 C 6.45 g/m*3 5.3 C 3.2 km/h
779 25-03-2019 18:15:00 5.3 C 6.45 g/m*3 3.94 C 6.4 km/h
780 25-03-2019 18:20:00 5.3 C 6.45 g/m*3 5.3 C 4.8 km/h
781 25-03-2019 18:25:00 5.3 C 6.45 g/m*3 5.3 C 3.2 km/h
782 25-03-2019 18:30:00 5.3 C 6.45 g/m*3 3.08 C 9.7 km/h
783 25-03-2019 18:35:00 5.3 C 6.45 g/m*3 5.3 C 0 km/h
784 25-03-2019 18:40:00 5.3 C 6.52 g/m*3 5.3 C 1.6 km/h
785 25-03-2019 18:45:00 5.3 C 6.52 g/m*3 5.3 C 0 km/h
786 25-03-2019 18:50:00 5.3 C 6.52 g/m*3 5.3 C 3.2 km/h
787 25-03-2019 18:55:00 5.3 C 6.52 g/m*3 5.3 C 3.2 km/h
788 25-03-2019 19:00:00 5.3 C 6.52 g/m*3 5.3 C 3.2 km/h
789 25-03-2019 19:05:00 5.3 C 6.52 g/m*3 5.3 C 0 km/h
790 25-03-2019 19:10:00 5.3 C 6.52 g/m*3 5.3 C 0 km/h
791 25-03-2019 19:15:00 5.2 C 6.47 g/m*3 5.2 C 0 km/h
792 25-03-2019 19:20:00 5.1 C 6.36 g/m*3 5.1 C 1.6 km/h
793 25-03-2019 19:25:00 4.9 C 6.28 g/m*3 4.9 C 1.6 km/h
794 25-03-2019 19:30:00 4.8 C 6.3 g/m*3 4.8 C 3.2 km/h
795 25-03-2019 19:35:00 4.8 C 6.3 g/m*3 4.8 C 0 km/h
796 25-03-2019 19:40:00 4.9 C 6.35 g/m*3 3.48 C 6.4 km/h
797 25-03-2019 19:45:00 4.9 C 6.35 g/m*3 4.9 C 4.8 km/h
798 25-03-2019 19:50:00 5 C 6.39 g/m*3 5 C 4.8 km/h
799 25-03-2019 19:55:00 5 C 6.39 g/m*3 5 C 4.8 km/h
800 25-03-2019 20:00:00 5.1 C 6.43 g/m*3 5.1 C 1.6 km/h
Sensor: Nr:Datum:Temp:Abs-Feuchte:Windchill:Wind:
Aussen-T/F 801 25-03-2019 20:05:00 5.1 C 6.43 g/m*3 5.1 C 1.6 km/h
802 25-03-2019 20:10:00 5.1 C 6.43 g/m*3 5.1 C 1.6 km/h
803 25-03-2019 20:15:00 5.1 C 6.5 g/m*3 5.1 C 3.2 km/h
804 25-03-2019 20:20:00 5.1 C 6.5 g/m*3 5.1 C 1.6 km/h
805 25-03-2019 20:25:00 5.1 C 6.5 g/m*3 5.1 C 1.6 km/h
806 25-03-2019 20:30:00 5.1 C 6.5 g/m*3 5.1 C 3.2 km/h
807 25-03-2019 20:35:00 5 C 6.46 g/m*3 5 C 3.2 km/h
808 25-03-2019 20:40:00 5 C 6.46 g/m*3 5 C 3.2 km/h
809 25-03-2019 20:45:00 5.1 C 6.5 g/m*3 5.1 C 1.6 km/h
810 25-03-2019 20:50:00 5.2 C 6.54 g/m*3 5.2 C 3.2 km/h
811 25-03-2019 20:55:00 5.2 C 6.54 g/m*3 5.2 C 1.6 km/h
812 25-03-2019 21:00:00 5.3 C 6.58 g/m*3 5.3 C 4.8 km/h
813 25-03-2019 21:05:00 5.3 C 6.58 g/m*3 5.3 C 3.2 km/h
814 25-03-2019 21:10:00 5.3 C 6.58 g/m*3 5.3 C 1.6 km/h
815 25-03-2019 21:15:00 5.3 C 6.58 g/m*3 5.3 C 1.6 km/h
816 25-03-2019 21:20:00 5.3 C 6.58 g/m*3 5.3 C 3.2 km/h
817 25-03-2019 21:25:00 5.3 C 6.58 g/m*3 5.3 C 3.2 km/h
818 25-03-2019 21:30:00 5.2 C 6.54 g/m*3 5.2 C 1.6 km/h
819 25-03-2019 21:35:00 5.2 C 6.54 g/m*3 3.34 C 8.1 km/h
820 25-03-2019 21:40:00 5.2 C 6.54 g/m*3 5.2 C 1.6 km/h
821 25-03-2019 21:45:00 5.2 C 6.54 g/m*3 3.34 C 8.1 km/h
822 25-03-2019 21:50:00 5.2 C 6.54 g/m*3 3.34 C 8.1 km/h
823 25-03-2019 21:55:00 5.1 C 6.5 g/m*3 3.71 C 6.4 km/h
824 25-03-2019 22:00:00 5.2 C 6.47 g/m*3 2.34 C 12.9 km/h
825 25-03-2019 22:05:00 5.3 C 6.52 g/m*3 5.3 C 4.8 km/h
Sensor: Nr:Datum:Temp:Abs-Feuchte:Windchill:Wind:
Aussen-T/F 826 25-03-2019 22:10:00 5.3 C 6.45 g/m*3 5.3 C 3.2 km/h
827 25-03-2019 22:15:00 5.2 C 6.4 g/m*3 3.82 C 6.4 km/h
828 25-03-2019 22:20:00 5.2 C 6.33 g/m*3 5.2 C 3.2 km/h
829 25-03-2019 22:25:00 5.1 C 6.36 g/m*3 5.1 C 3.2 km/h
830 25-03-2019 22:30:00 5.1 C 6.36 g/m*3 5.1 C 4.8 km/h
831 25-03-2019 22:35:00 5.1 C 6.36 g/m*3 5.1 C 4.8 km/h
832 25-03-2019 22:40:00 5.1 C 6.36 g/m*3 5.1 C 1.6 km/h
833 25-03-2019 22:45:00 5.1 C 6.36 g/m*3 5.1 C 1.6 km/h
834 25-03-2019 22:50:00 5.1 C 6.36 g/m*3 5.1 C 3.2 km/h
835 25-03-2019 22:55:00 5.1 C 6.36 g/m*3 3.71 C 6.4 km/h
836 25-03-2019 23:00:00 5 C 6.32 g/m*3 5 C 1.6 km/h
837 25-03-2019 23:05:00 5 C 6.32 g/m*3 5 C 3.2 km/h
838 25-03-2019 23:10:00 4.9 C 6.28 g/m*3 4.9 C 1.6 km/h
839 25-03-2019 23:15:00 4.9 C 6.28 g/m*3 4.9 C 1.6 km/h
840 25-03-2019 23:20:00 4.8 C 6.24 g/m*3 4.8 C 1.6 km/h
841 25-03-2019 23:25:00 4.7 C 6.19 g/m*3 4.7 C 0 km/h
842 25-03-2019 23:30:00 4.6 C 6.15 g/m*3 4.6 C 0 km/h
843 25-03-2019 23:35:00 4.5 C 6.11 g/m*3 4.5 C 0 km/h
844 25-03-2019 23:40:00 4.4 C 6.14 g/m*3 4.4 C 0 km/h
845 25-03-2019 23:45:00 4.4 C 6.14 g/m*3 4.4 C 0 km/h
846 25-03-2019 23:50:00 4.3 C 6.1 g/m*3 4.3 C 0 km/h
847 25-03-2019 23:55:00 4.3 C 6.1 g/m*3 4.3 C 3.2 km/h
848 26-03-2019 00:00:00 4.3 C 6.1 g/m*3 4.3 C 3.2 km/h
849 26-03-2019 00:05:00 4.3 C 6.1 g/m*3 4.3 C 4.8 km/h
850 26-03-2019 00:10:00 4.3 C 6.1 g/m*3 4.3 C 3.2 km/h
Sensor: Nr:Datum:Temp:Abs-Feuchte:Windchill:Wind:
Aussen-T/F 851 26-03-2019 00:15:00 4.4 C 6.14 g/m*3 4.4 C 0 km/h
852 26-03-2019 00:20:00 4.4 C 6.14 g/m*3 4.4 C 0 km/h
853 26-03-2019 00:25:00 4.4 C 6.2 g/m*3 4.4 C 3.2 km/h
854 26-03-2019 00:30:00 4.6 C 6.29 g/m*3 4.6 C 1.6 km/h
855 26-03-2019 00:35:00 4.6 C 6.29 g/m*3 4.6 C 1.6 km/h
856 26-03-2019 00:40:00 4.6 C 6.29 g/m*3 4.6 C 1.6 km/h
857 26-03-2019 00:45:00 4.6 C 6.29 g/m*3 4.6 C 3.2 km/h
858 26-03-2019 00:50:00 4.7 C 6.33 g/m*3 4.7 C 1.6 km/h
859 26-03-2019 00:55:00 4.7 C 6.33 g/m*3 4.7 C 0 km/h
860 26-03-2019 01:00:00 4.7 C 6.26 g/m*3 4.7 C 0 km/h
861 26-03-2019 01:05:00 4.7 C 6.26 g/m*3 4.7 C 0 km/h
862 26-03-2019 01:10:00 4.7 C 6.26 g/m*3 4.7 C 0 km/h
863 26-03-2019 01:15:00 4.7 C 6.26 g/m*3 4.7 C 0 km/h
864 26-03-2019 01:20:00 4.7 C 6.26 g/m*3 4.7 C 0 km/h
865 26-03-2019 01:25:00 4.6 C 6.22 g/m*3 4.6 C 0 km/h
866 26-03-2019 01:30:00 4.6 C 6.22 g/m*3 4.6 C 0 km/h
867 26-03-2019 01:35:00 4.4 C 6.14 g/m*3 4.4 C 3.2 km/h
868 26-03-2019 01:40:00 4.3 C 6.1 g/m*3 4.3 C 1.6 km/h
869 26-03-2019 01:45:00 4.3 C 6.1 g/m*3 4.3 C 0 km/h
870 26-03-2019 01:50:00 4.3 C 6.1 g/m*3 4.3 C 0 km/h
871 26-03-2019 01:55:00 4.3 C 6.1 g/m*3 4.3 C 1.6 km/h
872 26-03-2019 02:00:00 4.3 C 6.1 g/m*3 4.3 C 0 km/h
873 26-03-2019 02:05:00 4.3 C 6.16 g/m*3 4.3 C 0 km/h
874 26-03-2019 02:10:00 4.3 C 6.16 g/m*3 4.3 C 0 km/h
875 26-03-2019 02:15:00 4.4 C 6.2 g/m*3 4.4 C 0 km/h
Sensor: Nr:Datum:Temp:Abs-Feuchte:Windchill:Wind:
Aussen-T/F 876 26-03-2019 02:20:00 4.4 C 6.2 g/m*3 4.4 C 0 km/h
877 26-03-2019 02:25:00 4.4 C 6.2 g/m*3 4.4 C 0 km/h
878 26-03-2019 02:30:00 4.4 C 6.2 g/m*3 4.4 C 0 km/h
879 26-03-2019 02:35:00 4.4 C 6.2 g/m*3 4.4 C 0 km/h
880 26-03-2019 02:40:00 4.4 C 6.2 g/m*3 4.4 C 0 km/h
881 26-03-2019 02:45:00 4.4 C 6.2 g/m*3 4.4 C 0 km/h
882 26-03-2019 02:50:00 4.4 C 6.2 g/m*3 4.4 C 0 km/h
883 26-03-2019 02:55:00 4.4 C 6.2 g/m*3 4.4 C 1.6 km/h
884 26-03-2019 03:00:00 4.5 C 6.24 g/m*3 4.5 C 1.6 km/h
885 26-03-2019 03:05:00 4.5 C 6.24 g/m*3 4.5 C 0 km/h
886 26-03-2019 03:10:00 4.6 C 6.29 g/m*3 4.6 C 0 km/h
887 26-03-2019 03:15:00 4.6 C 6.29 g/m*3 4.6 C 0 km/h
888 26-03-2019 03:20:00 4.6 C 6.29 g/m*3 4.6 C 0 km/h
889 26-03-2019 03:25:00 4.6 C 6.29 g/m*3 4.6 C 1.6 km/h
890 26-03-2019 03:30:00 4.6 C 6.29 g/m*3 4.6 C 3.2 km/h
891 26-03-2019 03:35:00 4.7 C 6.33 g/m*3 4.7 C 0 km/h
892 26-03-2019 03:40:00 4.7 C 6.33 g/m*3 4.7 C 1.6 km/h
893 26-03-2019 03:45:00 4.7 C 6.33 g/m*3 4.7 C 0 km/h
894 26-03-2019 03:50:00 4.8 C 6.37 g/m*3 4.8 C 0 km/h
895 26-03-2019 03:55:00 4.8 C 6.37 g/m*3 4.8 C 0 km/h
896 26-03-2019 04:00:00 4.8 C 6.37 g/m*3 4.8 C 0 km/h
897 26-03-2019 04:05:00 4.8 C 6.37 g/m*3 4.8 C 1.6 km/h
898 26-03-2019 04:10:00 4.8 C 6.37 g/m*3 4.8 C 0 km/h
899 26-03-2019 04:15:00 4.8 C 6.37 g/m*3 4.8 C 3.2 km/h
900 26-03-2019 04:20:00 4.8 C 6.37 g/m*3 4.8 C 0 km/h
Sensor: Nr:Datum:Temp:Abs-Feuchte:Windchill:Wind:
Aussen-T/F 901 26-03-2019 04:25:00 4.9 C 6.41 g/m*3 4.9 C 1.6 km/h
902 26-03-2019 04:30:00 4.9 C 6.41 g/m*3 4.9 C 1.6 km/h
903 26-03-2019 04:35:00 5 C 6.46 g/m*3 5 C 1.6 km/h
904 26-03-2019 04:40:00 5 C 6.46 g/m*3 5 C 0 km/h
905 26-03-2019 04:45:00 5 C 6.46 g/m*3 5 C 4.8 km/h
906 26-03-2019 04:50:00 5.1 C 6.5 g/m*3 5.1 C 1.6 km/h
907 26-03-2019 04:55:00 5.1 C 6.5 g/m*3 5.1 C 0 km/h
908 26-03-2019 05:00:00 5.1 C 6.43 g/m*3 5.1 C 1.6 km/h
909 26-03-2019 05:05:00 5 C 6.39 g/m*3 5 C 3.2 km/h
910 26-03-2019 05:10:00 5 C 6.39 g/m*3 5 C 3.2 km/h
911 26-03-2019 05:15:00 5 C 6.39 g/m*3 3.59 C 6.4 km/h
912 26-03-2019 05:20:00 5 C 6.39 g/m*3 5 C 4.8 km/h
913 26-03-2019 05:25:00 5 C 6.39 g/m*3 5 C 3.2 km/h
914 26-03-2019 05:30:00 5 C 6.39 g/m*3 5 C 3.2 km/h
915 26-03-2019 05:35:00 5 C 6.39 g/m*3 3.59 C 6.4 km/h
916 26-03-2019 05:40:00 5 C 6.39 g/m*3 5 C 0 km/h
917 26-03-2019 05:45:00 5 C 6.32 g/m*3 5 C 0 km/h
918 26-03-2019 05:50:00 5 C 6.32 g/m*3 5 C 0 km/h
919 26-03-2019 05:55:00 5 C 6.32 g/m*3 5 C 3.2 km/h
920 26-03-2019 06:00:00 5 C 6.32 g/m*3 5 C 3.2 km/h
921 26-03-2019 06:05:00 4.9 C 6.28 g/m*3 4.9 C 3.2 km/h
922 26-03-2019 06:10:00 4.9 C 6.28 g/m*3 4.9 C 0 km/h
923 26-03-2019 06:15:00 4.9 C 6.21 g/m*3 3.48 C 6.4 km/h
924 26-03-2019 06:20:00 4.9 C 6.21 g/m*3 4.9 C 3.2 km/h
925 26-03-2019 06:25:00 5 C 6.25 g/m*3 3.11 C 8.1 km/h
Sensor: Nr:Datum:Temp:Abs-Feuchte:Windchill:Wind:
Aussen-T/F 926 26-03-2019 06:30:00 5 C 6.18 g/m*3 3.59 C 6.4 km/h
927 26-03-2019 06:35:00 5 C 6.18 g/m*3 5 C 1.6 km/h
928 26-03-2019 06:40:00 5.1 C 6.22 g/m*3 5.1 C 1.6 km/h
929 26-03-2019 06:45:00 5.1 C 6.22 g/m*3 5.1 C 1.6 km/h
930 26-03-2019 06:50:00 5.1 C 6.22 g/m*3 5.1 C 0 km/h
931 26-03-2019 06:55:00 5 C 6.18 g/m*3 5 C 0 km/h
932 26-03-2019 07:00:00 5 C 6.18 g/m*3 5 C 1.6 km/h
933 26-03-2019 07:05:00 5 C 6.18 g/m*3 5 C 3.2 km/h
934 26-03-2019 07:10:00 5 C 6.18 g/m*3 5 C 1.6 km/h
935 26-03-2019 07:15:00 5 C 6.12 g/m*3 5 C 4.8 km/h
936 26-03-2019 07:20:00 5 C 6.12 g/m*3 5 C 1.6 km/h
937 26-03-2019 07:25:00 5.1 C 6.16 g/m*3 5.1 C 0 km/h
938 26-03-2019 07:30:00 5.1 C 6.16 g/m*3 5.1 C 1.6 km/h
939 26-03-2019 07:35:00 5.1 C 6.16 g/m*3 5.1 C 3.2 km/h
940 26-03-2019 07:40:00 5.1 C 6.16 g/m*3 5.1 C 1.6 km/h
941 26-03-2019 07:45:00 5.1 C 6.16 g/m*3 5.1 C 1.6 km/h
942 26-03-2019 07:50:00 5.1 C 6.09 g/m*3 5.1 C 4.8 km/h
943 26-03-2019 07:55:00 5.2 C 6.13 g/m*3 5.2 C 0 km/h
944 26-03-2019 08:00:00 5.2 C 6.13 g/m*3 5.2 C 0 km/h
945 26-03-2019 08:05:00 5.2 C 6.06 g/m*3 3.82 C 6.4 km/h
946 26-03-2019 08:10:00 5.3 C 6.03 g/m*3 3.46 C 8.1 km/h
947 26-03-2019 08:15:00 5.3 C 5.96 g/m*3 5.3 C 1.6 km/h
948 26-03-2019 08:20:00 5.4 C 5.93 g/m*3 4.06 C 6.4 km/h
949 26-03-2019 08:25:00 5.6 C 6.01 g/m*3 5.6 C 4.8 km/h
950 26-03-2019 08:30:00 5.6 C 6.01 g/m*3 5.6 C 4.8 km/h
Sensor: Nr:Datum:Temp:Abs-Feuchte:Windchill:Wind:
Aussen-T/F 951 26-03-2019 08:35:00 5.7 C 5.98 g/m*3 3.93 C 8.1 km/h
952 26-03-2019 08:40:00 5.7 C 5.91 g/m*3 5.7 C 4.8 km/h
953 26-03-2019 08:45:00 5.8 C 6.02 g/m*3 4.52 C 6.4 km/h
954 26-03-2019 08:50:00 5.9 C 5.98 g/m*3 4.63 C 6.4 km/h
955 26-03-2019 08:55:00 5.9 C 5.98 g/m*3 5.9 C 1.6 km/h
956 26-03-2019 09:00:00 6.1 C 6.14 g/m*3 4.4 C 8.1 km/h
957 26-03-2019 09:05:00 6.1 C 5.99 g/m*3 4.4 C 8.1 km/h
958 26-03-2019 09:10:00 6.1 C 5.84 g/m*3 3.72 C 11.3 km/h
959 26-03-2019 09:15:00 6.1 C 5.84 g/m*3 4.04 C 9.7 km/h
960 26-03-2019 09:20:00 6.1 C 5.77 g/m*3 4.04 C 9.7 km/h
961 26-03-2019 09:25:00 6.1 C 5.77 g/m*3 4.04 C 9.7 km/h
962 26-03-2019 09:30:00 6.2 C 5.88 g/m*3 6.2 C 3.2 km/h
963 26-03-2019 09:35:00 6.2 C 5.88 g/m*3 4.98 C 6.4 km/h
964 26-03-2019 09:40:00 6.3 C 5.85 g/m*3 6.3 C 1.6 km/h
965 26-03-2019 09:45:00 6.4 C 5.96 g/m*3 6.4 C 4.8 km/h
966 26-03-2019 09:50:00 6.4 C 5.89 g/m*3 4.39 C 9.7 km/h
967 26-03-2019 09:55:00 6.6 C 6.04 g/m*3 4.99 C 8.1 km/h
968 26-03-2019 10:00:00 6.6 C 6.04 g/m*3 6.6 C 4.8 km/h
969 26-03-2019 10:05:00 6.7 C 5.93 g/m*3 4.44 C 11.3 km/h
970 26-03-2019 10:10:00 6.7 C 6 g/m*3 4.44 C 11.3 km/h
971 26-03-2019 10:15:00 6.8 C 6.04 g/m*3 4.87 C 9.7 km/h
972 26-03-2019 10:20:00 6.9 C 6 g/m*3 3.73 C 17.7 km/h
973 26-03-2019 10:25:00 7 C 5.89 g/m*3 3.86 C 17.7 km/h
974 26-03-2019 10:30:00 7.1 C 5.93 g/m*3 4.65 C 12.9 km/h
975 26-03-2019 10:35:00 7.2 C 5.89 g/m*3 4.77 C 12.9 km/h
Sensor: Nr:Datum:Temp:Abs-Feuchte:Windchill:Wind:
Aussen-T/F 976 26-03-2019 10:40:00 7.2 C 5.89 g/m*3 5.69 C 8.1 km/h
977 26-03-2019 10:45:00 7.2 C 5.81 g/m*3 4.77 C 12.9 km/h
978 26-03-2019 10:50:00 7.2 C 5.73 g/m*3 5.69 C 8.1 km/h
979 26-03-2019 10:55:00 7.2 C 5.81 g/m*3 5.69 C 8.1 km/h
980 26-03-2019 11:00:00 7.2 C 5.73 g/m*3 5.35 C 9.7 km/h
981 26-03-2019 11:05:00 7.1 C 5.69 g/m*3 5.23 C 9.7 km/h
982 26-03-2019 11:10:00 7.1 C 5.69 g/m*3 6.02 C 6.4 km/h
983 26-03-2019 11:15:00 7.1 C 5.77 g/m*3 5.23 C 9.7 km/h
984 26-03-2019 11:20:00 7.1 C 5.85 g/m*3 5.23 C 9.7 km/h
985 26-03-2019 11:25:00 6.9 C 5.54 g/m*3 5.34 C 8.1 km/h
986 26-03-2019 11:30:00 7 C 5.58 g/m*3 5.9 C 6.4 km/h
987 26-03-2019 11:35:00 7.2 C 5.57 g/m*3 6.13 C 6.4 km/h
988 26-03-2019 11:40:00 7.3 C 5.61 g/m*3 7.3 C 4.8 km/h
989 26-03-2019 11:45:00 7.6 C 5.56 g/m*3 5.82 C 9.7 km/h
990 26-03-2019 11:50:00 7.7 C 5.59 g/m*3 5.65 C 11.3 km/h
991 26-03-2019 11:55:00 7.9 C 5.75 g/m*3 6.18 C 9.7 km/h
992 26-03-2019 12:00:00 8.1 C 5.82 g/m*3 6.42 C 9.7 km/h
993 26-03-2019 12:05:00 8.2 C 5.86 g/m*3 6.87 C 8.1 km/h
994 26-03-2019 12:10:00 8.3 C 5.9 g/m*3 6.37 C 11.3 km/h
995 26-03-2019 12:15:00 8.3 C 5.9 g/m*3 6.37 C 11.3 km/h
996 26-03-2019 12:20:00 8.3 C 5.82 g/m*3 6.66 C 9.7 km/h
997 26-03-2019 12:25:00 8.3 C 5.9 g/m*3 6.99 C 8.1 km/h
998 26-03-2019 12:30:00 8.4 C 5.94 g/m*3 6.78 C 9.7 km/h
999 26-03-2019 12:35:00 8.7 C 6.14 g/m*3 6.38 C 14.5 km/h
1000 26-03-2019 12:40:00 8.8 C 6.01 g/m*3 6.72 C 12.9 km/h
Sensor: Nr:Datum:Temp:Abs-Feuchte:Windchill:Wind:
Aussen-T/F 1001 26-03-2019 12:45:00 8.7 C 5.79 g/m*3 6.38 C 14.5 km/h
1002 26-03-2019 12:50:00 8.7 C 5.97 g/m*3 6.6 C 12.9 km/h
1003 26-03-2019 12:55:00 8.8 C 6.09 g/m*3 6.97 C 11.3 km/h
1004 26-03-2019 13:00:00 8.9 C 6.04 g/m*3 7.37 C 9.7 km/h
1005 26-03-2019 13:05:00 9 C 5.64 g/m*3 6.36 C 17.7 km/h
1006 26-03-2019 13:10:00 8.9 C 5.78 g/m*3 7.09 C 11.3 km/h
1007 26-03-2019 13:15:00 8.7 C 5.53 g/m*3 6.6 C 12.9 km/h
1008 26-03-2019 13:20:00 8.7 C 5.62 g/m*3 7.13 C 9.7 km/h
1009 26-03-2019 13:25:00 8.7 C 5.88 g/m*3 7.46 C 8.1 km/h
1010 26-03-2019 13:30:00 8.8 C 5.83 g/m*3 8.8 C 4.8 km/h
1011 26-03-2019 13:35:00 8.9 C 5.78 g/m*3 7.37 C 9.7 km/h
1012 26-03-2019 13:40:00 8.9 C 5.87 g/m*3 6.85 C 12.9 km/h
1013 26-03-2019 13:45:00 8.9 C 5.78 g/m*3 6.85 C 12.9 km/h
1014 26-03-2019 13:50:00 8.9 C 5.61 g/m*3 7.69 C 8.1 km/h
1015 26-03-2019 13:55:00 8.9 C 5.78 g/m*3 7.37 C 9.7 km/h
1016 26-03-2019 14:00:00 8.8 C 5.83 g/m*3 6.97 C 11.3 km/h
1017 26-03-2019 14:05:00 8.9 C 5.61 g/m*3 7.09 C 11.3 km/h
1018 26-03-2019 14:10:00 8.8 C 5.57 g/m*3 6.11 C 17.7 km/h
1019 26-03-2019 14:15:00 8.9 C 5.69 g/m*3 6.85 C 12.9 km/h
1020 26-03-2019 14:20:00 8.9 C 5.78 g/m*3 6.62 C 14.5 km/h
1021 26-03-2019 14:25:00 9 C 5.73 g/m*3 6.97 C 12.9 km/h
1022 26-03-2019 14:30:00 9.1 C 5.77 g/m*3 7.09 C 12.9 km/h
1023 26-03-2019 14:35:00 8.9 C 5.61 g/m*3 6.62 C 14.5 km/h
1024 26-03-2019 14:40:00 8.9 C 5.78 g/m*3 7.09 C 11.3 km/h
1025 26-03-2019 14:45:00 8.8 C 5.57 g/m*3 6.72 C 12.9 km/h
Sensor: Nr:Datum:Temp:Abs-Feuchte:Windchill:Wind:
Aussen-T/F 1026 26-03-2019 14:50:00 8.8 C 5.57 g/m*3 6.97 C 11.3 km/h
1027 26-03-2019 14:55:00 8.7 C 5.71 g/m*3 7.87 C 6.4 km/h
1028 26-03-2019 15:00:00 8.7 C 5.62 g/m*3 7.46 C 8.1 km/h
1029 26-03-2019 15:05:00 8.7 C 5.88 g/m*3 7.13 C 9.7 km/h
1030 26-03-2019 15:10:00 8.8 C 5.83 g/m*3 7.58 C 8.1 km/h
1031 26-03-2019 15:15:00 8.9 C 5.78 g/m*3 7.69 C 8.1 km/h
1032 26-03-2019 15:20:00 8.9 C 5.87 g/m*3 7.09 C 11.3 km/h
1033 26-03-2019 15:25:00 8.9 C 5.87 g/m*3 7.69 C 8.1 km/h
1034 26-03-2019 15:30:00 8.9 C 5.96 g/m*3 8.1 C 6.4 km/h
1035 26-03-2019 15:35:00 9 C 5.91 g/m*3 7.21 C 11.3 km/h
1036 26-03-2019 15:40:00 9.1 C 6.03 g/m*3 8.33 C 6.4 km/h
1037 26-03-2019 15:45:00 9.2 C 5.89 g/m*3 8.05 C 8.1 km/h
1038 26-03-2019 15:50:00 9.5 C 6.01 g/m*3 8.79 C 6.4 km/h
1039 26-03-2019 15:55:00 9.8 C 5.94 g/m*3 8.75 C 8.1 km/h
1040 26-03-2019 16:00:00 9.9 C 5.98 g/m*3 8.3 C 11.3 km/h
1041 26-03-2019 16:05:00 9.9 C 5.79 g/m*3 8.06 C 12.9 km/h
1042 26-03-2019 16:10:00 9.8 C 5.75 g/m*3 7.94 C 12.9 km/h
1043 26-03-2019 16:15:00 9.7 C 5.9 g/m*3 7.82 C 12.9 km/h
1044 26-03-2019 16:20:00 9.6 C 5.77 g/m*3 7.7 C 12.9 km/h
1045 26-03-2019 16:25:00 9.5 C 5.92 g/m*3 7.82 C 11.3 km/h
1046 26-03-2019 16:30:00 9.4 C 5.88 g/m*3 7.7 C 11.3 km/h
1047 26-03-2019 16:35:00 9.4 C 5.79 g/m*3 7.24 C 14.5 km/h
1048 26-03-2019 16:40:00 9.3 C 5.93 g/m*3 7.58 C 11.3 km/h
1049 26-03-2019 16:45:00 9.2 C 5.89 g/m*3 7.73 C 9.7 km/h
1050 26-03-2019 16:50:00 9.2 C 6.07 g/m*3 6.99 C 14.5 km/h
Sensor: Nr:Datum:Temp:Abs-Feuchte:Windchill:Wind:
Aussen-T/F 1051 26-03-2019 16:55:00 9 C 5.99 g/m*3 6.75 C 14.5 km/h
1052 26-03-2019 17:00:00 8.8 C 6.01 g/m*3 6.97 C 11.3 km/h
1053 26-03-2019 17:05:00 8.7 C 6.05 g/m*3 7.87 C 6.4 km/h
1054 26-03-2019 17:10:00 8.6 C 6.02 g/m*3 7.34 C 8.1 km/h
1055 26-03-2019 17:15:00 8.5 C 6.06 g/m*3 6.9 C 9.7 km/h
1056 26-03-2019 17:20:00 8.4 C 6.11 g/m*3 7.52 C 6.4 km/h
1057 26-03-2019 17:25:00 8.4 C 6.02 g/m*3 7.11 C 8.1 km/h
1058 26-03-2019 17:30:00 8.4 C 6.11 g/m*3 6.78 C 9.7 km/h
1059 26-03-2019 17:35:00 8.3 C 6.07 g/m*3 7.41 C 6.4 km/h
1060 26-03-2019 17:40:00 8.3 C 5.98 g/m*3 5.68 C 16.1 km/h
1061 26-03-2019 17:45:00 8.3 C 6.07 g/m*3 7.41 C 6.4 km/h
1062 26-03-2019 17:50:00 8.3 C 6.07 g/m*3 8.3 C 4.8 km/h
1063 26-03-2019 17:55:00 8.2 C 6.03 g/m*3 8.2 C 3.2 km/h
1064 26-03-2019 18:00:00 8.2 C 6.11 g/m*3 8.2 C 1.6 km/h
1065 26-03-2019 18:05:00 8.2 C 6.11 g/m*3 8.2 C 3.2 km/h
1066 26-03-2019 18:10:00 8.2 C 6.11 g/m*3 8.2 C 3.2 km/h
1067 26-03-2019 18:15:00 8.2 C 6.11 g/m*3 6.54 C 9.7 km/h
1068 26-03-2019 18:20:00 8.2 C 6.11 g/m*3 6.87 C 8.1 km/h
1069 26-03-2019 18:25:00 8.2 C 6.2 g/m*3 7.29 C 6.4 km/h
1070 26-03-2019 18:30:00 8.2 C 6.2 g/m*3 7.29 C 6.4 km/h
1071 26-03-2019 18:35:00 8.1 C 6.16 g/m*3 7.17 C 6.4 km/h
1072 26-03-2019 18:40:00 8.1 C 6.24 g/m*3 6.75 C 8.1 km/h
1073 26-03-2019 18:45:00 8 C 6.2 g/m*3 7.06 C 6.4 km/h
1074 26-03-2019 18:50:00 7.9 C 6.16 g/m*3 7.9 C 4.8 km/h
1075 26-03-2019 18:55:00 7.9 C 6.16 g/m*3 7.9 C 4.8 km/h
Sensor: Nr:Datum:Temp:Abs-Feuchte:Windchill:Wind:
Aussen-T/F 1076 26-03-2019 19:00:00 7.9 C 6.16 g/m*3 6.94 C 6.4 km/h
1077 26-03-2019 19:05:00 7.9 C 6.24 g/m*3 7.9 C 1.6 km/h
1078 26-03-2019 19:10:00 7.9 C 6.32 g/m*3 7.9 C 1.6 km/h
1079 26-03-2019 19:15:00 7.8 C 6.37 g/m*3 7.8 C 0 km/h
1080 26-03-2019 19:20:00 7.7 C 6.24 g/m*3 7.7 C 0 km/h
1081 26-03-2019 19:25:00 7.6 C 6.28 g/m*3 7.6 C 0 km/h
1082 26-03-2019 19:30:00 7.6 C 6.36 g/m*3 7.6 C 0 km/h
1083 26-03-2019 19:35:00 7.5 C 6.4 g/m*3 7.5 C 0 km/h
1084 26-03-2019 19:40:00 7.4 C 6.44 g/m*3 7.4 C 0 km/h
1085 26-03-2019 19:45:00 7.3 C 6.4 g/m*3 7.3 C 0 km/h
1086 26-03-2019 19:50:00 7.3 C 6.4 g/m*3 7.3 C 0 km/h
1087 26-03-2019 19:55:00 7.2 C 6.36 g/m*3 7.2 C 0 km/h
1088 26-03-2019 20:00:00 7.2 C 6.44 g/m*3 7.2 C 0 km/h
1089 26-03-2019 20:05:00 7.1 C 6.32 g/m*3 7.1 C 0 km/h
1090 26-03-2019 20:10:00 7.1 C 6.4 g/m*3 7.1 C 0 km/h
1091 26-03-2019 20:15:00 7.1 C 6.4 g/m*3 7.1 C 0 km/h
1092 26-03-2019 20:20:00 7.1 C 6.4 g/m*3 7.1 C 0 km/h
1093 26-03-2019 20:25:00 7.1 C 6.4 g/m*3 7.1 C 0 km/h
1094 26-03-2019 20:30:00 7.1 C 6.4 g/m*3 7.1 C 0 km/h
1095 26-03-2019 20:35:00 7.1 C 6.4 g/m*3 7.1 C 0 km/h
1096 26-03-2019 20:40:00 7 C 6.35 g/m*3 7 C 0 km/h
1097 26-03-2019 20:45:00 7 C 6.43 g/m*3 7 C 0 km/h
1098 26-03-2019 20:50:00 7 C 6.43 g/m*3 7 C 3.2 km/h
1099 26-03-2019 20:55:00 7 C 6.43 g/m*3 7 C 1.6 km/h
1100 26-03-2019 21:00:00 6.9 C 6.39 g/m*3 6.9 C 1.6 km/h
Sensor: Nr:Datum:Temp:Abs-Feuchte:Windchill:Wind:
Aussen-T/F 1101 26-03-2019 21:05:00 6.9 C 6.39 g/m*3 6.9 C 0 km/h
1102 26-03-2019 21:10:00 6.9 C 6.39 g/m*3 6.9 C 0 km/h
1103 26-03-2019 21:15:00 6.9 C 6.47 g/m*3 6.9 C 0 km/h
1104 26-03-2019 21:20:00 6.9 C 6.47 g/m*3 6.9 C 0 km/h
1105 26-03-2019 21:25:00 6.8 C 6.42 g/m*3 6.8 C 0 km/h
1106 26-03-2019 21:30:00 6.8 C 6.42 g/m*3 6.8 C 0 km/h
1107 26-03-2019 21:35:00 6.8 C 6.42 g/m*3 6.8 C 0 km/h
1108 26-03-2019 21:40:00 6.8 C 6.5 g/m*3 6.8 C 0 km/h
1109 26-03-2019 21:45:00 6.7 C 6.46 g/m*3 6.7 C 0 km/h
1110 26-03-2019 21:50:00 6.7 C 6.46 g/m*3 6.7 C 0 km/h
1111 26-03-2019 21:55:00 6.7 C 6.46 g/m*3 6.7 C 0 km/h
1112 26-03-2019 22:00:00 6.6 C 6.42 g/m*3 6.6 C 0 km/h
1113 26-03-2019 22:05:00 6.6 C 6.42 g/m*3 6.6 C 0 km/h
1114 26-03-2019 22:10:00 6.6 C 6.49 g/m*3 6.6 C 0 km/h
1115 26-03-2019 22:15:00 6.6 C 6.49 g/m*3 6.6 C 0 km/h
1116 26-03-2019 22:20:00 6.6 C 6.49 g/m*3 6.6 C 0 km/h
1117 26-03-2019 22:25:00 6.6 C 6.49 g/m*3 6.6 C 0 km/h
1118 26-03-2019 22:30:00 6.5 C 6.45 g/m*3 6.5 C 0 km/h
1119 26-03-2019 22:35:00 6.5 C 6.52 g/m*3 6.5 C 0 km/h
1120 26-03-2019 22:40:00 6.4 C 6.48 g/m*3 6.4 C 0 km/h
1121 26-03-2019 22:45:00 6.4 C 6.48 g/m*3 6.4 C 0 km/h
1122 26-03-2019 22:50:00 6.4 C 6.48 g/m*3 6.4 C 0 km/h
1123 26-03-2019 22:55:00 6.4 C 6.48 g/m*3 6.4 C 0 km/h
1124 26-03-2019 23:00:00 6.3 C 6.44 g/m*3 6.3 C 0 km/h
1125 26-03-2019 23:05:00 6.3 C 6.44 g/m*3 6.3 C 0 km/h
Sensor: Nr:Datum:Temp:Abs-Feuchte:Windchill:Wind:
Aussen-T/F 1126 26-03-2019 23:10:00 6.3 C 6.44 g/m*3 6.3 C 0 km/h
1127 26-03-2019 23:15:00 6.3 C 6.44 g/m*3 6.3 C 0 km/h
1128 26-03-2019 23:20:00 6.3 C 6.44 g/m*3 6.3 C 0 km/h
1129 26-03-2019 23:25:00 6.2 C 6.4 g/m*3 6.2 C 0 km/h
1130 26-03-2019 23:30:00 6.2 C 6.4 g/m*3 6.2 C 0 km/h
1131 26-03-2019 23:35:00 6.2 C 6.4 g/m*3 6.2 C 0 km/h
1132 26-03-2019 23:40:00 6.2 C 6.47 g/m*3 6.2 C 0 km/h
1133 26-03-2019 23:45:00 6.2 C 6.4 g/m*3 6.2 C 0 km/h
1134 26-03-2019 23:50:00 6.2 C 6.4 g/m*3 6.2 C 1.6 km/h
1135 26-03-2019 23:55:00 6.2 C 6.4 g/m*3 6.2 C 1.6 km/h
1136 27-03-2019 00:00:00 6.2 C 6.47 g/m*3 6.2 C 1.6 km/h
1137 27-03-2019 00:05:00 6.2 C 6.4 g/m*3 6.2 C 3.2 km/h
1138 27-03-2019 00:10:00 6.2 C 6.4 g/m*3 6.2 C 3.2 km/h
1139 27-03-2019 00:15:00 6.2 C 6.4 g/m*3 6.2 C 0 km/h
1140 27-03-2019 00:20:00 6.2 C 6.4 g/m*3 6.2 C 0 km/h
1141 27-03-2019 00:25:00 6.2 C 6.4 g/m*3 6.2 C 1.6 km/h
1142 27-03-2019 00:30:00 6.1 C 6.36 g/m*3 6.1 C 0 km/h
1143 27-03-2019 00:35:00 6.1 C 6.43 g/m*3 6.1 C 0 km/h
1144 27-03-2019 00:40:00 6.1 C 6.43 g/m*3 6.1 C 0 km/h
1145 27-03-2019 00:45:00 6 C 6.39 g/m*3 6 C 0 km/h
1146 27-03-2019 00:50:00 5.9 C 6.35 g/m*3 5.9 C 0 km/h
1147 27-03-2019 00:55:00 5.9 C 6.35 g/m*3 5.9 C 0 km/h
1148 27-03-2019 01:00:00 5.8 C 6.3 g/m*3 5.8 C 0 km/h
1149 27-03-2019 01:05:00 5.8 C 6.38 g/m*3 5.8 C 0 km/h
1150 27-03-2019 01:10:00 5.8 C 6.38 g/m*3 5.8 C 0 km/h
Sensor: Nr:Datum:Temp:Abs-Feuchte:Windchill:Wind:
Aussen-T/F 1151 27-03-2019 01:15:00 5.7 C 6.33 g/m*3 5.7 C 0 km/h
1152 27-03-2019 01:20:00 5.7 C 6.33 g/m*3 5.7 C 0 km/h
1153 27-03-2019 01:25:00 5.7 C 6.33 g/m*3 5.7 C 0 km/h
1154 27-03-2019 01:30:00 5.6 C 6.29 g/m*3 5.6 C 0 km/h
1155 27-03-2019 01:35:00 5.5 C 6.25 g/m*3 5.5 C 0 km/h
1156 27-03-2019 01:40:00 5.4 C 6.21 g/m*3 5.4 C 0 km/h
1157 27-03-2019 01:45:00 5.3 C 6.17 g/m*3 5.3 C 0 km/h
1158 27-03-2019 01:50:00 5.3 C 6.24 g/m*3 5.3 C 0 km/h
1159 27-03-2019 01:55:00 5.3 C 6.24 g/m*3 5.3 C 0 km/h
1160 27-03-2019 02:00:00 5.3 C 6.24 g/m*3 5.3 C 0 km/h
1161 27-03-2019 02:05:00 5.3 C 6.24 g/m*3 5.3 C 0 km/h
1162 27-03-2019 02:10:00 5.3 C 6.24 g/m*3 5.3 C 0 km/h
1163 27-03-2019 02:15:00 5.3 C 6.24 g/m*3 5.3 C 0 km/h
1164 27-03-2019 02:20:00 5.3 C 6.24 g/m*3 5.3 C 0 km/h
1165 27-03-2019 02:25:00 5.3 C 6.31 g/m*3 5.3 C 0 km/h
1166 27-03-2019 02:30:00 5.3 C 6.31 g/m*3 5.3 C 0 km/h
1167 27-03-2019 02:35:00 5.2 C 6.27 g/m*3 5.2 C 0 km/h
1168 27-03-2019 02:40:00 5.2 C 6.27 g/m*3 5.2 C 0 km/h
1169 27-03-2019 02:45:00 5.2 C 6.27 g/m*3 5.2 C 0 km/h
1170 27-03-2019 02:50:00 5.2 C 6.2 g/m*3 5.2 C 0 km/h
1171 27-03-2019 02:55:00 5.1 C 6.22 g/m*3 5.1 C 0 km/h
1172 27-03-2019 03:00:00 5.1 C 6.16 g/m*3 5.1 C 0 km/h
1173 27-03-2019 03:05:00 5 C 6.12 g/m*3 5 C 0 km/h
1174 27-03-2019 03:10:00 5 C 6.18 g/m*3 5 C 0 km/h
1175 27-03-2019 03:15:00 5 C 6.18 g/m*3 5 C 0 km/h
Sensor: Nr:Datum:Temp:Abs-Feuchte:Windchill:Wind:
Aussen-T/F 1176 27-03-2019 03:20:00 5 C 6.18 g/m*3 5 C 0 km/h
1177 27-03-2019 03:25:00 4.9 C 6.14 g/m*3 4.9 C 0 km/h
1178 27-03-2019 03:30:00 4.9 C 6.14 g/m*3 4.9 C 0 km/h
1179 27-03-2019 03:35:00 4.9 C 6.14 g/m*3 4.9 C 0 km/h
1180 27-03-2019 03:40:00 4.9 C 6.14 g/m*3 4.9 C 0 km/h
1181 27-03-2019 03:45:00 4.8 C 6.1 g/m*3 4.8 C 0 km/h
1182 27-03-2019 03:50:00 4.7 C 6 g/m*3 4.7 C 0 km/h
1183 27-03-2019 03:55:00 4.6 C 5.96 g/m*3 4.6 C 0 km/h
1184 27-03-2019 04:00:00 4.5 C 5.98 g/m*3 4.5 C 0 km/h
1185 27-03-2019 04:05:00 4.4 C 5.94 g/m*3 4.4 C 0 km/h
1186 27-03-2019 04:10:00 4.3 C 5.9 g/m*3 4.3 C 0 km/h
1187 27-03-2019 04:15:00 4.2 C 5.86 g/m*3 4.2 C 0 km/h
1188 27-03-2019 04:20:00 4.2 C 5.86 g/m*3 4.2 C 0 km/h
1189 27-03-2019 04:25:00 4.2 C 5.86 g/m*3 4.2 C 0 km/h
1190 27-03-2019 04:30:00 4.1 C 5.82 g/m*3 4.1 C 0 km/h
1191 27-03-2019 04:35:00 4 C 5.79 g/m*3 4 C 0 km/h
1192 27-03-2019 04:40:00 3.8 C 5.71 g/m*3 3.8 C 0 km/h
1193 27-03-2019 04:45:00 3.8 C 5.71 g/m*3 3.8 C 1.6 km/h
1194 27-03-2019 04:50:00 3.7 C 5.67 g/m*3 3.7 C 0 km/h
1195 27-03-2019 04:55:00 3.5 C 5.6 g/m*3 3.5 C 0 km/h
1196 27-03-2019 05:00:00 3.3 C 5.52 g/m*3 3.3 C 0 km/h
1197 27-03-2019 05:05:00 3.2 C 5.48 g/m*3 3.2 C 0 km/h
1198 27-03-2019 05:10:00 3.2 C 5.54 g/m*3 3.2 C 1.6 km/h
1199 27-03-2019 05:15:00 3.1 C 5.51 g/m*3 3.1 C 0 km/h
1200 27-03-2019 05:20:00 3 C 5.47 g/m*3 3 C 1.6 km/h
Sensor: Nr:Datum:Temp:Abs-Feuchte:Windchill:Wind:
Aussen-T/F 1201 27-03-2019 05:25:00 2.9 C 5.43 g/m*3 2.9 C 1.6 km/h
1202 27-03-2019 05:30:00 2.9 C 5.43 g/m*3 2.9 C 0 km/h
1203 27-03-2019 05:35:00 2.9 C 5.43 g/m*3 2.9 C 0 km/h
1204 27-03-2019 05:40:00 2.8 C 5.46 g/m*3 2.8 C 1.6 km/h
1205 27-03-2019 05:45:00 2.7 C 5.36 g/m*3 2.7 C 0 km/h
1206 27-03-2019 05:50:00 2.6 C 5.32 g/m*3 2.6 C 0 km/h
1207 27-03-2019 05:55:00 2.4 C 5.25 g/m*3 2.4 C 0 km/h
1208 27-03-2019 06:00:00 2.4 C 5.31 g/m*3 2.4 C 0 km/h
1209 27-03-2019 06:05:00 2.3 C 5.27 g/m*3 2.3 C 0 km/h
1210 27-03-2019 06:10:00 2.2 C 5.24 g/m*3 2.2 C 0 km/h
1211 27-03-2019 06:15:00 2.1 C 5.2 g/m*3 2.1 C 0 km/h
1212 27-03-2019 06:20:00 2.1 C 5.2 g/m*3 2.1 C 0 km/h
1213 27-03-2019 06:25:00 2.1 C 5.2 g/m*3 2.1 C 0 km/h
1214 27-03-2019 06:30:00 2.1 C 5.2 g/m*3 2.1 C 0 km/h
1215 27-03-2019 06:35:00 2.1 C 5.26 g/m*3 2.1 C 0 km/h
1216 27-03-2019 06:40:00 2 C 5.22 g/m*3 2 C 0 km/h
1217 27-03-2019 06:45:00 1.9 C 5.19 g/m*3 1.9 C 0 km/h
1218 27-03-2019 06:50:00 1.9 C 5.19 g/m*3 1.9 C 0 km/h
1219 27-03-2019 06:55:00 2 C 5.22 g/m*3 2 C 0 km/h
1220 27-03-2019 07:00:00 2.1 C 5.26 g/m*3 2.1 C 0 km/h
1221 27-03-2019 07:05:00 2.2 C 5.29 g/m*3 2.2 C 0 km/h
1222 27-03-2019 07:10:00 2.2 C 5.29 g/m*3 2.2 C 0 km/h
1223 27-03-2019 07:15:00 2.2 C 5.29 g/m*3 2.2 C 0 km/h
1224 27-03-2019 07:20:00 2.3 C 5.33 g/m*3 2.3 C 0 km/h
1225 27-03-2019 07:25:00 2.3 C 5.39 g/m*3 2.3 C 0 km/h
Sensor: Nr:Datum:Temp:Abs-Feuchte:Windchill:Wind:
Aussen-T/F 1226 27-03-2019 07:30:00 2.5 C 5.46 g/m*3 2.5 C 0 km/h
1227 27-03-2019 07:35:00 2.7 C 5.54 g/m*3 2.7 C 1.6 km/h
1228 27-03-2019 07:40:00 2.9 C 5.61 g/m*3 2.9 C 0 km/h
1229 27-03-2019 07:45:00 3.1 C 5.69 g/m*3 3.1 C 0 km/h
1230 27-03-2019 07:50:00 3.3 C 5.76 g/m*3 3.3 C 0 km/h
1231 27-03-2019 07:55:00 3.4 C 5.8 g/m*3 3.4 C 1.6 km/h
1232 27-03-2019 08:00:00 3.6 C 5.88 g/m*3 3.6 C 3.2 km/h
1233 27-03-2019 08:05:00 3.6 C 5.88 g/m*3 3.6 C 3.2 km/h
1234 27-03-2019 08:10:00 3.7 C 5.92 g/m*3 3.7 C 0 km/h
1235 27-03-2019 08:15:00 3.7 C 5.86 g/m*3 3.7 C 0 km/h
1236 27-03-2019 08:20:00 3.7 C 5.86 g/m*3 3.7 C 0 km/h
1237 27-03-2019 08:25:00 3.8 C 5.9 g/m*3 3.8 C 0 km/h
1238 27-03-2019 08:30:00 3.8 C 5.96 g/m*3 3.8 C 0 km/h
1239 27-03-2019 08:35:00 3.9 C 6 g/m*3 3.9 C 0 km/h
1240 27-03-2019 08:40:00 4.1 C 6.02 g/m*3 4.1 C 0 km/h
1241 27-03-2019 08:45:00 4.1 C 6.08 g/m*3 4.1 C 0 km/h
1242 27-03-2019 08:50:00 4.2 C 6.12 g/m*3 4.2 C 0 km/h
1243 27-03-2019 08:55:00 4.4 C 6.2 g/m*3 4.4 C 0 km/h
1244 27-03-2019 09:00:00 4.6 C 6.29 g/m*3 4.6 C 3.2 km/h
1245 27-03-2019 09:05:00 4.8 C 6.3 g/m*3 4.8 C 0 km/h
1246 27-03-2019 09:10:00 4.9 C 6.35 g/m*3 4.9 C 0 km/h
1247 27-03-2019 09:15:00 5.2 C 6.4 g/m*3 5.2 C 0 km/h
1248 27-03-2019 09:20:00 5.4 C 6.49 g/m*3 5.4 C 0 km/h
1249 27-03-2019 09:25:00 5.7 C 6.62 g/m*3 5.7 C 1.6 km/h
1250 27-03-2019 09:30:00 5.8 C 6.59 g/m*3 5.8 C 0 km/h
Sensor: Nr:Datum:Temp:Abs-Feuchte:Windchill:Wind:
Aussen-T/F 1251 27-03-2019 09:35:00 6.1 C 6.65 g/m*3 6.1 C 3.2 km/h
1252 27-03-2019 09:40:00 6.3 C 6.74 g/m*3 6.3 C 1.6 km/h
1253 27-03-2019 09:45:00 6.7 C 6.76 g/m*3 6.7 C 3.2 km/h
1254 27-03-2019 09:50:00 6.9 C 6.85 g/m*3 6.9 C 4.8 km/h
1255 27-03-2019 09:55:00 7.2 C 6.91 g/m*3 7.2 C 1.6 km/h
1256 27-03-2019 10:00:00 7.4 C 6.92 g/m*3 7.4 C 0 km/h
1257 27-03-2019 10:05:00 7.7 C 6.97 g/m*3 7.7 C 3.2 km/h
1258 27-03-2019 10:10:00 7.8 C 6.86 g/m*3 7.8 C 1.6 km/h
1259 27-03-2019 10:15:00 7.9 C 6.9 g/m*3 7.9 C 0 km/h
1260 27-03-2019 10:20:00 7.9 C 6.9 g/m*3 7.9 C 1.6 km/h
1261 27-03-2019 10:25:00 8.1 C 6.99 g/m*3 8.1 C 3.2 km/h
1262 27-03-2019 10:30:00 8.2 C 6.95 g/m*3 8.2 C 4.8 km/h
1263 27-03-2019 10:35:00 8.3 C 7 g/m*3 8.3 C 4.8 km/h
1264 27-03-2019 10:40:00 8.5 C 7.09 g/m*3 8.5 C 4.8 km/h
1265 27-03-2019 10:45:00 8.6 C 7.13 g/m*3 8.6 C 3.2 km/h
1266 27-03-2019 10:50:00 8.7 C 7.09 g/m*3 8.7 C 3.2 km/h
1267 27-03-2019 10:55:00 8.9 C 7.18 g/m*3 8.9 C 4.8 km/h
1268 27-03-2019 11:00:00 9 C 6.96 g/m*3 8.21 C 6.4 km/h
1269 27-03-2019 11:05:00 9 C 6.96 g/m*3 9 C 1.6 km/h
1270 27-03-2019 11:10:00 9 C 6.88 g/m*3 9 C 4.8 km/h
1271 27-03-2019 11:15:00 9 C 6.96 g/m*3 9 C 1.6 km/h
1272 27-03-2019 11:20:00 9 C 6.79 g/m*3 7.81 C 8.1 km/h
1273 27-03-2019 11:25:00 9 C 6.7 g/m*3 7.81 C 8.1 km/h
1274 27-03-2019 11:30:00 9.1 C 6.83 g/m*3 8.33 C 6.4 km/h
1275 27-03-2019 11:35:00 9.1 C 6.74 g/m*3 9.1 C 4.8 km/h
Sensor: Nr:Datum:Temp:Abs-Feuchte:Windchill:Wind:
Aussen-T/F 1276 27-03-2019 11:40:00 9.3 C 6.83 g/m*3 9.3 C 4.8 km/h
1277 27-03-2019 11:45:00 9.4 C 6.78 g/m*3 8.68 C 6.4 km/h
1278 27-03-2019 11:50:00 9.4 C 6.6 g/m*3 8.68 C 6.4 km/h
1279 27-03-2019 11:55:00 9.3 C 6.56 g/m*3 8.16 C 8.1 km/h
1280 27-03-2019 12:00:00 9.3 C 6.65 g/m*3 9.3 C 4.8 km/h
1281 27-03-2019 12:05:00 9.3 C 6.56 g/m*3 9.3 C 4.8 km/h
1282 27-03-2019 12:10:00 9.4 C 6.42 g/m*3 9.4 C 3.2 km/h
1283 27-03-2019 12:15:00 9.5 C 6.46 g/m*3 9.5 C 4.8 km/h
1284 27-03-2019 12:20:00 9.7 C 6.64 g/m*3 9.7 C 3.2 km/h
1285 27-03-2019 12:25:00 9.9 C 6.63 g/m*3 9.9 C 3.2 km/h
1286 27-03-2019 12:30:00 10.2 C 6.76 g/m*3 9.6 C 6.4 km/h
1287 27-03-2019 12:35:00 10.4 C 6.75 g/m*3 10.4 C 4.8 km/h
1288 27-03-2019 12:40:00 10.6 C 6.54 g/m*3 9.69 C 8.1 km/h
1289 27-03-2019 12:45:00 10.8 C 6.62 g/m*3 9.64 C 9.7 km/h
1290 27-03-2019 12:50:00 10.8 C 6.23 g/m*3 9.38 C 11.3 km/h
1291 27-03-2019 12:55:00 10.7 C 6.29 g/m*3 9.52 C 9.7 km/h
1292 27-03-2019 13:00:00 10.6 C 6.34 g/m*3 9.69 C 8.1 km/h
1293 27-03-2019 13:05:00 10.6 C 6.15 g/m*3 10.06 C 6.4 km/h
1294 27-03-2019 13:10:00 10.7 C 6.29 g/m*3 9.52 C 9.7 km/h
1295 27-03-2019 13:15:00 11.1 C 6.25 g/m*3 11.1 C 6.4 km/h
1296 27-03-2019 13:20:00 11.2 C 6.28 g/m*3 11.2 C 9.7 km/h
1297 27-03-2019 13:25:00 11.1 C 6.14 g/m*3 11.1 C 11.3 km/h
1298 27-03-2019 13:30:00 10.8 C 6.23 g/m*3 9.38 C 11.3 km/h
1299 27-03-2019 13:35:00 10.7 C 6.38 g/m*3 9.52 C 9.7 km/h
1300 27-03-2019 13:40:00 10.7 C 6.38 g/m*3 9.26 C 11.3 km/h
Sensor: Nr:Datum:Temp:Abs-Feuchte:Windchill:Wind:
Aussen-T/F 1301 27-03-2019 13:45:00 10.6 C 6.34 g/m*3 9.14 C 11.3 km/h
1302 27-03-2019 13:50:00 10.7 C 6.29 g/m*3 9.52 C 9.7 km/h
1303 27-03-2019 13:55:00 10.8 C 6.33 g/m*3 9.38 C 11.3 km/h
1304 27-03-2019 14:00:00 10.8 C 6.23 g/m*3 9.64 C 9.7 km/h
1305 27-03-2019 14:05:00 10.7 C 6.19 g/m*3 9.81 C 8.1 km/h
1306 27-03-2019 14:10:00 10.8 C 6.23 g/m*3 10.29 C 6.4 km/h
1307 27-03-2019 14:15:00 10.8 C 6.23 g/m*3 10.8 C 1.6 km/h
1308 27-03-2019 14:20:00 10.8 C 6.03 g/m*3 10.29 C 6.4 km/h
1309 27-03-2019 14:25:00 10.9 C 6.17 g/m*3 10.41 C 6.4 km/h
1310 27-03-2019 14:30:00 10.9 C 6.17 g/m*3 10.41 C 6.4 km/h
1311 27-03-2019 14:35:00 11.1 C 5.94 g/m*3 11.1 C 8.1 km/h
1312 27-03-2019 14:40:00 11.3 C 6.12 g/m*3 11.3 C 8.1 km/h
1313 27-03-2019 14:45:00 11.5 C 6.09 g/m*3 11.5 C 4.8 km/h
1314 27-03-2019 14:50:00 11.6 C 6.13 g/m*3 11.6 C 1.6 km/h
1315 27-03-2019 14:55:00 11.4 C 5.95 g/m*3 11.4 C 9.7 km/h
1316 27-03-2019 15:00:00 11.3 C 6.22 g/m*3 11.3 C 4.8 km/h
1317 27-03-2019 15:05:00 11.3 C 6.22 g/m*3 11.3 C 3.2 km/h
1318 27-03-2019 15:10:00 11.3 C 6.02 g/m*3 11.3 C 6.4 km/h
1319 27-03-2019 15:15:00 11.2 C 5.98 g/m*3 11.2 C 3.2 km/h
1320 27-03-2019 15:20:00 11.1 C 5.74 g/m*3 11.1 C 3.2 km/h
1321 27-03-2019 15:25:00 11.1 C 5.94 g/m*3 11.1 C 11.3 km/h
1322 27-03-2019 15:30:00 11.1 C 6.14 g/m*3 11.1 C 11.3 km/h
1323 27-03-2019 15:35:00 11 C 6.11 g/m*3 9.88 C 9.7 km/h
1324 27-03-2019 15:40:00 11 C 6.21 g/m*3 9.88 C 9.7 km/h
1325 27-03-2019 15:45:00 11 C 6.11 g/m*3 10.52 C 6.4 km/h
Sensor: Nr:Datum:Temp:Abs-Feuchte:Windchill:Wind:
Aussen-T/F 1326 27-03-2019 15:50:00 11 C 6.11 g/m*3 9.63 C 11.3 km/h
1327 27-03-2019 15:55:00 10.9 C 6.07 g/m*3 9.76 C 9.7 km/h
1328 27-03-2019 16:00:00 11 C 6.11 g/m*3 10.16 C 8.1 km/h
1329 27-03-2019 16:05:00 11 C 6.11 g/m*3 10.52 C 6.4 km/h
1330 27-03-2019 16:10:00 11.1 C 6.14 g/m*3 11.1 C 6.4 km/h
1331 27-03-2019 16:15:00 11.1 C 6.04 g/m*3 11.1 C 9.7 km/h
1332 27-03-2019 16:20:00 11.1 C 5.94 g/m*3 11.1 C 4.8 km/h
1333 27-03-2019 16:25:00 11.1 C 5.84 g/m*3 11.1 C 4.8 km/h
1334 27-03-2019 16:30:00 11.3 C 6.22 g/m*3 11.3 C 4.8 km/h
1335 27-03-2019 16:35:00 11.6 C 6.03 g/m*3 11.6 C 8.1 km/h
1336 27-03-2019 16:40:00 11.4 C 5.95 g/m*3 11.4 C 4.8 km/h
1337 27-03-2019 16:45:00 11.4 C 6.06 g/m*3 11.4 C 4.8 km/h
1338 27-03-2019 16:50:00 11.4 C 5.95 g/m*3 11.4 C 8.1 km/h
1339 27-03-2019 16:55:00 11.3 C 5.81 g/m*3 11.3 C 4.8 km/h
1340 27-03-2019 17:00:00 11.2 C 5.88 g/m*3 11.2 C 4.8 km/h
1341 27-03-2019 17:05:00 11.2 C 5.88 g/m*3 11.2 C 6.4 km/h
1342 27-03-2019 17:10:00 11.2 C 5.78 g/m*3 11.2 C 4.8 km/h
1343 27-03-2019 17:15:00 11.2 C 5.88 g/m*3 11.2 C 4.8 km/h
1344 27-03-2019 17:20:00 11.1 C 5.94 g/m*3 11.1 C 4.8 km/h
1345 27-03-2019 17:25:00 11 C 6.01 g/m*3 10.52 C 6.4 km/h
1346 27-03-2019 17:30:00 10.9 C 6.07 g/m*3 10.41 C 6.4 km/h
1347 27-03-2019 17:35:00 10.8 C 6.03 g/m*3 10.8 C 4.8 km/h
1348 27-03-2019 17:40:00 10.7 C 5.99 g/m*3 10.18 C 6.4 km/h
1349 27-03-2019 17:45:00 10.7 C 6.09 g/m*3 10.18 C 6.4 km/h
1350 27-03-2019 17:50:00 10.8 C 6.13 g/m*3 10.8 C 1.6 km/h
Sensor: Nr:Datum:Temp:Abs-Feuchte:Windchill:Wind:
Aussen-T/F 1351 27-03-2019 17:55:00 10.9 C 6.17 g/m*3 10.41 C 6.4 km/h
1352 27-03-2019 18:00:00 10.8 C 6.13 g/m*3 10.8 C 1.6 km/h
1353 27-03-2019 18:05:00 10.7 C 6.09 g/m*3 10.7 C 0 km/h
1354 27-03-2019 18:10:00 10.7 C 6.48 g/m*3 10.7 C 0 km/h
1355 27-03-2019 18:15:00 10.5 C 6.4 g/m*3 10.5 C 1.6 km/h
1356 27-03-2019 18:20:00 10.3 C 6.51 g/m*3 10.3 C 0 km/h
1357 27-03-2019 18:25:00 10.1 C 6.71 g/m*3 10.1 C 0 km/h
1358 27-03-2019 18:30:00 9.8 C 6.49 g/m*3 9.8 C 0 km/h
1359 27-03-2019 18:35:00 9.4 C 6.42 g/m*3 9.4 C 0 km/h
1360 27-03-2019 18:40:00 9.2 C 6.25 g/m*3 9.2 C 1.6 km/h
1361 27-03-2019 18:45:00 9.1 C 6.39 g/m*3 9.1 C 0 km/h
1362 27-03-2019 18:50:00 8.8 C 6.35 g/m*3 8.8 C 1.6 km/h
1363 27-03-2019 18:55:00 8.6 C 6.19 g/m*3 8.6 C 3.2 km/h
1364 27-03-2019 19:00:00 8.5 C 6.23 g/m*3 8.5 C 0 km/h
1365 27-03-2019 19:05:00 8.3 C 6.32 g/m*3 8.3 C 3.2 km/h
1366 27-03-2019 19:10:00 8.2 C 6.36 g/m*3 8.2 C 3.2 km/h
1367 27-03-2019 19:15:00 7.9 C 6.24 g/m*3 7.9 C 3.2 km/h
1368 27-03-2019 19:20:00 7.8 C 6.28 g/m*3 7.8 C 4.8 km/h
1369 27-03-2019 19:25:00 7.6 C 6.2 g/m*3 7.6 C 4.8 km/h
1370 27-03-2019 19:30:00 7.5 C 6.16 g/m*3 7.5 C 1.6 km/h
1371 27-03-2019 19:35:00 7.4 C 6.2 g/m*3 7.4 C 3.2 km/h
1372 27-03-2019 19:40:00 7.3 C 6.24 g/m*3 7.3 C 4.8 km/h
1373 27-03-2019 19:45:00 7.2 C 6.2 g/m*3 7.2 C 4.8 km/h
1374 27-03-2019 19:50:00 7.1 C 6.24 g/m*3 7.1 C 4.8 km/h
1375 27-03-2019 19:55:00 6.9 C 6.16 g/m*3 6.9 C 3.2 km/h
Sensor: Nr:Datum:Temp:Abs-Feuchte:Windchill:Wind:
Aussen-T/F 1376 27-03-2019 20:00:00 6.8 C 6.19 g/m*3 6.8 C 4.8 km/h
1377 27-03-2019 20:05:00 6.6 C 6.11 g/m*3 6.6 C 3.2 km/h
1378 27-03-2019 20:10:00 6.7 C 6.08 g/m*3 6.7 C 3.2 km/h
1379 27-03-2019 20:15:00 6.7 C 6.15 g/m*3 6.7 C 3.2 km/h
1380 27-03-2019 20:20:00 6.6 C 6.11 g/m*3 6.6 C 1.6 km/h
1381 27-03-2019 20:25:00 6.6 C 6.11 g/m*3 6.6 C 0 km/h
1382 27-03-2019 20:30:00 6.4 C 6.11 g/m*3 5.21 C 6.4 km/h
1383 27-03-2019 20:35:00 6.4 C 6.11 g/m*3 6.4 C 4.8 km/h
1384 27-03-2019 20:40:00 6.3 C 6.07 g/m*3 6.3 C 4.8 km/h
1385 27-03-2019 20:45:00 6.3 C 6.14 g/m*3 6.3 C 4.8 km/h
1386 27-03-2019 20:50:00 6.3 C 6.14 g/m*3 6.3 C 4.8 km/h
1387 27-03-2019 20:55:00 6.2 C 6.1 g/m*3 6.2 C 4.8 km/h
1388 27-03-2019 21:00:00 6.2 C 6.18 g/m*3 6.2 C 3.2 km/h
1389 27-03-2019 21:05:00 6.1 C 6.14 g/m*3 6.1 C 3.2 km/h
1390 27-03-2019 21:10:00 6 C 6.1 g/m*3 6 C 0 km/h
1391 27-03-2019 21:15:00 5.9 C 6.06 g/m*3 5.9 C 0 km/h
1392 27-03-2019 21:20:00 5.8 C 6.02 g/m*3 5.8 C 0 km/h
1393 27-03-2019 21:25:00 5.7 C 6.05 g/m*3 5.7 C 0 km/h
1394 27-03-2019 21:30:00 5.6 C 6.01 g/m*3 5.6 C 0 km/h
1395 27-03-2019 21:35:00 5.5 C 5.97 g/m*3 5.5 C 0 km/h
1396 27-03-2019 21:40:00 5.5 C 6.04 g/m*3 5.5 C 1.6 km/h
1397 27-03-2019 21:45:00 5.4 C 6 g/m*3 5.4 C 0 km/h
1398 27-03-2019 21:50:00 5.3 C 5.96 g/m*3 5.3 C 4.8 km/h
1399 27-03-2019 21:55:00 5.3 C 5.96 g/m*3 5.3 C 3.2 km/h
1400 27-03-2019 22:00:00 5.2 C 5.92 g/m*3 5.2 C 4.8 km/h
Sensor: Nr:Datum:Temp:Abs-Feuchte:Windchill:Wind:
Aussen-T/F 1401 27-03-2019 22:05:00 5.2 C 5.99 g/m*3 5.2 C 0 km/h
1402 27-03-2019 22:10:00 5.1 C 5.88 g/m*3 5.1 C 0 km/h
1403 27-03-2019 22:15:00 5 C 5.84 g/m*3 5 C 0 km/h
1404 27-03-2019 22:20:00 4.9 C 5.81 g/m*3 4.9 C 0 km/h
1405 27-03-2019 22:25:00 4.8 C 5.77 g/m*3 4.8 C 0 km/h
1406 27-03-2019 22:30:00 4.7 C 5.8 g/m*3 4.7 C 0 km/h
1407 27-03-2019 22:35:00 4.6 C 5.76 g/m*3 4.6 C 0 km/h
1408 27-03-2019 22:40:00 4.5 C 5.78 g/m*3 4.5 C 0 km/h
1409 27-03-2019 22:45:00 4.4 C 5.75 g/m*3 4.4 C 0 km/h
1410 27-03-2019 22:50:00 4.2 C 5.61 g/m*3 4.2 C 0 km/h
1411 27-03-2019 22:55:00 4.1 C 5.63 g/m*3 4.1 C 0 km/h
1412 27-03-2019 23:00:00 4 C 5.66 g/m*3 4 C 0 km/h
1413 27-03-2019 23:05:00 3.9 C 5.62 g/m*3 3.9 C 0 km/h
1414 27-03-2019 23:10:00 3.8 C 5.58 g/m*3 3.8 C 0 km/h
1415 27-03-2019 23:15:00 3.7 C 5.55 g/m*3 3.7 C 0 km/h
1416 27-03-2019 23:20:00 3.6 C 5.51 g/m*3 3.6 C 0 km/h
1417 27-03-2019 23:25:00 3.4 C 5.5 g/m*3 3.4 C 0 km/h
1418 27-03-2019 23:30:00 3.4 C 5.5 g/m*3 3.4 C 0 km/h
1419 27-03-2019 23:35:00 3.3 C 5.46 g/m*3 3.3 C 0 km/h
1420 27-03-2019 23:40:00 3.2 C 5.48 g/m*3 3.2 C 0 km/h
1421 27-03-2019 23:45:00 3.2 C 5.48 g/m*3 3.2 C 0 km/h
1422 27-03-2019 23:50:00 3.1 C 5.45 g/m*3 3.1 C 0 km/h
1423 27-03-2019 23:55:00 3.1 C 5.45 g/m*3 3.1 C 0 km/h
1424 28-03-2019 00:00:00 3 C 5.41 g/m*3 3 C 0 km/h
1425 28-03-2019 00:05:00 3 C 5.41 g/m*3 3 C 0 km/h
Sensor: Nr:Datum:Temp:Abs-Feuchte:Windchill:Wind:
Aussen-T/F 1426 28-03-2019 00:10:00 3 C 5.47 g/m*3 3 C 0 km/h
1427 28-03-2019 00:15:00 2.9 C 5.43 g/m*3 2.9 C 0 km/h
1428 28-03-2019 00:20:00 3 C 5.47 g/m*3 3 C 0 km/h
1429 28-03-2019 00:25:00 2.9 C 5.43 g/m*3 2.9 C 0 km/h
1430 28-03-2019 00:30:00 2.9 C 5.43 g/m*3 2.9 C 3.2 km/h
1431 28-03-2019 00:35:00 2.9 C 5.43 g/m*3 2.9 C 3.2 km/h
1432 28-03-2019 00:40:00 2.9 C 5.43 g/m*3 2.9 C 0 km/h
1433 28-03-2019 00:45:00 2.9 C 5.43 g/m*3 2.9 C 0 km/h
1434 28-03-2019 00:50:00 2.9 C 5.43 g/m*3 2.9 C 0 km/h
1435 28-03-2019 00:55:00 2.8 C 5.4 g/m*3 2.8 C 0 km/h
1436 28-03-2019 01:00:00 2.8 C 5.4 g/m*3 2.8 C 0 km/h
1437 28-03-2019 01:05:00 2.7 C 5.36 g/m*3 2.7 C 0 km/h
1438 28-03-2019 01:10:00 2.6 C 5.32 g/m*3 2.6 C 0 km/h
1439 28-03-2019 01:15:00 2.5 C 5.29 g/m*3 2.5 C 0 km/h
1440 28-03-2019 01:20:00 2.4 C 5.25 g/m*3 2.4 C 0 km/h
1441 28-03-2019 01:25:00 2.5 C 5.29 g/m*3 2.5 C 0 km/h
1442 28-03-2019 01:30:00 2.4 C 5.25 g/m*3 2.4 C 0 km/h
1443 28-03-2019 01:35:00 2.3 C 5.22 g/m*3 2.3 C 0 km/h
1444 28-03-2019 01:40:00 2.3 C 5.27 g/m*3 2.3 C 0 km/h
1445 28-03-2019 01:45:00 2.4 C 5.31 g/m*3 2.4 C 0 km/h
1446 28-03-2019 01:50:00 2.4 C 5.31 g/m*3 2.4 C 0 km/h
1447 28-03-2019 01:55:00 2.4 C 5.31 g/m*3 2.4 C 0 km/h
1448 28-03-2019 02:00:00 2.3 C 5.27 g/m*3 2.3 C 0 km/h
1449 28-03-2019 02:05:00 2.2 C 5.24 g/m*3 2.2 C 0 km/h
1450 28-03-2019 02:10:00 2.2 C 5.24 g/m*3 2.2 C 0 km/h
Sensor: Nr:Datum:Temp:Abs-Feuchte:Windchill:Wind:
Aussen-T/F 1451 28-03-2019 02:15:00 2.1 C 5.2 g/m*3 2.1 C 0 km/h
1452 28-03-2019 02:20:00 2 C 5.17 g/m*3 2 C 0 km/h
1453 28-03-2019 02:25:00 2 C 5.17 g/m*3 2 C 0 km/h
1454 28-03-2019 02:30:00 1.9 C 5.13 g/m*3 1.9 C 0 km/h
1455 28-03-2019 02:35:00 1.9 C 5.13 g/m*3 1.9 C 0 km/h
1456 28-03-2019 02:40:00 1.8 C 5.1 g/m*3 1.8 C 0 km/h
1457 28-03-2019 02:45:00 1.8 C 5.1 g/m*3 1.8 C 0 km/h
1458 28-03-2019 02:50:00 1.8 C 5.1 g/m*3 1.8 C 0 km/h
1459 28-03-2019 02:55:00 1.7 C 5.06 g/m*3 1.7 C 0 km/h
1460 28-03-2019 03:00:00 1.7 C 5.06 g/m*3 1.7 C 0 km/h
1461 28-03-2019 03:05:00 1.7 C 5.06 g/m*3 1.7 C 0 km/h
1462 28-03-2019 03:10:00 1.6 C 5.08 g/m*3 1.6 C 0 km/h
1463 28-03-2019 03:15:00 1.6 C 5.08 g/m*3 1.6 C 0 km/h
1464 28-03-2019 03:20:00 1.5 C 5.05 g/m*3 1.5 C 0 km/h
1465 28-03-2019 03:25:00 1.6 C 5.08 g/m*3 1.6 C 0 km/h
1466 28-03-2019 03:30:00 1.7 C 5.12 g/m*3 1.7 C 0 km/h
1467 28-03-2019 03:35:00 1.8 C 5.15 g/m*3 1.8 C 0 km/h
1468 28-03-2019 03:40:00 1.7 C 5.12 g/m*3 1.7 C 0 km/h
1469 28-03-2019 03:45:00 1.6 C 5.08 g/m*3 1.6 C 0 km/h
1470 28-03-2019 03:50:00 1.4 C 4.96 g/m*3 1.4 C 0 km/h
1471 28-03-2019 03:55:00 1.4 C 5.01 g/m*3 1.4 C 0 km/h
1472 28-03-2019 04:00:00 1.4 C 5.01 g/m*3 1.4 C 0 km/h
1473 28-03-2019 04:05:00 1.6 C 5.08 g/m*3 1.6 C 0 km/h
1474 28-03-2019 04:10:00 1.6 C 5.08 g/m*3 1.6 C 0 km/h
1475 28-03-2019 04:15:00 1.5 C 5.05 g/m*3 1.5 C 0 km/h
Sensor: Nr:Datum:Temp:Abs-Feuchte:Windchill:Wind:
Aussen-T/F 1476 28-03-2019 04:20:00 1.5 C 5.05 g/m*3 1.5 C 0 km/h
1477 28-03-2019 04:25:00 1.4 C 5.01 g/m*3 1.4 C 0 km/h
1478 28-03-2019 04:30:00 1.2 C 4.95 g/m*3 1.2 C 0 km/h
1479 28-03-2019 04:35:00 1.2 C 4.95 g/m*3 1.2 C 1.6 km/h
1480 28-03-2019 04:40:00 1.3 C 4.98 g/m*3 1.3 C 0 km/h
1481 28-03-2019 04:45:00 1.3 C 4.98 g/m*3 1.3 C 0 km/h
1482 28-03-2019 04:50:00 1.3 C 4.98 g/m*3 1.3 C 0 km/h
1483 28-03-2019 04:55:00 1.2 C 4.95 g/m*3 1.2 C 0 km/h
1484 28-03-2019 05:00:00 1.1 C 4.91 g/m*3 1.1 C 0 km/h
1485 28-03-2019 05:05:00 1 C 4.88 g/m*3 1 C 0 km/h
1486 28-03-2019 05:10:00 1 C 4.88 g/m*3 1 C 0 km/h
1487 28-03-2019 05:15:00 1 C 4.88 g/m*3 1 C 0 km/h
1488 28-03-2019 05:20:00 0.9 C 4.85 g/m*3 0.9 C 0 km/h
1489 28-03-2019 05:25:00 0.9 C 4.85 g/m*3 0.9 C 0 km/h
1490 28-03-2019 05:30:00 1 C 4.93 g/m*3 1 C 0 km/h
1491 28-03-2019 05:35:00 1.2 C 5 g/m*3 1.2 C 0 km/h
1492 28-03-2019 05:40:00 1.3 C 5.03 g/m*3 1.3 C 0 km/h
1493 28-03-2019 05:45:00 1.4 C 5.07 g/m*3 1.4 C 0 km/h
1494 28-03-2019 05:50:00 1.4 C 5.07 g/m*3 1.4 C 0 km/h
1495 28-03-2019 05:55:00 1.4 C 5.07 g/m*3 1.4 C 0 km/h
1496 28-03-2019 06:00:00 1.4 C 5.07 g/m*3 1.4 C 0 km/h
1497 28-03-2019 06:05:00 1.4 C 5.07 g/m*3 1.4 C 0 km/h
1498 28-03-2019 06:10:00 1.4 C 5.07 g/m*3 1.4 C 0 km/h
1499 28-03-2019 06:15:00 1.6 C 5.14 g/m*3 1.6 C 0 km/h
1500 28-03-2019 06:20:00 1.6 C 5.14 g/m*3 1.6 C 0 km/h
Sensor: Nr:Datum:Temp:Abs-Feuchte:Windchill:Wind:
Aussen-T/F 1501 28-03-2019 06:25:00 1.6 C 5.14 g/m*3 1.6 C 0 km/h
1502 28-03-2019 06:30:00 1.6 C 5.14 g/m*3 1.6 C 0 km/h
1503 28-03-2019 06:35:00 1.6 C 5.14 g/m*3 1.6 C 0 km/h
1504 28-03-2019 06:40:00 1.6 C 5.14 g/m*3 1.6 C 0 km/h
1505 28-03-2019 06:45:00 1.7 C 5.17 g/m*3 1.7 C 0 km/h
1506 28-03-2019 06:50:00 1.8 C 5.21 g/m*3 1.8 C 0 km/h
1507 28-03-2019 06:55:00 1.8 C 5.21 g/m*3 1.8 C 0 km/h
1508 28-03-2019 07:00:00 1.9 C 5.24 g/m*3 1.9 C 0 km/h
1509 28-03-2019 07:05:00 1.9 C 5.24 g/m*3 1.9 C 0 km/h
1510 28-03-2019 07:10:00 1.9 C 5.24 g/m*3 1.9 C 0 km/h
1511 28-03-2019 07:15:00 2 C 5.28 g/m*3 2 C 0 km/h
1512 28-03-2019 07:20:00 2 C 5.28 g/m*3 2 C 1.6 km/h
1513 28-03-2019 07:25:00 2.1 C 5.31 g/m*3 2.1 C 0 km/h
1514 28-03-2019 07:30:00 2.2 C 5.35 g/m*3 2.2 C 0 km/h
1515 28-03-2019 07:35:00 2.2 C 5.35 g/m*3 2.2 C 1.6 km/h
1516 28-03-2019 07:40:00 2.2 C 5.35 g/m*3 2.2 C 0 km/h
1517 28-03-2019 07:45:00 2.3 C 5.39 g/m*3 2.3 C 0 km/h
1518 28-03-2019 07:50:00 2.3 C 5.39 g/m*3 2.3 C 0 km/h
1519 28-03-2019 07:55:00 2.4 C 5.42 g/m*3 2.4 C 0 km/h
1520 28-03-2019 08:00:00 2.4 C 5.42 g/m*3 2.4 C 0 km/h
1521 28-03-2019 08:05:00 2.6 C 5.5 g/m*3 2.6 C 1.6 km/h
1522 28-03-2019 08:10:00 2.7 C 5.54 g/m*3 2.7 C 1.6 km/h
1523 28-03-2019 08:15:00 2.7 C 5.54 g/m*3 2.7 C 3.2 km/h
1524 28-03-2019 08:20:00 2.7 C 5.54 g/m*3 2.7 C 4.8 km/h
1525 28-03-2019 08:25:00 2.7 C 5.48 g/m*3 2.7 C 4.8 km/h
Sensor: Nr:Datum:Temp:Abs-Feuchte:Windchill:Wind:
Aussen-T/F 1526 28-03-2019 08:30:00 2.8 C 5.51 g/m*3 2.8 C 0 km/h
1527 28-03-2019 08:35:00 2.8 C 5.57 g/m*3 2.8 C 0 km/h
1528 28-03-2019 08:40:00 2.9 C 5.61 g/m*3 2.9 C 0 km/h
1529 28-03-2019 08:45:00 2.9 C 5.55 g/m*3 2.9 C 0 km/h
1530 28-03-2019 08:50:00 3.1 C 5.69 g/m*3 3.1 C 0 km/h
1531 28-03-2019 08:55:00 3.2 C 5.72 g/m*3 3.2 C 0 km/h
1532 28-03-2019 09:00:00 3.3 C 5.7 g/m*3 3.3 C 4.8 km/h
1533 28-03-2019 09:05:00 3.6 C 5.88 g/m*3 3.6 C 4.8 km/h
1534 28-03-2019 09:10:00 3.8 C 5.9 g/m*3 2.21 C 6.4 km/h
1535 28-03-2019 09:15:00 3.9 C 5.94 g/m*3 3.9 C 3.2 km/h
1536 28-03-2019 09:20:00 4.2 C 5.99 g/m*3 4.2 C 1.6 km/h
1537 28-03-2019 09:25:00 4.3 C 6.03 g/m*3 4.3 C 3.2 km/h
1538 28-03-2019 09:30:00 4.5 C 6.05 g/m*3 4.5 C 4.8 km/h
1539 28-03-2019 09:35:00 4.7 C 6.13 g/m*3 4.7 C 3.2 km/h
1540 28-03-2019 09:40:00 4.8 C 6.17 g/m*3 4.8 C 0 km/h
1541 28-03-2019 09:45:00 5.1 C 6.29 g/m*3 5.1 C 0 km/h
1542 28-03-2019 09:50:00 5.3 C 6.31 g/m*3 5.3 C 0 km/h
1543 28-03-2019 09:55:00 5.6 C 6.43 g/m*3 5.6 C 0 km/h
1544 28-03-2019 10:00:00 5.8 C 6.45 g/m*3 5.8 C 0 km/h
1545 28-03-2019 10:05:00 6.1 C 6.5 g/m*3 6.1 C 0 km/h
1546 28-03-2019 10:10:00 6.4 C 6.56 g/m*3 6.4 C 0 km/h
1547 28-03-2019 10:15:00 6.8 C 6.65 g/m*3 6.8 C 0 km/h
1548 28-03-2019 10:20:00 7 C 6.66 g/m*3 7 C 1.6 km/h
1549 28-03-2019 10:25:00 7.3 C 6.72 g/m*3 7.3 C 1.6 km/h
1550 28-03-2019 10:30:00 7.5 C 6.72 g/m*3 7.5 C 0 km/h
Sensor: Nr:Datum:Temp:Abs-Feuchte:Windchill:Wind:
Aussen-T/F 1551 28-03-2019 10:35:00 7.7 C 6.73 g/m*3 7.7 C 0 km/h
1552 28-03-2019 10:40:00 7.9 C 6.82 g/m*3 7.9 C 0 km/h
1553 28-03-2019 10:45:00 8.1 C 6.74 g/m*3 8.1 C 0 km/h
1554 28-03-2019 10:50:00 8.4 C 6.79 g/m*3 8.4 C 0 km/h
1555 28-03-2019 10:55:00 8.7 C 6.92 g/m*3 8.7 C 1.6 km/h
1556 28-03-2019 11:00:00 8.9 C 6.92 g/m*3 8.9 C 4.8 km/h
1557 28-03-2019 11:05:00 9.2 C 6.97 g/m*3 9.2 C 3.2 km/h
1558 28-03-2019 11:10:00 9.5 C 7.1 g/m*3 9.5 C 3.2 km/h
1559 28-03-2019 11:15:00 9.7 C 7.19 g/m*3 9.7 C 3.2 km/h
1560 28-03-2019 11:20:00 9.9 C 7.1 g/m*3 9.9 C 1.6 km/h
1561 28-03-2019 11:25:00 10.2 C 7.23 g/m*3 10.2 C 3.2 km/h
1562 28-03-2019 11:30:00 10.4 C 7.32 g/m*3 10.4 C 1.6 km/h
1563 28-03-2019 11:35:00 10.6 C 7.42 g/m*3 10.6 C 1.6 km/h
1564 28-03-2019 11:40:00 10.9 C 7.46 g/m*3 10.9 C 1.6 km/h
1565 28-03-2019 11:45:00 11.2 C 7.6 g/m*3 11.2 C 3.2 km/h
1566 28-03-2019 11:50:00 11.6 C 7.59 g/m*3 11.6 C 6.4 km/h
1567 28-03-2019 11:55:00 11.8 C 7.37 g/m*3 11.8 C 8.1 km/h
1568 28-03-2019 12:00:00 12 C 7.35 g/m*3 12 C 6.4 km/h
1569 28-03-2019 12:05:00 12.2 C 7.34 g/m*3 12.2 C 11.3 km/h
1570 28-03-2019 12:10:00 12.3 C 7.28 g/m*3 12.3 C 8.1 km/h
1571 28-03-2019 12:15:00 12.5 C 7.37 g/m*3 12.5 C 8.1 km/h
1572 28-03-2019 12:20:00 12.6 C 7.3 g/m*3 12.6 C 8.1 km/h
1573 28-03-2019 12:25:00 12.6 C 7.3 g/m*3 12.6 C 6.4 km/h
1574 28-03-2019 12:30:00 12.6 C 7.3 g/m*3 12.6 C 4.8 km/h
1575 28-03-2019 12:35:00 12.6 C 7.19 g/m*3 12.6 C 3.2 km/h
Sensor: Nr:Datum:Temp:Abs-Feuchte:Windchill:Wind:
Aussen-T/F 1576 28-03-2019 12:40:00 12.7 C 7.46 g/m*3 12.7 C 9.7 km/h
1577 28-03-2019 12:45:00 12.7 C 7.46 g/m*3 12.7 C 8.1 km/h
1578 28-03-2019 12:50:00 12.8 C 7.62 g/m*3 12.8 C 11.3 km/h
1579 28-03-2019 12:55:00 12.8 C 7.39 g/m*3 12.8 C 14.5 km/h
1580 28-03-2019 13:00:00 12.7 C 7.46 g/m*3 12.7 C 9.7 km/h
1581 28-03-2019 13:05:00 12.8 C 7.5 g/m*3 12.8 C 9.7 km/h
1582 28-03-2019 13:10:00 12.9 C 7.55 g/m*3 12.9 C 6.4 km/h
1583 28-03-2019 13:15:00 13.2 C 7.69 g/m*3 13.2 C 8.1 km/h
1584 28-03-2019 13:20:00 13.4 C 7.67 g/m*3 13.4 C 12.9 km/h
1585 28-03-2019 13:25:00 13.4 C 7.44 g/m*3 13.4 C 12.9 km/h
1586 28-03-2019 13:30:00 13.4 C 7.56 g/m*3 13.4 C 9.7 km/h
1587 28-03-2019 13:35:00 13.2 C 7.35 g/m*3 13.2 C 8.1 km/h
1588 28-03-2019 13:40:00 13.2 C 7.35 g/m*3 13.2 C 3.2 km/h
1589 28-03-2019 13:45:00 13.2 C 7.81 g/m*3 13.2 C 0 km/h
1590 28-03-2019 13:50:00 13.5 C 7.84 g/m*3 13.5 C 6.4 km/h
1591 28-03-2019 13:55:00 13.7 C 7.58 g/m*3 13.7 C 12.9 km/h
1592 28-03-2019 14:00:00 13.6 C 7.41 g/m*3 13.6 C 12.9 km/h
1593 28-03-2019 14:05:00 13.5 C 7.49 g/m*3 13.5 C 14.5 km/h
1594 28-03-2019 14:10:00 13.5 C 7.49 g/m*3 13.5 C 8.1 km/h
1595 28-03-2019 14:15:00 13.4 C 7.44 g/m*3 13.4 C 11.3 km/h
1596 28-03-2019 14:20:00 13.4 C 7.56 g/m*3 13.4 C 12.9 km/h
1597 28-03-2019 14:25:00 13.4 C 7.44 g/m*3 13.4 C 4.8 km/h
1598 28-03-2019 14:30:00 13.6 C 7.65 g/m*3 13.6 C 8.1 km/h
1599 28-03-2019 14:35:00 13.7 C 7.7 g/m*3 13.7 C 11.3 km/h
1600 28-03-2019 14:40:00 13.7 C 7.46 g/m*3 13.7 C 14.5 km/h
Sensor: Nr:Datum:Temp:Abs-Feuchte:Windchill:Wind:
Aussen-T/F 1601 28-03-2019 14:45:00 13.5 C 7.49 g/m*3 13.5 C 11.3 km/h
1602 28-03-2019 14:50:00 13.4 C 7.56 g/m*3 13.4 C 11.3 km/h
1603 28-03-2019 14:55:00 13.3 C 7.51 g/m*3 13.3 C 8.1 km/h
1604 28-03-2019 15:00:00 13.3 C 7.51 g/m*3 13.3 C 8.1 km/h
1605 28-03-2019 15:05:00 13.3 C 7.39 g/m*3 13.3 C 11.3 km/h
1606 28-03-2019 15:10:00 13.3 C 7.39 g/m*3 13.3 C 11.3 km/h
1607 28-03-2019 15:15:00 13.4 C 7.44 g/m*3 13.4 C 8.1 km/h
1608 28-03-2019 15:20:00 13.4 C 7.44 g/m*3 13.4 C 6.4 km/h
1609 28-03-2019 15:25:00 13.4 C 7.44 g/m*3 13.4 C 6.4 km/h
1610 28-03-2019 15:30:00 13.4 C 7.32 g/m*3 13.4 C 9.7 km/h
1611 28-03-2019 15:35:00 13.4 C 7.32 g/m*3 13.4 C 8.1 km/h
1612 28-03-2019 15:40:00 13.4 C 7.32 g/m*3 13.4 C 4.8 km/h
1613 28-03-2019 15:45:00 13.5 C 7.49 g/m*3 13.5 C 9.7 km/h
1614 28-03-2019 15:50:00 13.5 C 7.37 g/m*3 13.5 C 9.7 km/h
1615 28-03-2019 15:55:00 13.5 C 7.37 g/m*3 13.5 C 9.7 km/h
1616 28-03-2019 16:00:00 13.5 C 7.37 g/m*3 13.5 C 11.3 km/h
1617 28-03-2019 16:05:00 13.5 C 7.37 g/m*3 13.5 C 8.1 km/h
1618 28-03-2019 16:10:00 13.5 C 7.37 g/m*3 13.5 C 8.1 km/h
1619 28-03-2019 16:15:00 13.6 C 7.3 g/m*3 13.6 C 12.9 km/h
1620 28-03-2019 16:20:00 13.5 C 7.25 g/m*3 13.5 C 9.7 km/h
1621 28-03-2019 16:25:00 13.5 C 7.37 g/m*3 13.5 C 6.4 km/h
1622 28-03-2019 16:30:00 13.5 C 7.25 g/m*3 13.5 C 8.1 km/h
1623 28-03-2019 16:35:00 13.5 C 7.37 g/m*3 13.5 C 6.4 km/h
1624 28-03-2019 16:40:00 13.4 C 7.32 g/m*3 13.4 C 8.1 km/h
1625 28-03-2019 16:45:00 13.4 C 7.32 g/m*3 13.4 C 8.1 km/h
Sensor: Nr:Datum:Temp:Abs-Feuchte:Windchill:Wind:
Aussen-T/F 1626 28-03-2019 16:50:00 13.3 C 7.28 g/m*3 13.3 C 11.3 km/h
1627 28-03-2019 16:55:00 13.3 C 7.28 g/m*3 13.3 C 9.7 km/h
1628 28-03-2019 17:00:00 13.3 C 7.28 g/m*3 13.3 C 9.7 km/h
1629 28-03-2019 17:05:00 13.3 C 7.39 g/m*3 13.3 C 6.4 km/h
1630 28-03-2019 17:10:00 13.3 C 7.28 g/m*3 13.3 C 6.4 km/h
1631 28-03-2019 17:15:00 13.3 C 7.28 g/m*3 13.3 C 8.1 km/h
1632 28-03-2019 17:20:00 13.2 C 7.23 g/m*3 13.2 C 8.1 km/h
1633 28-03-2019 17:25:00 13.2 C 7.23 g/m*3 13.2 C 8.1 km/h
1634 28-03-2019 17:30:00 13.2 C 7.35 g/m*3 13.2 C 8.1 km/h
1635 28-03-2019 17:35:00 13.2 C 7.35 g/m*3 13.2 C 4.8 km/h
1636 28-03-2019 17:40:00 13.1 C 7.3 g/m*3 13.1 C 4.8 km/h
1637 28-03-2019 17:45:00 13.1 C 7.42 g/m*3 13.1 C 4.8 km/h
1638 28-03-2019 17:50:00 13.1 C 7.3 g/m*3 13.1 C 6.4 km/h
1639 28-03-2019 17:55:00 13 C 7.37 g/m*3 13 C 4.8 km/h
1640 28-03-2019 18:00:00 13 C 7.71 g/m*3 13 C 1.6 km/h
1641 28-03-2019 18:05:00 12.9 C 7.44 g/m*3 12.9 C 3.2 km/h
1642 28-03-2019 18:10:00 12.8 C 7.5 g/m*3 12.8 C 6.4 km/h
1643 28-03-2019 18:15:00 12.8 C 7.5 g/m*3 12.8 C 3.2 km/h
1644 28-03-2019 18:20:00 12.7 C 7.79 g/m*3 12.7 C 4.8 km/h
1645 28-03-2019 18:25:00 12.6 C 7.74 g/m*3 12.6 C 3.2 km/h
1646 28-03-2019 18:30:00 12.3 C 7.71 g/m*3 12.3 C 1.6 km/h
1647 28-03-2019 18:35:00 12.1 C 7.72 g/m*3 12.1 C 1.6 km/h
1648 28-03-2019 18:40:00 11.7 C 7.53 g/m*3 11.7 C 1.6 km/h
1649 28-03-2019 18:45:00 11.3 C 7.45 g/m*3 11.3 C 0 km/h
1650 28-03-2019 18:50:00 11 C 7.41 g/m*3 11 C 0 km/h
Sensor: Nr:Datum:Temp:Abs-Feuchte:Windchill:Wind:
Aussen-T/F 1651 28-03-2019 18:55:00 10.8 C 7.41 g/m*3 10.8 C 3.2 km/h
1652 28-03-2019 19:00:00 10.5 C 7.37 g/m*3 10.5 C 4.8 km/h
1653 28-03-2019 19:05:00 10.4 C 7.42 g/m*3 10.4 C 0 km/h
1654 28-03-2019 19:10:00 10.3 C 7.47 g/m*3 10.3 C 0 km/h
1655 28-03-2019 19:15:00 10.3 C 7.47 g/m*3 10.3 C 0 km/h
1656 28-03-2019 19:20:00 10.3 C 7.57 g/m*3 10.3 C 0 km/h
1657 28-03-2019 19:25:00 10.3 C 7.57 g/m*3 10.3 C 1.6 km/h
1658 28-03-2019 19:30:00 10.3 C 7.57 g/m*3 10.3 C 1.6 km/h
1659 28-03-2019 19:35:00 10.3 C 7.57 g/m*3 10.3 C 0 km/h
1660 28-03-2019 19:40:00 10.4 C 7.61 g/m*3 10.4 C 0 km/h
1661 28-03-2019 19:45:00 10.4 C 7.52 g/m*3 10.4 C 0 km/h
1662 28-03-2019 19:50:00 10.4 C 7.52 g/m*3 10.4 C 0 km/h
1663 28-03-2019 19:55:00 10.5 C 7.57 g/m*3 10.5 C 3.2 km/h
1664 28-03-2019 20:00:00 10.5 C 7.57 g/m*3 10.5 C 1.6 km/h
1665 28-03-2019 20:05:00 10.5 C 7.57 g/m*3 10.5 C 1.6 km/h
1666 28-03-2019 20:10:00 10.4 C 7.52 g/m*3 10.4 C 3.2 km/h
1667 28-03-2019 20:15:00 10.4 C 7.52 g/m*3 10.4 C 0 km/h
1668 28-03-2019 20:20:00 10.4 C 7.52 g/m*3 10.4 C 0 km/h
1669 28-03-2019 20:25:00 10.3 C 7.47 g/m*3 10.3 C 0 km/h
1670 28-03-2019 20:30:00 10.2 C 7.42 g/m*3 10.2 C 0 km/h
1671 28-03-2019 20:35:00 10.1 C 7.38 g/m*3 10.1 C 0 km/h
1672 28-03-2019 20:40:00 10.1 C 7.47 g/m*3 10.1 C 0 km/h
1673 28-03-2019 20:45:00 10 C 7.42 g/m*3 10 C 0 km/h
1674 28-03-2019 20:50:00 10 C 7.52 g/m*3 10 C 0 km/h
1675 28-03-2019 20:55:00 9.9 C 7.47 g/m*3 9.9 C 0 km/h
Sensor: Nr:Datum:Temp:Abs-Feuchte:Windchill:Wind:
Aussen-T/F 1676 28-03-2019 21:00:00 9.9 C 7.47 g/m*3 9.9 C 0 km/h
1677 28-03-2019 21:05:00 9.9 C 7.47 g/m*3 9.9 C 0 km/h
1678 28-03-2019 21:10:00 9.9 C 7.47 g/m*3 9.9 C 0 km/h
1679 28-03-2019 21:15:00 9.8 C 7.42 g/m*3 9.8 C 0 km/h
1680 28-03-2019 21:20:00 9.8 C 7.42 g/m*3 9.8 C 0 km/h
1681 28-03-2019 21:25:00 9.7 C 7.38 g/m*3 9.7 C 0 km/h
1682 28-03-2019 21:30:00 9.6 C 7.24 g/m*3 9.6 C 0 km/h
1683 28-03-2019 21:35:00 9.4 C 7.15 g/m*3 9.4 C 0 km/h
1684 28-03-2019 21:40:00 9.3 C 7.1 g/m*3 9.3 C 0 km/h
1685 28-03-2019 21:45:00 9.1 C 7.1 g/m*3 9.1 C 0 km/h
1686 28-03-2019 21:50:00 8.9 C 7.01 g/m*3 8.9 C 0 km/h
1687 28-03-2019 21:55:00 8.8 C 7.05 g/m*3 8.8 C 0 km/h
1688 28-03-2019 22:00:00 8.6 C 6.96 g/m*3 8.6 C 3.2 km/h
1689 28-03-2019 22:05:00 8.4 C 6.96 g/m*3 8.4 C 1.6 km/h
1690 28-03-2019 22:10:00 8.3 C 6.91 g/m*3 8.3 C 1.6 km/h
1691 28-03-2019 22:15:00 8.2 C 6.95 g/m*3 8.2 C 0 km/h
1692 28-03-2019 22:20:00 8.1 C 6.91 g/m*3 8.1 C 0 km/h
1693 28-03-2019 22:25:00 7.9 C 6.9 g/m*3 7.9 C 0 km/h
1694 28-03-2019 22:30:00 7.8 C 6.86 g/m*3 7.8 C 0 km/h
1695 28-03-2019 22:35:00 7.7 C 6.89 g/m*3 7.7 C 0 km/h
1696 28-03-2019 22:40:00 7.6 C 6.85 g/m*3 7.6 C 0 km/h
1697 28-03-2019 22:45:00 7.4 C 6.76 g/m*3 7.4 C 0 km/h
1698 28-03-2019 22:50:00 7.3 C 6.79 g/m*3 7.3 C 0 km/h
1699 28-03-2019 22:55:00 7.3 C 6.79 g/m*3 7.3 C 0 km/h
1700 28-03-2019 23:00:00 7.2 C 6.75 g/m*3 7.2 C 0 km/h
Sensor: Nr:Datum:Temp:Abs-Feuchte:Windchill:Wind:
Aussen-T/F 1701 28-03-2019 23:05:00 7 C 6.66 g/m*3 7 C 0 km/h
1702 28-03-2019 23:10:00 6.8 C 6.58 g/m*3 6.8 C 0 km/h
1703 28-03-2019 23:15:00 6.5 C 6.45 g/m*3 6.5 C 0 km/h
1704 28-03-2019 23:20:00 6.3 C 6.51 g/m*3 6.3 C 0 km/h
1705 28-03-2019 23:25:00 6.3 C 6.51 g/m*3 6.3 C 0 km/h
1706 28-03-2019 23:30:00 6.2 C 6.47 g/m*3 6.2 C 0 km/h
1707 28-03-2019 23:35:00 6.1 C 6.43 g/m*3 6.1 C 0 km/h
1708 28-03-2019 23:40:00 5.9 C 6.42 g/m*3 5.9 C 0 km/h
1709 28-03-2019 23:45:00 5.8 C 6.38 g/m*3 5.8 C 0 km/h
1710 28-03-2019 23:50:00 5.8 C 6.45 g/m*3 5.8 C 0 km/h
1711 28-03-2019 23:55:00 5.7 C 6.4 g/m*3 5.7 C 0 km/h
1712 29-03-2019 00:00:00 5.7 C 6.4 g/m*3 5.7 C 0 km/h
1713 29-03-2019 00:05:00 5.6 C 6.36 g/m*3 5.6 C 0 km/h
1714 29-03-2019 00:10:00 5.6 C 6.36 g/m*3 5.6 C 0 km/h
1715 29-03-2019 00:15:00 5.4 C 6.28 g/m*3 5.4 C 0 km/h
1716 29-03-2019 00:20:00 5.2 C 6.2 g/m*3 5.2 C 0 km/h
1717 29-03-2019 00:25:00 5.3 C 6.31 g/m*3 5.3 C 0 km/h
1718 29-03-2019 00:30:00 5.3 C 6.31 g/m*3 5.3 C 0 km/h
1719 29-03-2019 00:35:00 5.2 C 6.27 g/m*3 5.2 C 0 km/h
1720 29-03-2019 00:40:00 5.2 C 6.27 g/m*3 5.2 C 0 km/h
1721 29-03-2019 00:45:00 5.1 C 6.22 g/m*3 5.1 C 0 km/h
1722 29-03-2019 00:50:00 5 C 6.18 g/m*3 5 C 0 km/h
1723 29-03-2019 00:55:00 4.8 C 6.1 g/m*3 4.8 C 0 km/h
1724 29-03-2019 01:00:00 4.7 C 6.06 g/m*3 4.7 C 0 km/h
1725 29-03-2019 01:05:00 4.6 C 6.09 g/m*3 4.6 C 0 km/h
Sensor: Nr:Datum:Temp:Abs-Feuchte:Windchill:Wind:
Aussen-T/F 1726 29-03-2019 01:10:00 4.6 C 6.09 g/m*3 4.6 C 0 km/h
1727 29-03-2019 01:15:00 4.5 C 6.05 g/m*3 4.5 C 0 km/h
1728 29-03-2019 01:20:00 4.4 C 6.01 g/m*3 4.4 C 0 km/h
1729 29-03-2019 01:25:00 4.3 C 5.97 g/m*3 4.3 C 0 km/h
1730 29-03-2019 01:30:00 4.4 C 6.07 g/m*3 4.4 C 0 km/h
1731 29-03-2019 01:35:00 4.3 C 6.03 g/m*3 4.3 C 0 km/h
1732 29-03-2019 01:40:00 4.2 C 5.93 g/m*3 4.2 C 0 km/h
1733 29-03-2019 01:45:00 4.1 C 5.89 g/m*3 4.1 C 0 km/h
1734 29-03-2019 01:50:00 4 C 5.91 g/m*3 4 C 0 km/h
1735 29-03-2019 01:55:00 4.1 C 5.95 g/m*3 4.1 C 0 km/h
1736 29-03-2019 02:00:00 4.1 C 5.95 g/m*3 4.1 C 0 km/h
1737 29-03-2019 02:05:00 3.9 C 5.87 g/m*3 3.9 C 0 km/h
1738 29-03-2019 02:10:00 4 C 5.98 g/m*3 4 C 0 km/h
1739 29-03-2019 02:15:00 4 C 5.91 g/m*3 4 C 0 km/h
1740 29-03-2019 02:20:00 3.9 C 5.87 g/m*3 3.9 C 0 km/h
1741 29-03-2019 02:25:00 3.8 C 5.83 g/m*3 3.8 C 0 km/h
1742 29-03-2019 02:30:00 3.8 C 5.83 g/m*3 3.8 C 0 km/h
1743 29-03-2019 02:35:00 3.9 C 5.94 g/m*3 3.9 C 0 km/h
1744 29-03-2019 02:40:00 3.8 C 5.9 g/m*3 3.8 C 0 km/h
1745 29-03-2019 02:45:00 3.8 C 5.9 g/m*3 3.8 C 0 km/h
1746 29-03-2019 02:50:00 3.7 C 5.86 g/m*3 3.7 C 0 km/h
1747 29-03-2019 02:55:00 3.6 C 5.82 g/m*3 3.6 C 0 km/h
1748 29-03-2019 03:00:00 3.6 C 5.82 g/m*3 3.6 C 0 km/h
1749 29-03-2019 03:05:00 3.5 C 5.78 g/m*3 3.5 C 0 km/h
1750 29-03-2019 03:10:00 3.3 C 5.7 g/m*3 3.3 C 0 km/h
Sensor: Nr:Datum:Temp:Abs-Feuchte:Windchill:Wind:
Aussen-T/F 1751 29-03-2019 03:15:00 3.2 C 5.66 g/m*3 3.2 C 0 km/h
1752 29-03-2019 03:20:00 3.1 C 5.63 g/m*3 3.1 C 0 km/h
1753 29-03-2019 03:25:00 2.9 C 5.55 g/m*3 2.9 C 0 km/h
1754 29-03-2019 03:30:00 2.8 C 5.51 g/m*3 2.8 C 0 km/h
1755 29-03-2019 03:35:00 2.8 C 5.51 g/m*3 2.8 C 0 km/h
1756 29-03-2019 03:40:00 2.8 C 5.51 g/m*3 2.8 C 0 km/h
1757 29-03-2019 03:45:00 2.9 C 5.55 g/m*3 2.9 C 0 km/h
1758 29-03-2019 03:50:00 2.9 C 5.55 g/m*3 2.9 C 0 km/h
1759 29-03-2019 03:55:00 2.9 C 5.55 g/m*3 2.9 C 0 km/h
1760 29-03-2019 04:00:00 2.9 C 5.61 g/m*3 2.9 C 0 km/h
1761 29-03-2019 04:05:00 2.9 C 5.61 g/m*3 2.9 C 0 km/h
1762 29-03-2019 04:10:00 3 C 5.65 g/m*3 3 C 0 km/h
1763 29-03-2019 04:15:00 3 C 5.65 g/m*3 3 C 0 km/h
1764 29-03-2019 04:20:00 2.9 C 5.61 g/m*3 2.9 C 0 km/h
1765 29-03-2019 04:25:00 2.8 C 5.57 g/m*3 2.8 C 0 km/h
1766 29-03-2019 04:30:00 2.8 C 5.57 g/m*3 2.8 C 0 km/h
1767 29-03-2019 04:35:00 2.9 C 5.61 g/m*3 2.9 C 0 km/h
1768 29-03-2019 04:40:00 3.1 C 5.69 g/m*3 3.1 C 0 km/h
1769 29-03-2019 04:45:00 2.9 C 5.61 g/m*3 2.9 C 0 km/h
1770 29-03-2019 04:50:00 2.8 C 5.57 g/m*3 2.8 C 0 km/h
1771 29-03-2019 04:55:00 2.7 C 5.54 g/m*3 2.7 C 0 km/h
1772 29-03-2019 05:00:00 2.6 C 5.5 g/m*3 2.6 C 0 km/h
1773 29-03-2019 05:05:00 2.5 C 5.46 g/m*3 2.5 C 0 km/h
1774 29-03-2019 05:10:00 2.3 C 5.39 g/m*3 2.3 C 0 km/h
1775 29-03-2019 05:15:00 2.3 C 5.39 g/m*3 2.3 C 0 km/h
Sensor: Nr:Datum:Temp:Abs-Feuchte:Windchill:Wind:
Aussen-T/F 1776 29-03-2019 05:20:00 2.3 C 5.39 g/m*3 2.3 C 0 km/h
1777 29-03-2019 05:25:00 2.2 C 5.35 g/m*3 2.2 C 0 km/h
1778 29-03-2019 05:30:00 2.1 C 5.31 g/m*3 2.1 C 0 km/h
1779 29-03-2019 05:35:00 2.2 C 5.35 g/m*3 2.2 C 0 km/h
1780 29-03-2019 05:40:00 2.1 C 5.31 g/m*3 2.1 C 0 km/h
1781 29-03-2019 05:45:00 1.9 C 5.24 g/m*3 1.9 C 0 km/h
1782 29-03-2019 05:50:00 1.8 C 5.21 g/m*3 1.8 C 0 km/h
1783 29-03-2019 05:55:00 1.9 C 5.24 g/m*3 1.9 C 0 km/h
1784 29-03-2019 06:00:00 2 C 5.28 g/m*3 2 C 0 km/h
1785 29-03-2019 06:05:00 2.1 C 5.31 g/m*3 2.1 C 0 km/h
1786 29-03-2019 06:10:00 2.1 C 5.31 g/m*3 2.1 C 0 km/h
1787 29-03-2019 06:15:00 2.1 C 5.31 g/m*3 2.1 C 0 km/h
1788 29-03-2019 06:20:00 2 C 5.28 g/m*3 2 C 0 km/h
1789 29-03-2019 06:25:00 2 C 5.28 g/m*3 2 C 0 km/h
1790 29-03-2019 06:30:00 2.1 C 5.31 g/m*3 2.1 C 0 km/h
1791 29-03-2019 06:35:00 2.1 C 5.31 g/m*3 2.1 C 0 km/h
1792 29-03-2019 06:40:00 2.1 C 5.31 g/m*3 2.1 C 0 km/h
1793 29-03-2019 06:45:00 2.1 C 5.31 g/m*3 2.1 C 0 km/h
1794 29-03-2019 06:50:00 2.1 C 5.31 g/m*3 2.1 C 0 km/h
1795 29-03-2019 06:55:00 2.1 C 5.31 g/m*3 2.1 C 0 km/h
1796 29-03-2019 07:00:00 2.1 C 5.37 g/m*3 2.1 C 0 km/h
1797 29-03-2019 07:05:00 2.1 C 5.31 g/m*3 2.1 C 0 km/h
1798 29-03-2019 07:10:00 2 C 5.28 g/m*3 2 C 0 km/h
1799 29-03-2019 07:15:00 2 C 5.33 g/m*3 2 C 0 km/h
1800 29-03-2019 07:20:00 2 C 5.33 g/m*3 2 C 0 km/h
Sensor: Nr:Datum:Temp:Abs-Feuchte:Windchill:Wind:
Aussen-T/F 1801 29-03-2019 07:25:00 2.1 C 5.37 g/m*3 2.1 C 0 km/h
1802 29-03-2019 07:30:00 2.1 C 5.37 g/m*3 2.1 C 0 km/h
1803 29-03-2019 07:35:00 2.2 C 5.41 g/m*3 2.2 C 0 km/h
1804 29-03-2019 07:40:00 2.3 C 5.44 g/m*3 2.3 C 0 km/h
1805 29-03-2019 07:45:00 2.4 C 5.48 g/m*3 2.4 C 0 km/h
1806 29-03-2019 07:50:00 2.4 C 5.48 g/m*3 2.4 C 0 km/h
1807 29-03-2019 07:55:00 2.4 C 5.48 g/m*3 2.4 C 0 km/h
1808 29-03-2019 08:00:00 2.4 C 5.48 g/m*3 2.4 C 0 km/h
1809 29-03-2019 08:05:00 2.5 C 5.52 g/m*3 2.5 C 0 km/h
1810 29-03-2019 08:10:00 2.6 C 5.56 g/m*3 2.6 C 0 km/h
1811 29-03-2019 08:15:00 2.7 C 5.59 g/m*3 2.7 C 0 km/h
1812 29-03-2019 08:20:00 2.8 C 5.63 g/m*3 2.8 C 0 km/h
1813 29-03-2019 08:25:00 2.8 C 5.63 g/m*3 2.8 C 0 km/h
1814 29-03-2019 08:30:00 2.9 C 5.67 g/m*3 2.9 C 0 km/h
1815 29-03-2019 08:35:00 3.1 C 5.75 g/m*3 3.1 C 0 km/h
1816 29-03-2019 08:40:00 3.2 C 5.79 g/m*3 3.2 C 0 km/h
1817 29-03-2019 08:45:00 3.3 C 5.82 g/m*3 3.3 C 0 km/h
1818 29-03-2019 08:50:00 3.4 C 5.92 g/m*3 3.4 C 0 km/h
1819 29-03-2019 08:55:00 3.5 C 5.9 g/m*3 3.5 C 0 km/h
1820 29-03-2019 09:00:00 3.7 C 5.98 g/m*3 3.7 C 0 km/h
1821 29-03-2019 09:05:00 3.9 C 6.13 g/m*3 3.9 C 0 km/h
1822 29-03-2019 09:10:00 4.1 C 6.21 g/m*3 4.1 C 0 km/h
1823 29-03-2019 09:15:00 4.3 C 6.29 g/m*3 4.3 C 0 km/h
1824 29-03-2019 09:20:00 4.5 C 6.38 g/m*3 4.5 C 0 km/h
1825 29-03-2019 09:25:00 4.7 C 6.46 g/m*3 4.7 C 0 km/h
Sensor: Nr:Datum:Temp:Abs-Feuchte:Windchill:Wind:
Aussen-T/F 1826 29-03-2019 09:30:00 5 C 6.59 g/m*3 5 C 0 km/h
1827 29-03-2019 09:35:00 5.3 C 6.72 g/m*3 5.3 C 0 km/h
1828 29-03-2019 09:40:00 5.5 C 6.81 g/m*3 5.5 C 0 km/h
1829 29-03-2019 09:45:00 5.8 C 6.95 g/m*3 5.8 C 0 km/h
1830 29-03-2019 09:50:00 6.1 C 7.09 g/m*3 6.1 C 0 km/h
1831 29-03-2019 09:55:00 6.4 C 7.23 g/m*3 6.4 C 0 km/h
1832 29-03-2019 10:00:00 6.8 C 7.42 g/m*3 6.8 C 0 km/h
1833 29-03-2019 10:05:00 7 C 7.52 g/m*3 7 C 0 km/h
1834 29-03-2019 10:10:00 7.2 C 7.61 g/m*3 7.2 C 0 km/h
1835 29-03-2019 10:15:00 7.4 C 7.71 g/m*3 7.4 C 0 km/h
1836 29-03-2019 10:20:00 7.6 C 7.81 g/m*3 7.6 C 0 km/h
1837 29-03-2019 10:25:00 7.8 C 7.92 g/m*3 7.8 C 0 km/h
1838 29-03-2019 10:30:00 8.1 C 8.07 g/m*3 8.1 C 0 km/h
1839 29-03-2019 10:35:00 8.4 C 8.14 g/m*3 8.4 C 0 km/h
1840 29-03-2019 10:40:00 8.7 C 8.3 g/m*3 8.7 C 0 km/h
1841 29-03-2019 10:45:00 9 C 8.38 g/m*3 9 C 1.6 km/h
1842 29-03-2019 10:50:00 9.3 C 8.36 g/m*3 9.3 C 1.6 km/h
1843 29-03-2019 10:55:00 9.8 C 8.54 g/m*3 9.8 C 3.2 km/h
1844 29-03-2019 11:00:00 10.2 C 8.56 g/m*3 9.6 C 6.4 km/h
1845 29-03-2019 11:05:00 10.8 C 8.6 g/m*3 9.93 C 8.1 km/h
1846 29-03-2019 11:10:00 11.4 C 8.52 g/m*3 11.4 C 11.3 km/h
1847 29-03-2019 11:15:00 11.8 C 8.53 g/m*3 11.8 C 6.4 km/h
1848 29-03-2019 11:20:00 12.1 C 8.58 g/m*3 12.1 C 6.4 km/h
1849 29-03-2019 11:25:00 12.6 C 8.41 g/m*3 12.6 C 12.9 km/h
1850 29-03-2019 11:30:00 12.9 C 8.68 g/m*3 12.9 C 6.4 km/h
Sensor: Nr:Datum:Temp:Abs-Feuchte:Windchill:Wind:
Aussen-T/F 1851 29-03-2019 11:35:00 13.1 C 8.56 g/m*3 13.1 C 4.8 km/h
1852 29-03-2019 11:40:00 13.3 C 8.43 g/m*3 13.3 C 9.7 km/h
1853 29-03-2019 11:45:00 13.7 C 8.29 g/m*3 13.7 C 16.1 km/h
1854 29-03-2019 11:50:00 13.9 C 8.63 g/m*3 13.9 C 16.1 km/h
1855 29-03-2019 11:55:00 14 C 8.32 g/m*3 14 C 12.9 km/h
1856 29-03-2019 12:00:00 14.2 C 8.43 g/m*3 14.2 C 9.7 km/h
1857 29-03-2019 12:05:00 14.2 C 8.3 g/m*3 14.2 C 11.3 km/h
1858 29-03-2019 12:10:00 14.2 C 8.3 g/m*3 14.2 C 8.1 km/h
1859 29-03-2019 12:15:00 14.2 C 8.18 g/m*3 14.2 C 9.7 km/h
1860 29-03-2019 12:20:00 14.3 C 8.23 g/m*3 14.3 C 4.8 km/h
1861 29-03-2019 12:25:00 14.3 C 8.23 g/m*3 14.3 C 4.8 km/h
1862 29-03-2019 12:30:00 14.5 C 8.21 g/m*3 14.5 C 6.4 km/h
1863 29-03-2019 12:35:00 14.7 C 8.31 g/m*3 14.7 C 9.7 km/h
1864 29-03-2019 12:40:00 14.7 C 8.31 g/m*3 14.7 C 11.3 km/h
1865 29-03-2019 12:45:00 14.7 C 8.31 g/m*3 14.7 C 9.7 km/h
1866 29-03-2019 12:50:00 14.8 C 8.36 g/m*3 14.8 C 6.4 km/h
1867 29-03-2019 12:55:00 14.9 C 8.28 g/m*3 14.9 C 9.7 km/h
1868 29-03-2019 13:00:00 15 C 8.33 g/m*3 15 C 1.6 km/h
1869 29-03-2019 13:05:00 15.3 C 8.36 g/m*3 15.3 C 9.7 km/h
1870 29-03-2019 13:10:00 15.6 C 8.11 g/m*3 15.6 C 14.5 km/h
1871 29-03-2019 13:15:00 15.9 C 8.13 g/m*3 15.9 C 11.3 km/h
1872 29-03-2019 13:20:00 16 C 8.04 g/m*3 16 C 9.7 km/h
1873 29-03-2019 13:25:00 16 C 8.31 g/m*3 16 C 11.3 km/h
1874 29-03-2019 13:30:00 16 C 8.17 g/m*3 16 C 8.1 km/h
1875 29-03-2019 13:35:00 16.1 C 8.09 g/m*3 16.1 C 9.7 km/h
Sensor: Nr:Datum:Temp:Abs-Feuchte:Windchill:Wind:
Aussen-T/F 1876 29-03-2019 13:40:00 16.2 C 8 g/m*3 16.2 C 9.7 km/h
1877 29-03-2019 13:45:00 16.3 C 7.91 g/m*3 16.3 C 16.1 km/h
1878 29-03-2019 13:50:00 16.3 C 8.19 g/m*3 16.3 C 9.7 km/h
1879 29-03-2019 13:55:00 16.5 C 8 g/m*3 16.5 C 11.3 km/h
1880 29-03-2019 14:00:00 16.6 C 7.91 g/m*3 16.6 C 9.7 km/h
1881 29-03-2019 14:05:00 16.7 C 7.96 g/m*3 16.7 C 8.1 km/h
1882 29-03-2019 14:10:00 16.7 C 8.1 g/m*3 16.7 C 9.7 km/h
1883 29-03-2019 14:15:00 16.8 C 8.15 g/m*3 16.8 C 11.3 km/h
1884 29-03-2019 14:20:00 16.9 C 7.77 g/m*3 16.9 C 11.3 km/h
1885 29-03-2019 14:25:00 16.8 C 7.72 g/m*3 16.8 C 14.5 km/h
1886 29-03-2019 14:30:00 16.8 C 7.72 g/m*3 16.8 C 12.9 km/h
1887 29-03-2019 14:35:00 16.8 C 7.86 g/m*3 16.8 C 12.9 km/h
1888 29-03-2019 14:40:00 16.9 C 8.05 g/m*3 16.9 C 4.8 km/h
1889 29-03-2019 14:45:00 17 C 7.96 g/m*3 17 C 11.3 km/h
1890 29-03-2019 14:50:00 17.1 C 8.01 g/m*3 17.1 C 9.7 km/h
1891 29-03-2019 14:55:00 16.9 C 7.77 g/m*3 16.9 C 14.5 km/h
1892 29-03-2019 15:00:00 16.9 C 7.77 g/m*3 16.9 C 6.4 km/h
1893 29-03-2019 15:05:00 17.1 C 7.86 g/m*3 17.1 C 11.3 km/h
1894 29-03-2019 15:10:00 17.1 C 7.86 g/m*3 17.1 C 6.4 km/h
1895 29-03-2019 15:15:00 17.2 C 7.91 g/m*3 17.2 C 9.7 km/h
1896 29-03-2019 15:20:00 17.3 C 7.81 g/m*3 17.3 C 9.7 km/h
1897 29-03-2019 15:25:00 17.4 C 7.85 g/m*3 17.4 C 11.3 km/h
1898 29-03-2019 15:30:00 17.5 C 7.75 g/m*3 17.5 C 9.7 km/h
1899 29-03-2019 15:35:00 17.7 C 7.85 g/m*3 17.7 C 9.7 km/h
1900 29-03-2019 15:40:00 17.8 C 7.89 g/m*3 17.8 C 11.3 km/h
Sensor: Nr:Datum:Temp:Abs-Feuchte:Windchill:Wind:
Aussen-T/F 1901 29-03-2019 15:45:00 17.9 C 7.63 g/m*3 17.9 C 11.3 km/h
1902 29-03-2019 15:50:00 17.9 C 7.63 g/m*3 17.9 C 9.7 km/h
1903 29-03-2019 15:55:00 17.9 C 7.79 g/m*3 17.9 C 9.7 km/h
1904 29-03-2019 16:00:00 17.9 C 7.63 g/m*3 17.9 C 8.1 km/h
1905 29-03-2019 16:05:00 18 C 7.68 g/m*3 18 C 6.4 km/h
1906 29-03-2019 16:10:00 18.1 C 7.73 g/m*3 18.1 C 11.3 km/h
1907 29-03-2019 16:15:00 18.1 C 7.88 g/m*3 18.1 C 12.9 km/h
1908 29-03-2019 16:20:00 18.3 C 7.82 g/m*3 18.3 C 6.4 km/h
1909 29-03-2019 16:25:00 18.5 C 7.91 g/m*3 18.5 C 6.4 km/h
1910 29-03-2019 16:30:00 18.8 C 7.89 g/m*3 18.8 C 6.4 km/h
1911 29-03-2019 16:35:00 18.7 C 7.68 g/m*3 18.7 C 12.9 km/h
1912 29-03-2019 16:40:00 18.4 C 7.86 g/m*3 18.4 C 12.9 km/h
1913 29-03-2019 16:45:00 18.4 C 7.55 g/m*3 18.4 C 9.7 km/h
1914 29-03-2019 16:50:00 18.7 C 8.17 g/m*3 18.7 C 4.8 km/h
1915 29-03-2019 16:55:00 19.1 C 8.03 g/m*3 19.1 C 6.4 km/h
1916 29-03-2019 17:00:00 19 C 7.66 g/m*3 19 C 6.4 km/h
1917 29-03-2019 17:05:00 18.9 C 7.78 g/m*3 18.9 C 6.4 km/h
1918 29-03-2019 17:10:00 18.7 C 7.52 g/m*3 18.7 C 4.8 km/h
1919 29-03-2019 17:15:00 18.8 C 8.37 g/m*3 18.8 C 0 km/h
1920 29-03-2019 17:20:00 19.1 C 7.7 g/m*3 19.1 C 6.4 km/h
1921 29-03-2019 17:25:00 19.2 C 7.91 g/m*3 19.2 C 3.2 km/h
1922 29-03-2019 17:30:00 19.1 C 7.54 g/m*3 19.1 C 6.4 km/h
1923 29-03-2019 17:35:00 19.1 C 7.54 g/m*3 19.1 C 4.8 km/h
1924 29-03-2019 17:40:00 19.1 C 7.38 g/m*3 19.1 C 3.2 km/h
1925 29-03-2019 17:45:00 18.9 C 7.45 g/m*3 18.9 C 6.4 km/h
Sensor: Nr:Datum:Temp:Abs-Feuchte:Windchill:Wind:
Aussen-T/F 1926 29-03-2019 17:50:00 18.7 C 7.52 g/m*3 18.7 C 1.6 km/h
1927 29-03-2019 17:55:00 18.7 C 8.01 g/m*3 18.7 C 4.8 km/h
1928 29-03-2019 18:00:00 18.6 C 7.64 g/m*3 18.6 C 8.1 km/h
1929 29-03-2019 18:05:00 18.4 C 8.18 g/m*3 18.4 C 4.8 km/h
1930 29-03-2019 18:10:00 18.3 C 7.35 g/m*3 18.3 C 6.4 km/h
1931 29-03-2019 18:15:00 18.1 C 7.26 g/m*3 18.1 C 3.2 km/h
1932 29-03-2019 18:20:00 17.9 C 7.94 g/m*3 17.9 C 0 km/h
1933 29-03-2019 18:25:00 17.7 C 8 g/m*3 17.7 C 3.2 km/h
1934 29-03-2019 18:30:00 17.3 C 7.81 g/m*3 17.3 C 1.6 km/h
1935 29-03-2019 18:35:00 16.9 C 7.91 g/m*3 16.9 C 3.2 km/h
1936 29-03-2019 18:40:00 16.3 C 7.77 g/m*3 16.3 C 1.6 km/h
1937 29-03-2019 18:45:00 15.4 C 7.75 g/m*3 15.4 C 0 km/h
1938 29-03-2019 18:50:00 14.7 C 7.68 g/m*3 14.7 C 0 km/h
1939 29-03-2019 18:55:00 13.9 C 7.55 g/m*3 13.9 C 0 km/h
1940 29-03-2019 19:00:00 13.2 C 7.35 g/m*3 13.2 C 0 km/h
1941 29-03-2019 19:05:00 12.7 C 7.46 g/m*3 12.7 C 4.8 km/h
1942 29-03-2019 19:10:00 12.3 C 7.38 g/m*3 12.3 C 4.8 km/h
1943 29-03-2019 19:15:00 11.9 C 7.31 g/m*3 11.9 C 4.8 km/h
1944 29-03-2019 19:20:00 11.6 C 7.28 g/m*3 11.6 C 6.4 km/h
1945 29-03-2019 19:25:00 11.4 C 7.29 g/m*3 11.4 C 6.4 km/h
1946 29-03-2019 19:30:00 11.2 C 7.2 g/m*3 11.2 C 6.4 km/h
1947 29-03-2019 19:35:00 11.1 C 7.25 g/m*3 11.1 C 6.4 km/h
1948 29-03-2019 19:40:00 10.9 C 7.16 g/m*3 10.41 C 6.4 km/h
1949 29-03-2019 19:45:00 10.8 C 7.12 g/m*3 10.29 C 6.4 km/h
1950 29-03-2019 19:50:00 10.8 C 7.12 g/m*3 10.29 C 6.4 km/h
Sensor: Nr:Datum:Temp:Abs-Feuchte:Windchill:Wind:
Aussen-T/F 1951 29-03-2019 19:55:00 10.7 C 7.17 g/m*3 10.18 C 6.4 km/h
1952 29-03-2019 20:00:00 10.6 C 7.12 g/m*3 10.06 C 6.4 km/h
1953 29-03-2019 20:05:00 10.5 C 7.18 g/m*3 9.95 C 6.4 km/h
1954 29-03-2019 20:10:00 10.4 C 7.13 g/m*3 10.4 C 4.8 km/h
1955 29-03-2019 20:15:00 10.3 C 7.18 g/m*3 10.3 C 1.6 km/h
1956 29-03-2019 20:20:00 10.1 C 7.09 g/m*3 10.1 C 0 km/h
1957 29-03-2019 20:25:00 9.9 C 7.1 g/m*3 9.9 C 0 km/h
1958 29-03-2019 20:30:00 9.8 C 7.14 g/m*3 9.8 C 0 km/h
1959 29-03-2019 20:35:00 9.7 C 7.19 g/m*3 9.7 C 0 km/h
1960 29-03-2019 20:40:00 9.5 C 7.01 g/m*3 9.5 C 0 km/h
1961 29-03-2019 20:45:00 9.3 C 7.01 g/m*3 9.3 C 0 km/h
1962 29-03-2019 20:50:00 9.2 C 7.05 g/m*3 9.2 C 0 km/h
1963 29-03-2019 20:55:00 9.1 C 7.01 g/m*3 9.1 C 0 km/h
1964 29-03-2019 21:00:00 8.9 C 7.01 g/m*3 8.9 C 0 km/h
1965 29-03-2019 21:05:00 8.8 C 6.88 g/m*3 8.8 C 0 km/h
1966 29-03-2019 21:10:00 8.6 C 6.87 g/m*3 8.6 C 0 km/h
1967 29-03-2019 21:15:00 8.6 C 6.96 g/m*3 8.6 C 0 km/h
1968 29-03-2019 21:20:00 8.4 C 6.87 g/m*3 8.4 C 0 km/h
1969 29-03-2019 21:25:00 8.2 C 6.78 g/m*3 8.2 C 0 km/h
1970 29-03-2019 21:30:00 8 C 6.7 g/m*3 8 C 0 km/h
1971 29-03-2019 21:35:00 7.8 C 6.69 g/m*3 7.8 C 0 km/h
1972 29-03-2019 21:40:00 7.8 C 6.69 g/m*3 7.8 C 0 km/h
1973 29-03-2019 21:45:00 7.6 C 6.61 g/m*3 7.6 C 0 km/h
1974 29-03-2019 21:50:00 7.3 C 6.56 g/m*3 7.3 C 0 km/h
1975 29-03-2019 21:55:00 7.3 C 6.64 g/m*3 7.3 C 0 km/h
Sensor: Nr:Datum:Temp:Abs-Feuchte:Windchill:Wind:
Aussen-T/F 1976 29-03-2019 22:00:00 7.2 C 6.59 g/m*3 7.2 C 0 km/h
1977 29-03-2019 22:05:00 7.1 C 6.47 g/m*3 7.1 C 0 km/h
1978 29-03-2019 22:10:00 7.1 C 6.55 g/m*3 7.1 C 0 km/h
1979 29-03-2019 22:15:00 6.9 C 6.47 g/m*3 6.9 C 0 km/h
1980 29-03-2019 22:20:00 6.8 C 6.42 g/m*3 6.8 C 0 km/h
1981 29-03-2019 22:25:00 6.8 C 6.5 g/m*3 6.8 C 0 km/h
1982 29-03-2019 22:30:00 6.7 C 6.46 g/m*3 6.7 C 0 km/h
1983 29-03-2019 22:35:00 6.6 C 6.42 g/m*3 6.6 C 0 km/h
1984 29-03-2019 22:40:00 6.4 C 6.33 g/m*3 6.4 C 0 km/h
1985 29-03-2019 22:45:00 6.3 C 6.29 g/m*3 6.3 C 0 km/h
1986 29-03-2019 22:50:00 6.3 C 6.29 g/m*3 6.3 C 0 km/h
1987 29-03-2019 22:55:00 6.2 C 6.25 g/m*3 6.2 C 0 km/h
1988 29-03-2019 23:00:00 6.1 C 6.28 g/m*3 6.1 C 0 km/h
1989 29-03-2019 23:05:00 5.9 C 6.2 g/m*3 5.9 C 0 km/h
1990 29-03-2019 23:10:00 5.8 C 6.16 g/m*3 5.8 C 0 km/h
1991 29-03-2019 23:15:00 5.8 C 6.23 g/m*3 5.8 C 0 km/h
1992 29-03-2019 23:20:00 5.8 C 6.23 g/m*3 5.8 C 0 km/h
1993 29-03-2019 23:25:00 5.7 C 6.19 g/m*3 5.7 C 0 km/h
1994 29-03-2019 23:30:00 5.6 C 6.15 g/m*3 5.6 C 0 km/h
1995 29-03-2019 23:35:00 5.4 C 6.07 g/m*3 5.4 C 0 km/h
1996 29-03-2019 23:40:00 5.3 C 6.1 g/m*3 5.3 C 0 km/h
1997 29-03-2019 23:45:00 5.2 C 6.06 g/m*3 5.2 C 0 km/h
1998 29-03-2019 23:50:00 5.2 C 6.13 g/m*3 5.2 C 0 km/h
1999 29-03-2019 23:55:00 5.1 C 6.02 g/m*3 5.1 C 0 km/h

Legende:
   Min
   Max


Maximal/Minimal-Werte vom 23.03.2019 - 29.03.2019

Sensor Min Max Avg
Temp
(Aussen-T/F)
0.6 °C
24-03-2019  04:00:00
19.2 °C
29-03-2019  17:25:00
6.79 °C
Abs-Feuchte
(Aussen-T/F)
4.64 g/m*3
25-03-2019  01:40:00
8.68 g/m*3
29-03-2019  11:30:00
6.3 g/m*3
Windchill
(Aussen-T/F)
-0.99 C
25-03-2019  03:00:00
19.2 C
29-03-2019  17:25:00
6.37 C

Die Daten stammen von einer Davis Vantage Pro 2 Wetter-Station und werden unter Linux mit der Software wview2wettercgi und aufbereitet. Alle Angaben erfolgen ohne Gewähr für ihre Vollständigkeit oder Richtigkeit.
Kontakt: Rainer Krienke krienke@uni-koblenz.de . Meine Webseiten an der Uni Koblenz oder privat.
Version: $Revision: 0.78 $